<?xml version="1.0" encoding="utf-8"?>
<gpx xmlns:xsi="http://www.w3.org/2001/XMLSchema-instance" xmlns:xsd="http://www.w3.org/2001/XMLSchema" version="1.1" creator="Shapelink.com" xmlns="http://www.topografix.com/GPX/1/1" xmlns:gpxtpx="http://www.garmin.com/xmlschemas/TrackPointExtension/v1">
  <metadata>
    <name>Ejecutar 5.35 km, 2019-11-25</name>
    <desc></desc>
    <author><name>Peter Littke</name></author> 
    <time>2019-11-25T06:32:58Z</time>
  </metadata>
  <trk>
    <name>Ejecutar 5.35 km, 2019-11-25</name>
    <trkseg>
      <trkpt lat="59.29914" lon="18.081547">
        <ele>39</ele>
        <time>2019-11-25T06:32:58Z</time>
      </trkpt>
      <trkpt lat="59.29915" lon="18.081646">
        <ele>39</ele>
        <time>2019-11-25T06:33:00Z</time>
      </trkpt>
      <trkpt lat="59.299168" lon="18.081776">
        <ele>40</ele>
        <time>2019-11-25T06:33:02Z</time>
      </trkpt>
      <trkpt lat="59.29917" lon="18.081841">
        <ele>40</ele>
        <time>2019-11-25T06:33:03Z</time>
      </trkpt>
      <trkpt lat="59.299177" lon="18.081908">
        <ele>40</ele>
        <time>2019-11-25T06:33:04Z</time>
      </trkpt>
      <trkpt lat="59.29918" lon="18.081973">
        <ele>40</ele>
        <time>2019-11-25T06:33:05Z</time>
      </trkpt>
      <trkpt lat="59.299179" lon="18.082034">
        <ele>40</ele>
        <time>2019-11-25T06:33:06Z</time>
      </trkpt>
      <trkpt lat="59.29917" lon="18.082091">
        <ele>40</ele>
        <time>2019-11-25T06:33:07Z</time>
      </trkpt>
      <trkpt lat="59.299158" lon="18.082145">
        <ele>40</ele>
        <time>2019-11-25T06:33:08Z</time>
      </trkpt>
      <trkpt lat="59.299137" lon="18.082194">
        <ele>40</ele>
        <time>2019-11-25T06:33:09Z</time>
      </trkpt>
      <trkpt lat="59.299114" lon="18.082242">
        <ele>40</ele>
        <time>2019-11-25T06:33:10Z</time>
      </trkpt>
      <trkpt lat="59.299086" lon="18.082293">
        <ele>40</ele>
        <time>2019-11-25T06:33:11Z</time>
      </trkpt>
      <trkpt lat="59.299054" lon="18.082329">
        <ele>40</ele>
        <time>2019-11-25T06:33:12Z</time>
      </trkpt>
      <trkpt lat="59.299024" lon="18.082356">
        <ele>40</ele>
        <time>2019-11-25T06:33:13Z</time>
      </trkpt>
      <trkpt lat="59.298993" lon="18.082376">
        <ele>40</ele>
        <time>2019-11-25T06:33:14Z</time>
      </trkpt>
      <trkpt lat="59.298962" lon="18.082397">
        <ele>40</ele>
        <time>2019-11-25T06:33:15Z</time>
      </trkpt>
      <trkpt lat="59.298932" lon="18.082421">
        <ele>40</ele>
        <time>2019-11-25T06:33:16Z</time>
      </trkpt>
      <trkpt lat="59.298905" lon="18.082442">
        <ele>40</ele>
        <time>2019-11-25T06:33:17Z</time>
      </trkpt>
      <trkpt lat="59.298876" lon="18.082462">
        <ele>40</ele>
        <time>2019-11-25T06:33:18Z</time>
      </trkpt>
      <trkpt lat="59.298849" lon="18.082483">
        <ele>41</ele>
        <time>2019-11-25T06:33:19Z</time>
      </trkpt>
      <trkpt lat="59.298824" lon="18.082498">
        <ele>40</ele>
        <time>2019-11-25T06:33:20Z</time>
      </trkpt>
      <trkpt lat="59.298801" lon="18.08251">
        <ele>40</ele>
        <time>2019-11-25T06:33:21Z</time>
      </trkpt>
      <trkpt lat="59.298781" lon="18.082512">
        <ele>40</ele>
        <time>2019-11-25T06:33:22Z</time>
      </trkpt>
      <trkpt lat="59.2988" lon="18.082464">
        <ele>40</ele>
        <time>2019-11-25T06:33:25Z</time>
      </trkpt>
      <trkpt lat="59.298827" lon="18.082441">
        <ele>40</ele>
        <time>2019-11-25T06:33:27Z</time>
      </trkpt>
      <trkpt lat="59.298849" lon="18.082424">
        <ele>39</ele>
        <time>2019-11-25T06:33:28Z</time>
      </trkpt>
      <trkpt lat="59.298875" lon="18.082403">
        <ele>39</ele>
        <time>2019-11-25T06:33:29Z</time>
      </trkpt>
      <trkpt lat="59.298902" lon="18.082378">
        <ele>39</ele>
        <time>2019-11-25T06:33:30Z</time>
      </trkpt>
      <trkpt lat="59.298925" lon="18.082352">
        <ele>39</ele>
        <time>2019-11-25T06:33:31Z</time>
      </trkpt>
      <trkpt lat="59.298947" lon="18.08232">
        <ele>39</ele>
        <time>2019-11-25T06:33:32Z</time>
      </trkpt>
      <trkpt lat="59.298976" lon="18.082295">
        <ele>39</ele>
        <time>2019-11-25T06:33:33Z</time>
      </trkpt>
      <trkpt lat="59.299004" lon="18.08228">
        <ele>39</ele>
        <time>2019-11-25T06:33:34Z</time>
      </trkpt>
      <trkpt lat="59.299029" lon="18.082259">
        <ele>39</ele>
        <time>2019-11-25T06:33:35Z</time>
      </trkpt>
      <trkpt lat="59.299052" lon="18.082248">
        <ele>40</ele>
        <time>2019-11-25T06:33:36Z</time>
      </trkpt>
      <trkpt lat="59.299075" lon="18.082241">
        <ele>39</ele>
        <time>2019-11-25T06:33:37Z</time>
      </trkpt>
      <trkpt lat="59.299112" lon="18.082221">
        <ele>39</ele>
        <time>2019-11-25T06:33:39Z</time>
      </trkpt>
      <trkpt lat="59.299132" lon="18.082211">
        <ele>39</ele>
        <time>2019-11-25T06:33:40Z</time>
      </trkpt>
      <trkpt lat="59.29916" lon="18.082207">
        <ele>39</ele>
        <time>2019-11-25T06:33:41Z</time>
      </trkpt>
      <trkpt lat="59.299184" lon="18.082207">
        <ele>40</ele>
        <time>2019-11-25T06:33:42Z</time>
      </trkpt>
      <trkpt lat="59.2993" lon="18.082234">
        <ele>40</ele>
        <time>2019-11-25T06:33:46Z</time>
      </trkpt>
      <trkpt lat="59.29942" lon="18.082193">
        <ele>40</ele>
        <time>2019-11-25T06:33:49Z</time>
      </trkpt>
      <trkpt lat="59.299457" lon="18.082174">
        <ele>40</ele>
        <time>2019-11-25T06:33:50Z</time>
      </trkpt>
      <trkpt lat="59.299494" lon="18.082152">
        <ele>40</ele>
        <time>2019-11-25T06:33:51Z</time>
      </trkpt>
      <trkpt lat="59.299525" lon="18.082139">
        <ele>40</ele>
        <time>2019-11-25T06:33:52Z</time>
      </trkpt>
      <trkpt lat="59.299561" lon="18.08213">
        <ele>40</ele>
        <time>2019-11-25T06:33:53Z</time>
      </trkpt>
      <trkpt lat="59.299592" lon="18.082112">
        <ele>40</ele>
        <time>2019-11-25T06:33:54Z</time>
      </trkpt>
      <trkpt lat="59.29962" lon="18.082096">
        <ele>40</ele>
        <time>2019-11-25T06:33:55Z</time>
      </trkpt>
      <trkpt lat="59.29964" lon="18.082052">
        <ele>40</ele>
        <time>2019-11-25T06:33:56Z</time>
      </trkpt>
      <trkpt lat="59.299671" lon="18.082034">
        <ele>40</ele>
        <time>2019-11-25T06:33:57Z</time>
      </trkpt>
      <trkpt lat="59.299703" lon="18.082022">
        <ele>40</ele>
        <time>2019-11-25T06:33:58Z</time>
      </trkpt>
      <trkpt lat="59.299735" lon="18.082008">
        <ele>40</ele>
        <time>2019-11-25T06:33:59Z</time>
      </trkpt>
      <trkpt lat="59.299764" lon="18.081991">
        <ele>40</ele>
        <time>2019-11-25T06:34:00Z</time>
      </trkpt>
      <trkpt lat="59.299792" lon="18.081979">
        <ele>40</ele>
        <time>2019-11-25T06:34:01Z</time>
      </trkpt>
      <trkpt lat="59.299821" lon="18.08196">
        <ele>40</ele>
        <time>2019-11-25T06:34:02Z</time>
      </trkpt>
      <trkpt lat="59.299848" lon="18.081945">
        <ele>40</ele>
        <time>2019-11-25T06:34:03Z</time>
      </trkpt>
      <trkpt lat="59.299874" lon="18.081931">
        <ele>40</ele>
        <time>2019-11-25T06:34:04Z</time>
      </trkpt>
      <trkpt lat="59.299901" lon="18.081911">
        <ele>41</ele>
        <time>2019-11-25T06:34:05Z</time>
      </trkpt>
      <trkpt lat="59.299927" lon="18.081885">
        <ele>41</ele>
        <time>2019-11-25T06:34:06Z</time>
      </trkpt>
      <trkpt lat="59.299956" lon="18.081862">
        <ele>41</ele>
        <time>2019-11-25T06:34:07Z</time>
      </trkpt>
      <trkpt lat="59.299985" lon="18.081835">
        <ele>40</ele>
        <time>2019-11-25T06:34:08Z</time>
      </trkpt>
      <trkpt lat="59.30001" lon="18.081808">
        <ele>40</ele>
        <time>2019-11-25T06:34:09Z</time>
      </trkpt>
      <trkpt lat="59.300038" lon="18.081781">
        <ele>41</ele>
        <time>2019-11-25T06:34:10Z</time>
      </trkpt>
      <trkpt lat="59.300069" lon="18.081756">
        <ele>41</ele>
        <time>2019-11-25T06:34:11Z</time>
      </trkpt>
      <trkpt lat="59.300098" lon="18.081736">
        <ele>41</ele>
        <time>2019-11-25T06:34:12Z</time>
      </trkpt>
      <trkpt lat="59.300129" lon="18.081718">
        <ele>41</ele>
        <time>2019-11-25T06:34:13Z</time>
      </trkpt>
      <trkpt lat="59.300157" lon="18.0817">
        <ele>41</ele>
        <time>2019-11-25T06:34:14Z</time>
      </trkpt>
      <trkpt lat="59.300184" lon="18.081679">
        <ele>41</ele>
        <time>2019-11-25T06:34:15Z</time>
      </trkpt>
      <trkpt lat="59.300212" lon="18.081652">
        <ele>41</ele>
        <time>2019-11-25T06:34:16Z</time>
      </trkpt>
      <trkpt lat="59.300242" lon="18.081633">
        <ele>41</ele>
        <time>2019-11-25T06:34:17Z</time>
      </trkpt>
      <trkpt lat="59.300268" lon="18.081613">
        <ele>41</ele>
        <time>2019-11-25T06:34:18Z</time>
      </trkpt>
      <trkpt lat="59.3003" lon="18.081597">
        <ele>41</ele>
        <time>2019-11-25T06:34:19Z</time>
      </trkpt>
      <trkpt lat="59.300326" lon="18.081579">
        <ele>41</ele>
        <time>2019-11-25T06:34:20Z</time>
      </trkpt>
      <trkpt lat="59.300355" lon="18.081559">
        <ele>42</ele>
        <time>2019-11-25T06:34:21Z</time>
      </trkpt>
      <trkpt lat="59.300385" lon="18.081538">
        <ele>42</ele>
        <time>2019-11-25T06:34:22Z</time>
      </trkpt>
      <trkpt lat="59.30042" lon="18.081523">
        <ele>42</ele>
        <time>2019-11-25T06:34:23Z</time>
      </trkpt>
      <trkpt lat="59.300449" lon="18.081502">
        <ele>42</ele>
        <time>2019-11-25T06:34:24Z</time>
      </trkpt>
      <trkpt lat="59.300479" lon="18.081486">
        <ele>42</ele>
        <time>2019-11-25T06:34:25Z</time>
      </trkpt>
      <trkpt lat="59.300508" lon="18.081472">
        <ele>42</ele>
        <time>2019-11-25T06:34:26Z</time>
      </trkpt>
      <trkpt lat="59.300533" lon="18.081446">
        <ele>42</ele>
        <time>2019-11-25T06:34:27Z</time>
      </trkpt>
      <trkpt lat="59.300558" lon="18.081424">
        <ele>43</ele>
        <time>2019-11-25T06:34:28Z</time>
      </trkpt>
      <trkpt lat="59.300589" lon="18.081396">
        <ele>43</ele>
        <time>2019-11-25T06:34:29Z</time>
      </trkpt>
      <trkpt lat="59.30062" lon="18.081377">
        <ele>43</ele>
        <time>2019-11-25T06:34:30Z</time>
      </trkpt>
      <trkpt lat="59.300649" lon="18.081363">
        <ele>43</ele>
        <time>2019-11-25T06:34:31Z</time>
      </trkpt>
      <trkpt lat="59.300679" lon="18.081345">
        <ele>43</ele>
        <time>2019-11-25T06:34:32Z</time>
      </trkpt>
      <trkpt lat="59.300708" lon="18.081322">
        <ele>43</ele>
        <time>2019-11-25T06:34:33Z</time>
      </trkpt>
      <trkpt lat="59.300738" lon="18.081297">
        <ele>43</ele>
        <time>2019-11-25T06:34:34Z</time>
      </trkpt>
      <trkpt lat="59.300767" lon="18.081272">
        <ele>43</ele>
        <time>2019-11-25T06:34:35Z</time>
      </trkpt>
      <trkpt lat="59.300794" lon="18.081241">
        <ele>43</ele>
        <time>2019-11-25T06:34:36Z</time>
      </trkpt>
      <trkpt lat="59.300823" lon="18.081216">
        <ele>43</ele>
        <time>2019-11-25T06:34:37Z</time>
      </trkpt>
      <trkpt lat="59.300851" lon="18.081192">
        <ele>42</ele>
        <time>2019-11-25T06:34:38Z</time>
      </trkpt>
      <trkpt lat="59.300878" lon="18.081171">
        <ele>42</ele>
        <time>2019-11-25T06:34:39Z</time>
      </trkpt>
      <trkpt lat="59.300907" lon="18.081157">
        <ele>43</ele>
        <time>2019-11-25T06:34:40Z</time>
      </trkpt>
      <trkpt lat="59.300936" lon="18.081133">
        <ele>43</ele>
        <time>2019-11-25T06:34:41Z</time>
      </trkpt>
      <trkpt lat="59.300965" lon="18.081105">
        <ele>43</ele>
        <time>2019-11-25T06:34:42Z</time>
      </trkpt>
      <trkpt lat="59.30099" lon="18.081074">
        <ele>43</ele>
        <time>2019-11-25T06:34:43Z</time>
      </trkpt>
      <trkpt lat="59.301017" lon="18.081036">
        <ele>43</ele>
        <time>2019-11-25T06:34:44Z</time>
      </trkpt>
      <trkpt lat="59.301043" lon="18.080998">
        <ele>43</ele>
        <time>2019-11-25T06:34:45Z</time>
      </trkpt>
      <trkpt lat="59.301073" lon="18.080967">
        <ele>43</ele>
        <time>2019-11-25T06:34:46Z</time>
      </trkpt>
      <trkpt lat="59.301099" lon="18.080938">
        <ele>43</ele>
        <time>2019-11-25T06:34:47Z</time>
      </trkpt>
      <trkpt lat="59.301125" lon="18.080908">
        <ele>43</ele>
        <time>2019-11-25T06:34:48Z</time>
      </trkpt>
      <trkpt lat="59.301152" lon="18.080892">
        <ele>43</ele>
        <time>2019-11-25T06:34:49Z</time>
      </trkpt>
      <trkpt lat="59.301179" lon="18.080871">
        <ele>43</ele>
        <time>2019-11-25T06:34:50Z</time>
      </trkpt>
      <trkpt lat="59.301203" lon="18.080845">
        <ele>43</ele>
        <time>2019-11-25T06:34:51Z</time>
      </trkpt>
      <trkpt lat="59.301228" lon="18.080812">
        <ele>43</ele>
        <time>2019-11-25T06:34:52Z</time>
      </trkpt>
      <trkpt lat="59.301256" lon="18.080786">
        <ele>43</ele>
        <time>2019-11-25T06:34:53Z</time>
      </trkpt>
      <trkpt lat="59.301283" lon="18.080763">
        <ele>43</ele>
        <time>2019-11-25T06:34:54Z</time>
      </trkpt>
      <trkpt lat="59.301307" lon="18.080737">
        <ele>43</ele>
        <time>2019-11-25T06:34:55Z</time>
      </trkpt>
      <trkpt lat="59.301335" lon="18.080714">
        <ele>42</ele>
        <time>2019-11-25T06:34:56Z</time>
      </trkpt>
      <trkpt lat="59.301368" lon="18.080695">
        <ele>42</ele>
        <time>2019-11-25T06:34:57Z</time>
      </trkpt>
      <trkpt lat="59.301399" lon="18.080677">
        <ele>42</ele>
        <time>2019-11-25T06:34:58Z</time>
      </trkpt>
      <trkpt lat="59.301429" lon="18.080656">
        <ele>42</ele>
        <time>2019-11-25T06:34:59Z</time>
      </trkpt>
      <trkpt lat="59.301459" lon="18.080634">
        <ele>42</ele>
        <time>2019-11-25T06:35:00Z</time>
      </trkpt>
      <trkpt lat="59.301487" lon="18.080611">
        <ele>43</ele>
        <time>2019-11-25T06:35:01Z</time>
      </trkpt>
      <trkpt lat="59.301514" lon="18.080587">
        <ele>43</ele>
        <time>2019-11-25T06:35:02Z</time>
      </trkpt>
      <trkpt lat="59.301539" lon="18.08056">
        <ele>43</ele>
        <time>2019-11-25T06:35:03Z</time>
      </trkpt>
      <trkpt lat="59.301572" lon="18.080539">
        <ele>43</ele>
        <time>2019-11-25T06:35:04Z</time>
      </trkpt>
      <trkpt lat="59.3016" lon="18.080513">
        <ele>42</ele>
        <time>2019-11-25T06:35:05Z</time>
      </trkpt>
      <trkpt lat="59.301632" lon="18.080488">
        <ele>42</ele>
        <time>2019-11-25T06:35:06Z</time>
      </trkpt>
      <trkpt lat="59.301661" lon="18.080463">
        <ele>42</ele>
        <time>2019-11-25T06:35:07Z</time>
      </trkpt>
      <trkpt lat="59.30169" lon="18.080443">
        <ele>42</ele>
        <time>2019-11-25T06:35:08Z</time>
      </trkpt>
      <trkpt lat="59.301719" lon="18.080421">
        <ele>42</ele>
        <time>2019-11-25T06:35:09Z</time>
      </trkpt>
      <trkpt lat="59.301749" lon="18.080397">
        <ele>42</ele>
        <time>2019-11-25T06:35:10Z</time>
      </trkpt>
      <trkpt lat="59.301777" lon="18.080371">
        <ele>42</ele>
        <time>2019-11-25T06:35:12Z</time>
      </trkpt>
      <trkpt lat="59.301807" lon="18.080349">
        <ele>42</ele>
        <time>2019-11-25T06:35:12Z</time>
      </trkpt>
      <trkpt lat="59.301838" lon="18.08033">
        <ele>42</ele>
        <time>2019-11-25T06:35:13Z</time>
      </trkpt>
      <trkpt lat="59.301869" lon="18.080311">
        <ele>42</ele>
        <time>2019-11-25T06:35:14Z</time>
      </trkpt>
      <trkpt lat="59.301902" lon="18.080293">
        <ele>43</ele>
        <time>2019-11-25T06:35:15Z</time>
      </trkpt>
      <trkpt lat="59.301934" lon="18.080274">
        <ele>43</ele>
        <time>2019-11-25T06:35:16Z</time>
      </trkpt>
      <trkpt lat="59.301964" lon="18.080258">
        <ele>43</ele>
        <time>2019-11-25T06:35:17Z</time>
      </trkpt>
      <trkpt lat="59.301993" lon="18.080241">
        <ele>43</ele>
        <time>2019-11-25T06:35:18Z</time>
      </trkpt>
      <trkpt lat="59.302023" lon="18.080225">
        <ele>43</ele>
        <time>2019-11-25T06:35:19Z</time>
      </trkpt>
      <trkpt lat="59.302051" lon="18.080211">
        <ele>43</ele>
        <time>2019-11-25T06:35:20Z</time>
      </trkpt>
      <trkpt lat="59.302082" lon="18.080191">
        <ele>43</ele>
        <time>2019-11-25T06:35:21Z</time>
      </trkpt>
      <trkpt lat="59.302112" lon="18.080175">
        <ele>43</ele>
        <time>2019-11-25T06:35:22Z</time>
      </trkpt>
      <trkpt lat="59.302141" lon="18.080162">
        <ele>43</ele>
        <time>2019-11-25T06:35:23Z</time>
      </trkpt>
      <trkpt lat="59.302169" lon="18.080149">
        <ele>43</ele>
        <time>2019-11-25T06:35:24Z</time>
      </trkpt>
      <trkpt lat="59.302199" lon="18.080139">
        <ele>43</ele>
        <time>2019-11-25T06:35:25Z</time>
      </trkpt>
      <trkpt lat="59.302228" lon="18.080125">
        <ele>43</ele>
        <time>2019-11-25T06:35:26Z</time>
      </trkpt>
      <trkpt lat="59.302257" lon="18.080112">
        <ele>43</ele>
        <time>2019-11-25T06:35:27Z</time>
      </trkpt>
      <trkpt lat="59.302285" lon="18.080094">
        <ele>42</ele>
        <time>2019-11-25T06:35:28Z</time>
      </trkpt>
      <trkpt lat="59.302314" lon="18.08008">
        <ele>42</ele>
        <time>2019-11-25T06:35:29Z</time>
      </trkpt>
      <trkpt lat="59.302343" lon="18.080064">
        <ele>42</ele>
        <time>2019-11-25T06:35:30Z</time>
      </trkpt>
      <trkpt lat="59.302373" lon="18.080048">
        <ele>42</ele>
        <time>2019-11-25T06:35:31Z</time>
      </trkpt>
      <trkpt lat="59.302402" lon="18.080033">
        <ele>42</ele>
        <time>2019-11-25T06:35:32Z</time>
      </trkpt>
      <trkpt lat="59.302433" lon="18.080016">
        <ele>42</ele>
        <time>2019-11-25T06:35:33Z</time>
      </trkpt>
      <trkpt lat="59.302462" lon="18.079994">
        <ele>42</ele>
        <time>2019-11-25T06:35:34Z</time>
      </trkpt>
      <trkpt lat="59.302492" lon="18.079978">
        <ele>42</ele>
        <time>2019-11-25T06:35:35Z</time>
      </trkpt>
      <trkpt lat="59.302521" lon="18.079956">
        <ele>42</ele>
        <time>2019-11-25T06:35:36Z</time>
      </trkpt>
      <trkpt lat="59.302552" lon="18.079937">
        <ele>42</ele>
        <time>2019-11-25T06:35:37Z</time>
      </trkpt>
      <trkpt lat="59.30258" lon="18.079919">
        <ele>42</ele>
        <time>2019-11-25T06:35:38Z</time>
      </trkpt>
      <trkpt lat="59.302609" lon="18.079906">
        <ele>42</ele>
        <time>2019-11-25T06:35:39Z</time>
      </trkpt>
      <trkpt lat="59.302637" lon="18.079887">
        <ele>42</ele>
        <time>2019-11-25T06:35:40Z</time>
      </trkpt>
      <trkpt lat="59.302667" lon="18.079871">
        <ele>42</ele>
        <time>2019-11-25T06:35:41Z</time>
      </trkpt>
      <trkpt lat="59.302695" lon="18.079853">
        <ele>42</ele>
        <time>2019-11-25T06:35:42Z</time>
      </trkpt>
      <trkpt lat="59.302725" lon="18.079837">
        <ele>42</ele>
        <time>2019-11-25T06:35:43Z</time>
      </trkpt>
      <trkpt lat="59.302755" lon="18.079817">
        <ele>42</ele>
        <time>2019-11-25T06:35:44Z</time>
      </trkpt>
      <trkpt lat="59.302785" lon="18.079799">
        <ele>42</ele>
        <time>2019-11-25T06:35:45Z</time>
      </trkpt>
      <trkpt lat="59.302814" lon="18.079782">
        <ele>42</ele>
        <time>2019-11-25T06:35:46Z</time>
      </trkpt>
      <trkpt lat="59.302842" lon="18.079767">
        <ele>42</ele>
        <time>2019-11-25T06:35:47Z</time>
      </trkpt>
      <trkpt lat="59.302872" lon="18.079752">
        <ele>42</ele>
        <time>2019-11-25T06:35:48Z</time>
      </trkpt>
      <trkpt lat="59.3029" lon="18.079736">
        <ele>42</ele>
        <time>2019-11-25T06:35:49Z</time>
      </trkpt>
      <trkpt lat="59.302929" lon="18.079717">
        <ele>42</ele>
        <time>2019-11-25T06:35:50Z</time>
      </trkpt>
      <trkpt lat="59.302957" lon="18.079694">
        <ele>42</ele>
        <time>2019-11-25T06:35:51Z</time>
      </trkpt>
      <trkpt lat="59.302987" lon="18.079673">
        <ele>42</ele>
        <time>2019-11-25T06:35:52Z</time>
      </trkpt>
      <trkpt lat="59.303014" lon="18.079654">
        <ele>42</ele>
        <time>2019-11-25T06:35:53Z</time>
      </trkpt>
      <trkpt lat="59.303044" lon="18.079632">
        <ele>41</ele>
        <time>2019-11-25T06:35:54Z</time>
      </trkpt>
      <trkpt lat="59.303071" lon="18.079615">
        <ele>41</ele>
        <time>2019-11-25T06:35:55Z</time>
      </trkpt>
      <trkpt lat="59.303101" lon="18.079594">
        <ele>41</ele>
        <time>2019-11-25T06:35:56Z</time>
      </trkpt>
      <trkpt lat="59.303128" lon="18.079574">
        <ele>41</ele>
        <time>2019-11-25T06:35:57Z</time>
      </trkpt>
      <trkpt lat="59.303157" lon="18.079555">
        <ele>41</ele>
        <time>2019-11-25T06:35:58Z</time>
      </trkpt>
      <trkpt lat="59.303186" lon="18.079541">
        <ele>41</ele>
        <time>2019-11-25T06:35:59Z</time>
      </trkpt>
      <trkpt lat="59.303215" lon="18.079522">
        <ele>41</ele>
        <time>2019-11-25T06:36:00Z</time>
      </trkpt>
      <trkpt lat="59.303244" lon="18.079503">
        <ele>41</ele>
        <time>2019-11-25T06:36:01Z</time>
      </trkpt>
      <trkpt lat="59.303274" lon="18.079484">
        <ele>41</ele>
        <time>2019-11-25T06:36:02Z</time>
      </trkpt>
      <trkpt lat="59.303303" lon="18.079464">
        <ele>41</ele>
        <time>2019-11-25T06:36:03Z</time>
      </trkpt>
      <trkpt lat="59.303333" lon="18.079443">
        <ele>41</ele>
        <time>2019-11-25T06:36:04Z</time>
      </trkpt>
      <trkpt lat="59.303362" lon="18.079423">
        <ele>41</ele>
        <time>2019-11-25T06:36:05Z</time>
      </trkpt>
      <trkpt lat="59.303392" lon="18.079404">
        <ele>41</ele>
        <time>2019-11-25T06:36:06Z</time>
      </trkpt>
      <trkpt lat="59.303423" lon="18.079382">
        <ele>41</ele>
        <time>2019-11-25T06:36:07Z</time>
      </trkpt>
      <trkpt lat="59.303452" lon="18.079357">
        <ele>41</ele>
        <time>2019-11-25T06:36:08Z</time>
      </trkpt>
      <trkpt lat="59.303481" lon="18.079335">
        <ele>41</ele>
        <time>2019-11-25T06:36:09Z</time>
      </trkpt>
      <trkpt lat="59.303509" lon="18.079317">
        <ele>41</ele>
        <time>2019-11-25T06:36:10Z</time>
      </trkpt>
      <trkpt lat="59.303537" lon="18.079298">
        <ele>41</ele>
        <time>2019-11-25T06:36:11Z</time>
      </trkpt>
      <trkpt lat="59.303566" lon="18.07928">
        <ele>41</ele>
        <time>2019-11-25T06:36:12Z</time>
      </trkpt>
      <trkpt lat="59.303598" lon="18.079259">
        <ele>41</ele>
        <time>2019-11-25T06:36:13Z</time>
      </trkpt>
      <trkpt lat="59.303627" lon="18.079239">
        <ele>41</ele>
        <time>2019-11-25T06:36:14Z</time>
      </trkpt>
      <trkpt lat="59.303656" lon="18.079215">
        <ele>41</ele>
        <time>2019-11-25T06:36:15Z</time>
      </trkpt>
      <trkpt lat="59.303683" lon="18.079194">
        <ele>41</ele>
        <time>2019-11-25T06:36:16Z</time>
      </trkpt>
      <trkpt lat="59.303712" lon="18.079168">
        <ele>41</ele>
        <time>2019-11-25T06:36:17Z</time>
      </trkpt>
      <trkpt lat="59.30374" lon="18.079143">
        <ele>41</ele>
        <time>2019-11-25T06:36:18Z</time>
      </trkpt>
      <trkpt lat="59.30377" lon="18.079127">
        <ele>41</ele>
        <time>2019-11-25T06:36:19Z</time>
      </trkpt>
      <trkpt lat="59.303799" lon="18.07911">
        <ele>41</ele>
        <time>2019-11-25T06:36:20Z</time>
      </trkpt>
      <trkpt lat="59.303829" lon="18.079091">
        <ele>40</ele>
        <time>2019-11-25T06:36:21Z</time>
      </trkpt>
      <trkpt lat="59.303858" lon="18.079075">
        <ele>40</ele>
        <time>2019-11-25T06:36:22Z</time>
      </trkpt>
      <trkpt lat="59.303887" lon="18.079061">
        <ele>40</ele>
        <time>2019-11-25T06:36:23Z</time>
      </trkpt>
      <trkpt lat="59.303917" lon="18.079045">
        <ele>40</ele>
        <time>2019-11-25T06:36:24Z</time>
      </trkpt>
      <trkpt lat="59.303948" lon="18.079028">
        <ele>40</ele>
        <time>2019-11-25T06:36:25Z</time>
      </trkpt>
      <trkpt lat="59.303978" lon="18.079008">
        <ele>40</ele>
        <time>2019-11-25T06:36:26Z</time>
      </trkpt>
      <trkpt lat="59.304009" lon="18.078991">
        <ele>40</ele>
        <time>2019-11-25T06:36:27Z</time>
      </trkpt>
      <trkpt lat="59.304039" lon="18.078974">
        <ele>40</ele>
        <time>2019-11-25T06:36:28Z</time>
      </trkpt>
      <trkpt lat="59.30407" lon="18.078955">
        <ele>40</ele>
        <time>2019-11-25T06:36:29Z</time>
      </trkpt>
      <trkpt lat="59.3041" lon="18.07894">
        <ele>40</ele>
        <time>2019-11-25T06:36:30Z</time>
      </trkpt>
      <trkpt lat="59.304129" lon="18.078924">
        <ele>39</ele>
        <time>2019-11-25T06:36:31Z</time>
      </trkpt>
      <trkpt lat="59.304157" lon="18.078905">
        <ele>39</ele>
        <time>2019-11-25T06:36:32Z</time>
      </trkpt>
      <trkpt lat="59.304187" lon="18.078889">
        <ele>39</ele>
        <time>2019-11-25T06:36:33Z</time>
      </trkpt>
      <trkpt lat="59.304217" lon="18.078866">
        <ele>39</ele>
        <time>2019-11-25T06:36:34Z</time>
      </trkpt>
      <trkpt lat="59.304245" lon="18.078845">
        <ele>39</ele>
        <time>2019-11-25T06:36:35Z</time>
      </trkpt>
      <trkpt lat="59.304273" lon="18.07883">
        <ele>39</ele>
        <time>2019-11-25T06:36:36Z</time>
      </trkpt>
      <trkpt lat="59.3043" lon="18.078817">
        <ele>39</ele>
        <time>2019-11-25T06:36:37Z</time>
      </trkpt>
      <trkpt lat="59.304329" lon="18.0788">
        <ele>39</ele>
        <time>2019-11-25T06:36:38Z</time>
      </trkpt>
      <trkpt lat="59.304357" lon="18.078775">
        <ele>39</ele>
        <time>2019-11-25T06:36:39Z</time>
      </trkpt>
      <trkpt lat="59.304388" lon="18.078754">
        <ele>39</ele>
        <time>2019-11-25T06:36:40Z</time>
      </trkpt>
      <trkpt lat="59.304418" lon="18.07873">
        <ele>39</ele>
        <time>2019-11-25T06:36:41Z</time>
      </trkpt>
      <trkpt lat="59.304448" lon="18.078711">
        <ele>39</ele>
        <time>2019-11-25T06:36:42Z</time>
      </trkpt>
      <trkpt lat="59.304477" lon="18.078696">
        <ele>39</ele>
        <time>2019-11-25T06:36:43Z</time>
      </trkpt>
      <trkpt lat="59.304506" lon="18.078677">
        <ele>39</ele>
        <time>2019-11-25T06:36:44Z</time>
      </trkpt>
      <trkpt lat="59.304534" lon="18.078661">
        <ele>39</ele>
        <time>2019-11-25T06:36:45Z</time>
      </trkpt>
      <trkpt lat="59.304564" lon="18.078645">
        <ele>39</ele>
        <time>2019-11-25T06:36:46Z</time>
      </trkpt>
      <trkpt lat="59.304593" lon="18.078631">
        <ele>38</ele>
        <time>2019-11-25T06:36:47Z</time>
      </trkpt>
      <trkpt lat="59.304621" lon="18.078615">
        <ele>38</ele>
        <time>2019-11-25T06:36:48Z</time>
      </trkpt>
      <trkpt lat="59.304649" lon="18.078596">
        <ele>38</ele>
        <time>2019-11-25T06:36:49Z</time>
      </trkpt>
      <trkpt lat="59.304679" lon="18.078577">
        <ele>38</ele>
        <time>2019-11-25T06:36:50Z</time>
      </trkpt>
      <trkpt lat="59.30471" lon="18.078561">
        <ele>38</ele>
        <time>2019-11-25T06:36:51Z</time>
      </trkpt>
      <trkpt lat="59.30474" lon="18.078544">
        <ele>38</ele>
        <time>2019-11-25T06:36:52Z</time>
      </trkpt>
      <trkpt lat="59.30477" lon="18.078523">
        <ele>38</ele>
        <time>2019-11-25T06:36:53Z</time>
      </trkpt>
      <trkpt lat="59.304799" lon="18.078504">
        <ele>38</ele>
        <time>2019-11-25T06:36:54Z</time>
      </trkpt>
      <trkpt lat="59.304829" lon="18.078487">
        <ele>38</ele>
        <time>2019-11-25T06:36:55Z</time>
      </trkpt>
      <trkpt lat="59.304858" lon="18.07847">
        <ele>38</ele>
        <time>2019-11-25T06:36:56Z</time>
      </trkpt>
      <trkpt lat="59.304887" lon="18.078454">
        <ele>38</ele>
        <time>2019-11-25T06:36:57Z</time>
      </trkpt>
      <trkpt lat="59.304916" lon="18.078437">
        <ele>38</ele>
        <time>2019-11-25T06:36:58Z</time>
      </trkpt>
      <trkpt lat="59.304946" lon="18.078419">
        <ele>37</ele>
        <time>2019-11-25T06:36:59Z</time>
      </trkpt>
      <trkpt lat="59.304975" lon="18.078403">
        <ele>37</ele>
        <time>2019-11-25T06:37:00Z</time>
      </trkpt>
      <trkpt lat="59.305005" lon="18.078389">
        <ele>37</ele>
        <time>2019-11-25T06:37:01Z</time>
      </trkpt>
      <trkpt lat="59.305034" lon="18.078373">
        <ele>37</ele>
        <time>2019-11-25T06:37:02Z</time>
      </trkpt>
      <trkpt lat="59.305064" lon="18.078356">
        <ele>37</ele>
        <time>2019-11-25T06:37:03Z</time>
      </trkpt>
      <trkpt lat="59.305092" lon="18.07834">
        <ele>37</ele>
        <time>2019-11-25T06:37:04Z</time>
      </trkpt>
      <trkpt lat="59.305122" lon="18.078323">
        <ele>37</ele>
        <time>2019-11-25T06:37:05Z</time>
      </trkpt>
      <trkpt lat="59.305151" lon="18.078305">
        <ele>36</ele>
        <time>2019-11-25T06:37:06Z</time>
      </trkpt>
      <trkpt lat="59.30518" lon="18.078289">
        <ele>36</ele>
        <time>2019-11-25T06:37:07Z</time>
      </trkpt>
      <trkpt lat="59.305207" lon="18.078269">
        <ele>36</ele>
        <time>2019-11-25T06:37:08Z</time>
      </trkpt>
      <trkpt lat="59.305236" lon="18.07825">
        <ele>36</ele>
        <time>2019-11-25T06:37:09Z</time>
      </trkpt>
      <trkpt lat="59.305264" lon="18.078235">
        <ele>36</ele>
        <time>2019-11-25T06:37:10Z</time>
      </trkpt>
      <trkpt lat="59.305294" lon="18.078222">
        <ele>36</ele>
        <time>2019-11-25T06:37:11Z</time>
      </trkpt>
      <trkpt lat="59.305323" lon="18.078208">
        <ele>36</ele>
        <time>2019-11-25T06:37:12Z</time>
      </trkpt>
      <trkpt lat="59.305353" lon="18.078191">
        <ele>36</ele>
        <time>2019-11-25T06:37:13Z</time>
      </trkpt>
      <trkpt lat="59.305382" lon="18.078171">
        <ele>36</ele>
        <time>2019-11-25T06:37:14Z</time>
      </trkpt>
      <trkpt lat="59.305412" lon="18.078152">
        <ele>36</ele>
        <time>2019-11-25T06:37:15Z</time>
      </trkpt>
      <trkpt lat="59.30544" lon="18.078129">
        <ele>35</ele>
        <time>2019-11-25T06:37:16Z</time>
      </trkpt>
      <trkpt lat="59.305469" lon="18.078113">
        <ele>35</ele>
        <time>2019-11-25T06:37:17Z</time>
      </trkpt>
      <trkpt lat="59.305499" lon="18.078094">
        <ele>35</ele>
        <time>2019-11-25T06:37:18Z</time>
      </trkpt>
      <trkpt lat="59.305529" lon="18.078074">
        <ele>35</ele>
        <time>2019-11-25T06:37:19Z</time>
      </trkpt>
      <trkpt lat="59.305556" lon="18.078052">
        <ele>35</ele>
        <time>2019-11-25T06:37:20Z</time>
      </trkpt>
      <trkpt lat="59.305584" lon="18.078032">
        <ele>35</ele>
        <time>2019-11-25T06:37:21Z</time>
      </trkpt>
      <trkpt lat="59.305613" lon="18.078014">
        <ele>35</ele>
        <time>2019-11-25T06:37:22Z</time>
      </trkpt>
      <trkpt lat="59.305642" lon="18.077992">
        <ele>35</ele>
        <time>2019-11-25T06:37:23Z</time>
      </trkpt>
      <trkpt lat="59.305669" lon="18.077969">
        <ele>34</ele>
        <time>2019-11-25T06:37:24Z</time>
      </trkpt>
      <trkpt lat="59.305696" lon="18.07795">
        <ele>34</ele>
        <time>2019-11-25T06:37:25Z</time>
      </trkpt>
      <trkpt lat="59.305725" lon="18.077929">
        <ele>34</ele>
        <time>2019-11-25T06:37:26Z</time>
      </trkpt>
      <trkpt lat="59.305756" lon="18.077907">
        <ele>34</ele>
        <time>2019-11-25T06:37:27Z</time>
      </trkpt>
      <trkpt lat="59.305787" lon="18.077888">
        <ele>34</ele>
        <time>2019-11-25T06:37:28Z</time>
      </trkpt>
      <trkpt lat="59.305817" lon="18.077871">
        <ele>33</ele>
        <time>2019-11-25T06:37:29Z</time>
      </trkpt>
      <trkpt lat="59.305847" lon="18.077857">
        <ele>33</ele>
        <time>2019-11-25T06:37:30Z</time>
      </trkpt>
      <trkpt lat="59.305877" lon="18.077839">
        <ele>33</ele>
        <time>2019-11-25T06:37:31Z</time>
      </trkpt>
      <trkpt lat="59.305907" lon="18.077825">
        <ele>33</ele>
        <time>2019-11-25T06:37:32Z</time>
      </trkpt>
      <trkpt lat="59.305936" lon="18.07781">
        <ele>33</ele>
        <time>2019-11-25T06:37:33Z</time>
      </trkpt>
      <trkpt lat="59.305966" lon="18.077794">
        <ele>33</ele>
        <time>2019-11-25T06:37:34Z</time>
      </trkpt>
      <trkpt lat="59.305996" lon="18.077772">
        <ele>33</ele>
        <time>2019-11-25T06:37:35Z</time>
      </trkpt>
      <trkpt lat="59.306026" lon="18.077749">
        <ele>32</ele>
        <time>2019-11-25T06:37:36Z</time>
      </trkpt>
      <trkpt lat="59.306057" lon="18.077729">
        <ele>32</ele>
        <time>2019-11-25T06:37:37Z</time>
      </trkpt>
      <trkpt lat="59.306087" lon="18.077712">
        <ele>32</ele>
        <time>2019-11-25T06:37:38Z</time>
      </trkpt>
      <trkpt lat="59.306117" lon="18.077697">
        <ele>32</ele>
        <time>2019-11-25T06:37:39Z</time>
      </trkpt>
      <trkpt lat="59.306149" lon="18.077676">
        <ele>32</ele>
        <time>2019-11-25T06:37:40Z</time>
      </trkpt>
      <trkpt lat="59.30618" lon="18.077659">
        <ele>32</ele>
        <time>2019-11-25T06:37:41Z</time>
      </trkpt>
      <trkpt lat="59.306211" lon="18.077642">
        <ele>32</ele>
        <time>2019-11-25T06:37:42Z</time>
      </trkpt>
      <trkpt lat="59.30624" lon="18.077628">
        <ele>32</ele>
        <time>2019-11-25T06:37:43Z</time>
      </trkpt>
      <trkpt lat="59.306268" lon="18.077612">
        <ele>32</ele>
        <time>2019-11-25T06:37:44Z</time>
      </trkpt>
      <trkpt lat="59.306294" lon="18.07759">
        <ele>32</ele>
        <time>2019-11-25T06:37:45Z</time>
      </trkpt>
      <trkpt lat="59.306321" lon="18.07757">
        <ele>32</ele>
        <time>2019-11-25T06:37:46Z</time>
      </trkpt>
      <trkpt lat="59.306348" lon="18.077549">
        <ele>32</ele>
        <time>2019-11-25T06:37:47Z</time>
      </trkpt>
      <trkpt lat="59.306374" lon="18.077527">
        <ele>32</ele>
        <time>2019-11-25T06:37:48Z</time>
      </trkpt>
      <trkpt lat="59.306401" lon="18.077505">
        <ele>32</ele>
        <time>2019-11-25T06:37:49Z</time>
      </trkpt>
      <trkpt lat="59.306429" lon="18.077485">
        <ele>32</ele>
        <time>2019-11-25T06:37:50Z</time>
      </trkpt>
      <trkpt lat="59.306458" lon="18.077467">
        <ele>32</ele>
        <time>2019-11-25T06:37:51Z</time>
      </trkpt>
      <trkpt lat="59.306487" lon="18.077452">
        <ele>32</ele>
        <time>2019-11-25T06:37:52Z</time>
      </trkpt>
      <trkpt lat="59.306515" lon="18.077432">
        <ele>31</ele>
        <time>2019-11-25T06:37:53Z</time>
      </trkpt>
      <trkpt lat="59.306544" lon="18.07742">
        <ele>31</ele>
        <time>2019-11-25T06:37:54Z</time>
      </trkpt>
      <trkpt lat="59.306574" lon="18.077405">
        <ele>31</ele>
        <time>2019-11-25T06:37:55Z</time>
      </trkpt>
      <trkpt lat="59.306602" lon="18.077386">
        <ele>31</ele>
        <time>2019-11-25T06:37:56Z</time>
      </trkpt>
      <trkpt lat="59.306631" lon="18.07737">
        <ele>31</ele>
        <time>2019-11-25T06:37:57Z</time>
      </trkpt>
      <trkpt lat="59.30666" lon="18.077353">
        <ele>30</ele>
        <time>2019-11-25T06:37:58Z</time>
      </trkpt>
      <trkpt lat="59.306687" lon="18.077346">
        <ele>30</ele>
        <time>2019-11-25T06:37:59Z</time>
      </trkpt>
      <trkpt lat="59.306716" lon="18.077335">
        <ele>30</ele>
        <time>2019-11-25T06:38:00Z</time>
      </trkpt>
      <trkpt lat="59.306746" lon="18.077322">
        <ele>30</ele>
        <time>2019-11-25T06:38:01Z</time>
      </trkpt>
      <trkpt lat="59.306775" lon="18.077306">
        <ele>30</ele>
        <time>2019-11-25T06:38:02Z</time>
      </trkpt>
      <trkpt lat="59.306807" lon="18.077294">
        <ele>30</ele>
        <time>2019-11-25T06:38:03Z</time>
      </trkpt>
      <trkpt lat="59.306837" lon="18.07728">
        <ele>30</ele>
        <time>2019-11-25T06:38:04Z</time>
      </trkpt>
      <trkpt lat="59.306868" lon="18.077269">
        <ele>30</ele>
        <time>2019-11-25T06:38:05Z</time>
      </trkpt>
      <trkpt lat="59.306899" lon="18.077259">
        <ele>30</ele>
        <time>2019-11-25T06:38:06Z</time>
      </trkpt>
      <trkpt lat="59.306928" lon="18.077248">
        <ele>30</ele>
        <time>2019-11-25T06:38:07Z</time>
      </trkpt>
      <trkpt lat="59.306958" lon="18.077234">
        <ele>30</ele>
        <time>2019-11-25T06:38:08Z</time>
      </trkpt>
      <trkpt lat="59.306986" lon="18.077218">
        <ele>30</ele>
        <time>2019-11-25T06:38:09Z</time>
      </trkpt>
      <trkpt lat="59.307015" lon="18.077199">
        <ele>30</ele>
        <time>2019-11-25T06:38:10Z</time>
      </trkpt>
      <trkpt lat="59.307044" lon="18.077183">
        <ele>30</ele>
        <time>2019-11-25T06:38:11Z</time>
      </trkpt>
      <trkpt lat="59.307071" lon="18.077167">
        <ele>30</ele>
        <time>2019-11-25T06:38:12Z</time>
      </trkpt>
      <trkpt lat="59.307098" lon="18.077151">
        <ele>30</ele>
        <time>2019-11-25T06:38:13Z</time>
      </trkpt>
      <trkpt lat="59.307126" lon="18.077134">
        <ele>30</ele>
        <time>2019-11-25T06:38:14Z</time>
      </trkpt>
      <trkpt lat="59.307156" lon="18.077122">
        <ele>30</ele>
        <time>2019-11-25T06:38:15Z</time>
      </trkpt>
      <trkpt lat="59.307185" lon="18.077109">
        <ele>30</ele>
        <time>2019-11-25T06:38:16Z</time>
      </trkpt>
      <trkpt lat="59.307215" lon="18.077096">
        <ele>30</ele>
        <time>2019-11-25T06:38:17Z</time>
      </trkpt>
      <trkpt lat="59.307244" lon="18.077076">
        <ele>29</ele>
        <time>2019-11-25T06:38:18Z</time>
      </trkpt>
      <trkpt lat="59.307273" lon="18.077058">
        <ele>29</ele>
        <time>2019-11-25T06:38:19Z</time>
      </trkpt>
      <trkpt lat="59.307299" lon="18.077042">
        <ele>29</ele>
        <time>2019-11-25T06:38:20Z</time>
      </trkpt>
      <trkpt lat="59.307326" lon="18.077027">
        <ele>29</ele>
        <time>2019-11-25T06:38:21Z</time>
      </trkpt>
      <trkpt lat="59.307354" lon="18.077011">
        <ele>29</ele>
        <time>2019-11-25T06:38:22Z</time>
      </trkpt>
      <trkpt lat="59.307381" lon="18.076994">
        <ele>29</ele>
        <time>2019-11-25T06:38:23Z</time>
      </trkpt>
      <trkpt lat="59.30741" lon="18.076977">
        <ele>29</ele>
        <time>2019-11-25T06:38:24Z</time>
      </trkpt>
      <trkpt lat="59.307438" lon="18.076963">
        <ele>29</ele>
        <time>2019-11-25T06:38:25Z</time>
      </trkpt>
      <trkpt lat="59.307467" lon="18.07695">
        <ele>29</ele>
        <time>2019-11-25T06:38:26Z</time>
      </trkpt>
      <trkpt lat="59.307495" lon="18.076937">
        <ele>29</ele>
        <time>2019-11-25T06:38:27Z</time>
      </trkpt>
      <trkpt lat="59.307524" lon="18.076923">
        <ele>29</ele>
        <time>2019-11-25T06:38:28Z</time>
      </trkpt>
      <trkpt lat="59.307553" lon="18.076907">
        <ele>29</ele>
        <time>2019-11-25T06:38:29Z</time>
      </trkpt>
      <trkpt lat="59.307583" lon="18.076897">
        <ele>29</ele>
        <time>2019-11-25T06:38:30Z</time>
      </trkpt>
      <trkpt lat="59.307613" lon="18.076895">
        <ele>29</ele>
        <time>2019-11-25T06:38:31Z</time>
      </trkpt>
      <trkpt lat="59.307636" lon="18.076882">
        <ele>29</ele>
        <time>2019-11-25T06:38:32Z</time>
      </trkpt>
      <trkpt lat="59.307658" lon="18.076887">
        <ele>28</ele>
        <time>2019-11-25T06:38:33Z</time>
      </trkpt>
      <trkpt lat="59.30768" lon="18.076891">
        <ele>29</ele>
        <time>2019-11-25T06:38:34Z</time>
      </trkpt>
      <trkpt lat="59.307702" lon="18.076898">
        <ele>29</ele>
        <time>2019-11-25T06:38:35Z</time>
      </trkpt>
      <trkpt lat="59.307726" lon="18.076906">
        <ele>29</ele>
        <time>2019-11-25T06:38:38Z</time>
      </trkpt>
      <trkpt lat="59.307749" lon="18.076874">
        <ele>31</ele>
        <time>2019-11-25T06:38:59Z</time>
      </trkpt>
      <trkpt lat="59.30777" lon="18.076873">
        <ele>31</ele>
        <time>2019-11-25T06:39:00Z</time>
      </trkpt>
      <trkpt lat="59.307789" lon="18.076855">
        <ele>31</ele>
        <time>2019-11-25T06:39:02Z</time>
      </trkpt>
      <trkpt lat="59.30781" lon="18.076843">
        <ele>31</ele>
        <time>2019-11-25T06:39:05Z</time>
      </trkpt>
      <trkpt lat="59.307824" lon="18.076873">
        <ele>32</ele>
        <time>2019-11-25T06:39:25Z</time>
      </trkpt>
      <trkpt lat="59.307844" lon="18.07688">
        <ele>36</ele>
        <time>2019-11-25T06:39:28Z</time>
      </trkpt>
      <trkpt lat="59.307864" lon="18.07688">
        <ele>37</ele>
        <time>2019-11-25T06:39:31Z</time>
      </trkpt>
      <trkpt lat="59.307893" lon="18.076865">
        <ele>38</ele>
        <time>2019-11-25T06:39:33Z</time>
      </trkpt>
      <trkpt lat="59.307915" lon="18.076844">
        <ele>38</ele>
        <time>2019-11-25T06:39:34Z</time>
      </trkpt>
      <trkpt lat="59.307939" lon="18.076828">
        <ele>38</ele>
        <time>2019-11-25T06:39:35Z</time>
      </trkpt>
      <trkpt lat="59.307966" lon="18.076821">
        <ele>38</ele>
        <time>2019-11-25T06:39:36Z</time>
      </trkpt>
      <trkpt lat="59.307995" lon="18.076824">
        <ele>37</ele>
        <time>2019-11-25T06:39:37Z</time>
      </trkpt>
      <trkpt lat="59.308015" lon="18.076826">
        <ele>37</ele>
        <time>2019-11-25T06:39:38Z</time>
      </trkpt>
      <trkpt lat="59.308037" lon="18.076759">
        <ele>36</ele>
        <time>2019-11-25T06:39:40Z</time>
      </trkpt>
      <trkpt lat="59.308047" lon="18.076712">
        <ele>36</ele>
        <time>2019-11-25T06:39:41Z</time>
      </trkpt>
      <trkpt lat="59.308066" lon="18.076681">
        <ele>36</ele>
        <time>2019-11-25T06:39:42Z</time>
      </trkpt>
      <trkpt lat="59.308093" lon="18.076662">
        <ele>35</ele>
        <time>2019-11-25T06:39:43Z</time>
      </trkpt>
      <trkpt lat="59.308122" lon="18.076644">
        <ele>35</ele>
        <time>2019-11-25T06:39:44Z</time>
      </trkpt>
      <trkpt lat="59.308149" lon="18.076617">
        <ele>35</ele>
        <time>2019-11-25T06:39:45Z</time>
      </trkpt>
      <trkpt lat="59.308179" lon="18.076597">
        <ele>35</ele>
        <time>2019-11-25T06:39:46Z</time>
      </trkpt>
      <trkpt lat="59.30821" lon="18.076578">
        <ele>35</ele>
        <time>2019-11-25T06:39:47Z</time>
      </trkpt>
      <trkpt lat="59.308238" lon="18.076557">
        <ele>35</ele>
        <time>2019-11-25T06:39:48Z</time>
      </trkpt>
      <trkpt lat="59.30827" lon="18.076546">
        <ele>35</ele>
        <time>2019-11-25T06:39:49Z</time>
      </trkpt>
      <trkpt lat="59.308299" lon="18.076533">
        <ele>35</ele>
        <time>2019-11-25T06:39:50Z</time>
      </trkpt>
      <trkpt lat="59.30833" lon="18.076522">
        <ele>35</ele>
        <time>2019-11-25T06:39:51Z</time>
      </trkpt>
      <trkpt lat="59.30836" lon="18.076506">
        <ele>35</ele>
        <time>2019-11-25T06:39:52Z</time>
      </trkpt>
      <trkpt lat="59.30839" lon="18.076489">
        <ele>35</ele>
        <time>2019-11-25T06:39:53Z</time>
      </trkpt>
      <trkpt lat="59.30842" lon="18.076478">
        <ele>35</ele>
        <time>2019-11-25T06:39:54Z</time>
      </trkpt>
      <trkpt lat="59.308452" lon="18.076466">
        <ele>35</ele>
        <time>2019-11-25T06:39:55Z</time>
      </trkpt>
      <trkpt lat="59.308483" lon="18.076445">
        <ele>35</ele>
        <time>2019-11-25T06:39:56Z</time>
      </trkpt>
      <trkpt lat="59.308515" lon="18.076435">
        <ele>35</ele>
        <time>2019-11-25T06:39:57Z</time>
      </trkpt>
      <trkpt lat="59.308546" lon="18.076416">
        <ele>35</ele>
        <time>2019-11-25T06:39:58Z</time>
      </trkpt>
      <trkpt lat="59.308577" lon="18.076383">
        <ele>34</ele>
        <time>2019-11-25T06:39:59Z</time>
      </trkpt>
      <trkpt lat="59.308603" lon="18.076355">
        <ele>34</ele>
        <time>2019-11-25T06:40:00Z</time>
      </trkpt>
      <trkpt lat="59.308631" lon="18.076333">
        <ele>34</ele>
        <time>2019-11-25T06:40:01Z</time>
      </trkpt>
      <trkpt lat="59.308662" lon="18.076314">
        <ele>34</ele>
        <time>2019-11-25T06:40:02Z</time>
      </trkpt>
      <trkpt lat="59.308695" lon="18.0763">
        <ele>34</ele>
        <time>2019-11-25T06:40:03Z</time>
      </trkpt>
      <trkpt lat="59.308724" lon="18.07628">
        <ele>33</ele>
        <time>2019-11-25T06:40:04Z</time>
      </trkpt>
      <trkpt lat="59.308751" lon="18.076253">
        <ele>33</ele>
        <time>2019-11-25T06:40:05Z</time>
      </trkpt>
      <trkpt lat="59.308782" lon="18.076243">
        <ele>33</ele>
        <time>2019-11-25T06:40:06Z</time>
      </trkpt>
      <trkpt lat="59.308813" lon="18.076229">
        <ele>33</ele>
        <time>2019-11-25T06:40:07Z</time>
      </trkpt>
      <trkpt lat="59.308841" lon="18.076217">
        <ele>33</ele>
        <time>2019-11-25T06:40:08Z</time>
      </trkpt>
      <trkpt lat="59.308871" lon="18.0762">
        <ele>33</ele>
        <time>2019-11-25T06:40:09Z</time>
      </trkpt>
      <trkpt lat="59.3089" lon="18.076185">
        <ele>33</ele>
        <time>2019-11-25T06:40:10Z</time>
      </trkpt>
      <trkpt lat="59.308928" lon="18.076172">
        <ele>33</ele>
        <time>2019-11-25T06:40:11Z</time>
      </trkpt>
      <trkpt lat="59.308957" lon="18.07616">
        <ele>33</ele>
        <time>2019-11-25T06:40:12Z</time>
      </trkpt>
      <trkpt lat="59.30899" lon="18.076154">
        <ele>32</ele>
        <time>2019-11-25T06:40:13Z</time>
      </trkpt>
      <trkpt lat="59.309021" lon="18.07615">
        <ele>32</ele>
        <time>2019-11-25T06:40:14Z</time>
      </trkpt>
      <trkpt lat="59.309053" lon="18.076138">
        <ele>32</ele>
        <time>2019-11-25T06:40:15Z</time>
      </trkpt>
      <trkpt lat="59.309084" lon="18.076124">
        <ele>32</ele>
        <time>2019-11-25T06:40:16Z</time>
      </trkpt>
      <trkpt lat="59.309113" lon="18.076116">
        <ele>32</ele>
        <time>2019-11-25T06:40:17Z</time>
      </trkpt>
      <trkpt lat="59.309143" lon="18.076108">
        <ele>32</ele>
        <time>2019-11-25T06:40:18Z</time>
      </trkpt>
      <trkpt lat="59.309174" lon="18.076099">
        <ele>32</ele>
        <time>2019-11-25T06:40:19Z</time>
      </trkpt>
      <trkpt lat="59.309204" lon="18.076086">
        <ele>32</ele>
        <time>2019-11-25T06:40:20Z</time>
      </trkpt>
      <trkpt lat="59.309235" lon="18.076068">
        <ele>32</ele>
        <time>2019-11-25T06:40:21Z</time>
      </trkpt>
      <trkpt lat="59.309266" lon="18.076055">
        <ele>32</ele>
        <time>2019-11-25T06:40:22Z</time>
      </trkpt>
      <trkpt lat="59.309301" lon="18.076046">
        <ele>32</ele>
        <time>2019-11-25T06:40:23Z</time>
      </trkpt>
      <trkpt lat="59.309333" lon="18.076041">
        <ele>32</ele>
        <time>2019-11-25T06:40:24Z</time>
      </trkpt>
      <trkpt lat="59.309364" lon="18.076032">
        <ele>32</ele>
        <time>2019-11-25T06:40:25Z</time>
      </trkpt>
      <trkpt lat="59.309396" lon="18.076017">
        <ele>32</ele>
        <time>2019-11-25T06:40:26Z</time>
      </trkpt>
      <trkpt lat="59.309429" lon="18.076007">
        <ele>32</ele>
        <time>2019-11-25T06:40:27Z</time>
      </trkpt>
      <trkpt lat="59.309461" lon="18.075997">
        <ele>32</ele>
        <time>2019-11-25T06:40:28Z</time>
      </trkpt>
      <trkpt lat="59.309489" lon="18.075978">
        <ele>31</ele>
        <time>2019-11-25T06:40:29Z</time>
      </trkpt>
      <trkpt lat="59.309517" lon="18.075958">
        <ele>31</ele>
        <time>2019-11-25T06:40:30Z</time>
      </trkpt>
      <trkpt lat="59.309544" lon="18.075931">
        <ele>31</ele>
        <time>2019-11-25T06:40:31Z</time>
      </trkpt>
      <trkpt lat="59.309568" lon="18.075895">
        <ele>31</ele>
        <time>2019-11-25T06:40:32Z</time>
      </trkpt>
      <trkpt lat="59.309597" lon="18.075873">
        <ele>30</ele>
        <time>2019-11-25T06:40:33Z</time>
      </trkpt>
      <trkpt lat="59.309625" lon="18.075844">
        <ele>30</ele>
        <time>2019-11-25T06:40:34Z</time>
      </trkpt>
      <trkpt lat="59.309654" lon="18.075816">
        <ele>30</ele>
        <time>2019-11-25T06:40:35Z</time>
      </trkpt>
      <trkpt lat="59.309685" lon="18.075792">
        <ele>30</ele>
        <time>2019-11-25T06:40:36Z</time>
      </trkpt>
      <trkpt lat="59.309715" lon="18.075766">
        <ele>29</ele>
        <time>2019-11-25T06:40:37Z</time>
      </trkpt>
      <trkpt lat="59.309744" lon="18.075736">
        <ele>29</ele>
        <time>2019-11-25T06:40:38Z</time>
      </trkpt>
      <trkpt lat="59.309773" lon="18.075724">
        <ele>29</ele>
        <time>2019-11-25T06:40:39Z</time>
      </trkpt>
      <trkpt lat="59.309804" lon="18.075712">
        <ele>29</ele>
        <time>2019-11-25T06:40:40Z</time>
      </trkpt>
      <trkpt lat="59.309833" lon="18.075698">
        <ele>29</ele>
        <time>2019-11-25T06:40:41Z</time>
      </trkpt>
      <trkpt lat="59.309865" lon="18.075686">
        <ele>29</ele>
        <time>2019-11-25T06:40:42Z</time>
      </trkpt>
      <trkpt lat="59.309894" lon="18.07567">
        <ele>29</ele>
        <time>2019-11-25T06:40:43Z</time>
      </trkpt>
      <trkpt lat="59.309923" lon="18.075658">
        <ele>29</ele>
        <time>2019-11-25T06:40:44Z</time>
      </trkpt>
      <trkpt lat="59.309952" lon="18.075646">
        <ele>29</ele>
        <time>2019-11-25T06:40:45Z</time>
      </trkpt>
      <trkpt lat="59.309982" lon="18.075632">
        <ele>29</ele>
        <time>2019-11-25T06:40:46Z</time>
      </trkpt>
      <trkpt lat="59.310011" lon="18.075619">
        <ele>29</ele>
        <time>2019-11-25T06:40:47Z</time>
      </trkpt>
      <trkpt lat="59.310043" lon="18.075607">
        <ele>29</ele>
        <time>2019-11-25T06:40:48Z</time>
      </trkpt>
      <trkpt lat="59.310073" lon="18.075593">
        <ele>29</ele>
        <time>2019-11-25T06:40:49Z</time>
      </trkpt>
      <trkpt lat="59.310105" lon="18.075584">
        <ele>28</ele>
        <time>2019-11-25T06:40:50Z</time>
      </trkpt>
      <trkpt lat="59.310136" lon="18.075575">
        <ele>28</ele>
        <time>2019-11-25T06:40:51Z</time>
      </trkpt>
      <trkpt lat="59.310169" lon="18.075565">
        <ele>28</ele>
        <time>2019-11-25T06:40:52Z</time>
      </trkpt>
      <trkpt lat="59.310198" lon="18.075554">
        <ele>28</ele>
        <time>2019-11-25T06:40:53Z</time>
      </trkpt>
      <trkpt lat="59.310228" lon="18.075542">
        <ele>28</ele>
        <time>2019-11-25T06:40:54Z</time>
      </trkpt>
      <trkpt lat="59.310257" lon="18.075528">
        <ele>28</ele>
        <time>2019-11-25T06:40:55Z</time>
      </trkpt>
      <trkpt lat="59.310288" lon="18.075516">
        <ele>28</ele>
        <time>2019-11-25T06:40:56Z</time>
      </trkpt>
      <trkpt lat="59.310316" lon="18.075507">
        <ele>28</ele>
        <time>2019-11-25T06:40:57Z</time>
      </trkpt>
      <trkpt lat="59.310344" lon="18.075496">
        <ele>28</ele>
        <time>2019-11-25T06:40:58Z</time>
      </trkpt>
      <trkpt lat="59.310374" lon="18.075483">
        <ele>28</ele>
        <time>2019-11-25T06:40:59Z</time>
      </trkpt>
      <trkpt lat="59.310404" lon="18.075465">
        <ele>28</ele>
        <time>2019-11-25T06:41:00Z</time>
      </trkpt>
      <trkpt lat="59.310435" lon="18.075449">
        <ele>28</ele>
        <time>2019-11-25T06:41:01Z</time>
      </trkpt>
      <trkpt lat="59.310469" lon="18.075443">
        <ele>29</ele>
        <time>2019-11-25T06:41:02Z</time>
      </trkpt>
      <trkpt lat="59.310507" lon="18.07544">
        <ele>29</ele>
        <time>2019-11-25T06:41:03Z</time>
      </trkpt>
      <trkpt lat="59.310537" lon="18.075426">
        <ele>30</ele>
        <time>2019-11-25T06:41:04Z</time>
      </trkpt>
      <trkpt lat="59.310569" lon="18.075406">
        <ele>30</ele>
        <time>2019-11-25T06:41:05Z</time>
      </trkpt>
      <trkpt lat="59.310596" lon="18.075372">
        <ele>30</ele>
        <time>2019-11-25T06:41:06Z</time>
      </trkpt>
      <trkpt lat="59.310624" lon="18.075343">
        <ele>29</ele>
        <time>2019-11-25T06:41:07Z</time>
      </trkpt>
      <trkpt lat="59.310649" lon="18.075302">
        <ele>29</ele>
        <time>2019-11-25T06:41:08Z</time>
      </trkpt>
      <trkpt lat="59.310675" lon="18.075272">
        <ele>29</ele>
        <time>2019-11-25T06:41:09Z</time>
      </trkpt>
      <trkpt lat="59.310699" lon="18.07524">
        <ele>29</ele>
        <time>2019-11-25T06:41:10Z</time>
      </trkpt>
      <trkpt lat="59.310726" lon="18.075225">
        <ele>29</ele>
        <time>2019-11-25T06:41:11Z</time>
      </trkpt>
      <trkpt lat="59.310753" lon="18.075206">
        <ele>29</ele>
        <time>2019-11-25T06:41:12Z</time>
      </trkpt>
      <trkpt lat="59.310781" lon="18.075194">
        <ele>29</ele>
        <time>2019-11-25T06:41:13Z</time>
      </trkpt>
      <trkpt lat="59.310807" lon="18.075179">
        <ele>29</ele>
        <time>2019-11-25T06:41:14Z</time>
      </trkpt>
      <trkpt lat="59.310835" lon="18.075165">
        <ele>30</ele>
        <time>2019-11-25T06:41:15Z</time>
      </trkpt>
      <trkpt lat="59.310865" lon="18.075159">
        <ele>30</ele>
        <time>2019-11-25T06:41:16Z</time>
      </trkpt>
      <trkpt lat="59.31089" lon="18.075146">
        <ele>30</ele>
        <time>2019-11-25T06:41:17Z</time>
      </trkpt>
      <trkpt lat="59.310914" lon="18.075134">
        <ele>30</ele>
        <time>2019-11-25T06:41:18Z</time>
      </trkpt>
      <trkpt lat="59.310939" lon="18.075124">
        <ele>30</ele>
        <time>2019-11-25T06:41:19Z</time>
      </trkpt>
      <trkpt lat="59.310963" lon="18.075111">
        <ele>30</ele>
        <time>2019-11-25T06:41:20Z</time>
      </trkpt>
      <trkpt lat="59.310988" lon="18.0751">
        <ele>30</ele>
        <time>2019-11-25T06:41:21Z</time>
      </trkpt>
      <trkpt lat="59.311009" lon="18.075088">
        <ele>30</ele>
        <time>2019-11-25T06:41:22Z</time>
      </trkpt>
      <trkpt lat="59.311028" lon="18.075071">
        <ele>30</ele>
        <time>2019-11-25T06:41:23Z</time>
      </trkpt>
      <trkpt lat="59.311053" lon="18.075056">
        <ele>30</ele>
        <time>2019-11-25T06:41:24Z</time>
      </trkpt>
      <trkpt lat="59.31108" lon="18.075038">
        <ele>30</ele>
        <time>2019-11-25T06:41:25Z</time>
      </trkpt>
      <trkpt lat="59.311108" lon="18.075018">
        <ele>30</ele>
        <time>2019-11-25T06:41:26Z</time>
      </trkpt>
      <trkpt lat="59.311135" lon="18.075001">
        <ele>30</ele>
        <time>2019-11-25T06:41:27Z</time>
      </trkpt>
      <trkpt lat="59.311163" lon="18.074985">
        <ele>30</ele>
        <time>2019-11-25T06:41:28Z</time>
      </trkpt>
      <trkpt lat="59.311189" lon="18.074966">
        <ele>30</ele>
        <time>2019-11-25T06:41:29Z</time>
      </trkpt>
      <trkpt lat="59.311212" lon="18.074945">
        <ele>30</ele>
        <time>2019-11-25T06:41:30Z</time>
      </trkpt>
      <trkpt lat="59.311236" lon="18.074925">
        <ele>30</ele>
        <time>2019-11-25T06:41:31Z</time>
      </trkpt>
      <trkpt lat="59.311262" lon="18.074903">
        <ele>30</ele>
        <time>2019-11-25T06:41:32Z</time>
      </trkpt>
      <trkpt lat="59.311288" lon="18.074883">
        <ele>30</ele>
        <time>2019-11-25T06:41:33Z</time>
      </trkpt>
      <trkpt lat="59.311319" lon="18.074864">
        <ele>30</ele>
        <time>2019-11-25T06:41:34Z</time>
      </trkpt>
      <trkpt lat="59.311348" lon="18.074848">
        <ele>30</ele>
        <time>2019-11-25T06:41:35Z</time>
      </trkpt>
      <trkpt lat="59.311379" lon="18.074834">
        <ele>30</ele>
        <time>2019-11-25T06:41:36Z</time>
      </trkpt>
      <trkpt lat="59.311407" lon="18.074824">
        <ele>30</ele>
        <time>2019-11-25T06:41:37Z</time>
      </trkpt>
      <trkpt lat="59.311434" lon="18.074815">
        <ele>30</ele>
        <time>2019-11-25T06:41:38Z</time>
      </trkpt>
      <trkpt lat="59.311461" lon="18.074805">
        <ele>30</ele>
        <time>2019-11-25T06:41:39Z</time>
      </trkpt>
      <trkpt lat="59.311492" lon="18.074797">
        <ele>30</ele>
        <time>2019-11-25T06:41:40Z</time>
      </trkpt>
      <trkpt lat="59.311523" lon="18.074781">
        <ele>29</ele>
        <time>2019-11-25T06:41:41Z</time>
      </trkpt>
      <trkpt lat="59.311554" lon="18.074766">
        <ele>30</ele>
        <time>2019-11-25T06:41:42Z</time>
      </trkpt>
      <trkpt lat="59.31159" lon="18.074758">
        <ele>30</ele>
        <time>2019-11-25T06:41:43Z</time>
      </trkpt>
      <trkpt lat="59.311626" lon="18.074753">
        <ele>30</ele>
        <time>2019-11-25T06:41:44Z</time>
      </trkpt>
      <trkpt lat="59.311653" lon="18.074735">
        <ele>30</ele>
        <time>2019-11-25T06:41:45Z</time>
      </trkpt>
      <trkpt lat="59.31168" lon="18.07471">
        <ele>30</ele>
        <time>2019-11-25T06:41:46Z</time>
      </trkpt>
      <trkpt lat="59.311712" lon="18.074701">
        <ele>30</ele>
        <time>2019-11-25T06:41:47Z</time>
      </trkpt>
      <trkpt lat="59.311744" lon="18.074691">
        <ele>30</ele>
        <time>2019-11-25T06:41:48Z</time>
      </trkpt>
      <trkpt lat="59.311773" lon="18.074681">
        <ele>30</ele>
        <time>2019-11-25T06:41:49Z</time>
      </trkpt>
      <trkpt lat="59.311802" lon="18.074675">
        <ele>30</ele>
        <time>2019-11-25T06:41:50Z</time>
      </trkpt>
      <trkpt lat="59.311833" lon="18.074665">
        <ele>30</ele>
        <time>2019-11-25T06:41:51Z</time>
      </trkpt>
      <trkpt lat="59.311863" lon="18.07465">
        <ele>30</ele>
        <time>2019-11-25T06:41:52Z</time>
      </trkpt>
      <trkpt lat="59.311893" lon="18.074636">
        <ele>30</ele>
        <time>2019-11-25T06:41:53Z</time>
      </trkpt>
      <trkpt lat="59.311925" lon="18.074627">
        <ele>29</ele>
        <time>2019-11-25T06:41:54Z</time>
      </trkpt>
      <trkpt lat="59.311949" lon="18.074582">
        <ele>29</ele>
        <time>2019-11-25T06:41:55Z</time>
      </trkpt>
      <trkpt lat="59.311985" lon="18.074563">
        <ele>28</ele>
        <time>2019-11-25T06:41:56Z</time>
      </trkpt>
      <trkpt lat="59.312009" lon="18.074488">
        <ele>28</ele>
        <time>2019-11-25T06:41:57Z</time>
      </trkpt>
      <trkpt lat="59.312039" lon="18.074459">
        <ele>28</ele>
        <time>2019-11-25T06:41:58Z</time>
      </trkpt>
      <trkpt lat="59.312124" lon="18.074413">
        <ele>27</ele>
        <time>2019-11-25T06:42:01Z</time>
      </trkpt>
      <trkpt lat="59.312147" lon="18.074362">
        <ele>27</ele>
        <time>2019-11-25T06:42:02Z</time>
      </trkpt>
      <trkpt lat="59.312175" lon="18.074348">
        <ele>27</ele>
        <time>2019-11-25T06:42:03Z</time>
      </trkpt>
      <trkpt lat="59.312202" lon="18.074337">
        <ele>27</ele>
        <time>2019-11-25T06:42:04Z</time>
      </trkpt>
      <trkpt lat="59.312231" lon="18.074318">
        <ele>26</ele>
        <time>2019-11-25T06:42:05Z</time>
      </trkpt>
      <trkpt lat="59.31226" lon="18.074295">
        <ele>26</ele>
        <time>2019-11-25T06:42:06Z</time>
      </trkpt>
      <trkpt lat="59.312288" lon="18.074282">
        <ele>26</ele>
        <time>2019-11-25T06:42:07Z</time>
      </trkpt>
      <trkpt lat="59.312314" lon="18.074264">
        <ele>26</ele>
        <time>2019-11-25T06:42:08Z</time>
      </trkpt>
      <trkpt lat="59.312339" lon="18.074246">
        <ele>26</ele>
        <time>2019-11-25T06:42:09Z</time>
      </trkpt>
      <trkpt lat="59.312367" lon="18.074235">
        <ele>26</ele>
        <time>2019-11-25T06:42:10Z</time>
      </trkpt>
      <trkpt lat="59.312394" lon="18.074223">
        <ele>26</ele>
        <time>2019-11-25T06:42:11Z</time>
      </trkpt>
      <trkpt lat="59.312421" lon="18.074211">
        <ele>26</ele>
        <time>2019-11-25T06:42:12Z</time>
      </trkpt>
      <trkpt lat="59.312446" lon="18.074194">
        <ele>25</ele>
        <time>2019-11-25T06:42:13Z</time>
      </trkpt>
      <trkpt lat="59.312471" lon="18.074168">
        <ele>25</ele>
        <time>2019-11-25T06:42:14Z</time>
      </trkpt>
      <trkpt lat="59.3125" lon="18.074157">
        <ele>25</ele>
        <time>2019-11-25T06:42:15Z</time>
      </trkpt>
      <trkpt lat="59.312527" lon="18.074145">
        <ele>25</ele>
        <time>2019-11-25T06:42:16Z</time>
      </trkpt>
      <trkpt lat="59.312557" lon="18.074137">
        <ele>25</ele>
        <time>2019-11-25T06:42:17Z</time>
      </trkpt>
      <trkpt lat="59.312586" lon="18.074132">
        <ele>25</ele>
        <time>2019-11-25T06:42:18Z</time>
      </trkpt>
      <trkpt lat="59.312615" lon="18.074127">
        <ele>24</ele>
        <time>2019-11-25T06:42:19Z</time>
      </trkpt>
      <trkpt lat="59.312643" lon="18.074119">
        <ele>24</ele>
        <time>2019-11-25T06:42:20Z</time>
      </trkpt>
      <trkpt lat="59.312673" lon="18.074109">
        <ele>24</ele>
        <time>2019-11-25T06:42:21Z</time>
      </trkpt>
      <trkpt lat="59.312701" lon="18.074097">
        <ele>24</ele>
        <time>2019-11-25T06:42:22Z</time>
      </trkpt>
      <trkpt lat="59.312729" lon="18.074085">
        <ele>24</ele>
        <time>2019-11-25T06:42:23Z</time>
      </trkpt>
      <trkpt lat="59.312757" lon="18.074073">
        <ele>24</ele>
        <time>2019-11-25T06:42:24Z</time>
      </trkpt>
      <trkpt lat="59.312785" lon="18.074062">
        <ele>24</ele>
        <time>2019-11-25T06:42:25Z</time>
      </trkpt>
      <trkpt lat="59.312813" lon="18.074047">
        <ele>24</ele>
        <time>2019-11-25T06:42:26Z</time>
      </trkpt>
      <trkpt lat="59.31284" lon="18.074032">
        <ele>24</ele>
        <time>2019-11-25T06:42:27Z</time>
      </trkpt>
      <trkpt lat="59.312868" lon="18.074026">
        <ele>23</ele>
        <time>2019-11-25T06:42:28Z</time>
      </trkpt>
      <trkpt lat="59.312896" lon="18.074018">
        <ele>23</ele>
        <time>2019-11-25T06:42:29Z</time>
      </trkpt>
      <trkpt lat="59.312924" lon="18.074008">
        <ele>23</ele>
        <time>2019-11-25T06:42:30Z</time>
      </trkpt>
      <trkpt lat="59.312953" lon="18.073992">
        <ele>23</ele>
        <time>2019-11-25T06:42:31Z</time>
      </trkpt>
      <trkpt lat="59.312982" lon="18.073978">
        <ele>23</ele>
        <time>2019-11-25T06:42:32Z</time>
      </trkpt>
      <trkpt lat="59.31301" lon="18.073967">
        <ele>23</ele>
        <time>2019-11-25T06:42:33Z</time>
      </trkpt>
      <trkpt lat="59.313039" lon="18.073952">
        <ele>23</ele>
        <time>2019-11-25T06:42:34Z</time>
      </trkpt>
      <trkpt lat="59.313066" lon="18.073933">
        <ele>23</ele>
        <time>2019-11-25T06:42:35Z</time>
      </trkpt>
      <trkpt lat="59.313094" lon="18.073914">
        <ele>23</ele>
        <time>2019-11-25T06:42:36Z</time>
      </trkpt>
      <trkpt lat="59.31312" lon="18.073895">
        <ele>23</ele>
        <time>2019-11-25T06:42:37Z</time>
      </trkpt>
      <trkpt lat="59.313148" lon="18.07388">
        <ele>23</ele>
        <time>2019-11-25T06:42:38Z</time>
      </trkpt>
      <trkpt lat="59.313176" lon="18.073866">
        <ele>23</ele>
        <time>2019-11-25T06:42:39Z</time>
      </trkpt>
      <trkpt lat="59.313203" lon="18.073847">
        <ele>23</ele>
        <time>2019-11-25T06:42:40Z</time>
      </trkpt>
      <trkpt lat="59.31323" lon="18.073831">
        <ele>23</ele>
        <time>2019-11-25T06:42:41Z</time>
      </trkpt>
      <trkpt lat="59.313257" lon="18.073819">
        <ele>23</ele>
        <time>2019-11-25T06:42:42Z</time>
      </trkpt>
      <trkpt lat="59.313285" lon="18.073806">
        <ele>23</ele>
        <time>2019-11-25T06:42:43Z</time>
      </trkpt>
      <trkpt lat="59.313312" lon="18.073794">
        <ele>23</ele>
        <time>2019-11-25T06:42:44Z</time>
      </trkpt>
      <trkpt lat="59.313338" lon="18.073777">
        <ele>23</ele>
        <time>2019-11-25T06:42:45Z</time>
      </trkpt>
      <trkpt lat="59.313363" lon="18.073759">
        <ele>22</ele>
        <time>2019-11-25T06:42:46Z</time>
      </trkpt>
      <trkpt lat="59.313388" lon="18.07374">
        <ele>22</ele>
        <time>2019-11-25T06:42:47Z</time>
      </trkpt>
      <trkpt lat="59.313417" lon="18.073722">
        <ele>22</ele>
        <time>2019-11-25T06:42:48Z</time>
      </trkpt>
      <trkpt lat="59.313443" lon="18.073704">
        <ele>22</ele>
        <time>2019-11-25T06:42:49Z</time>
      </trkpt>
      <trkpt lat="59.313471" lon="18.073689">
        <ele>22</ele>
        <time>2019-11-25T06:42:50Z</time>
      </trkpt>
      <trkpt lat="59.313499" lon="18.073678">
        <ele>22</ele>
        <time>2019-11-25T06:42:51Z</time>
      </trkpt>
      <trkpt lat="59.313523" lon="18.073655">
        <ele>22</ele>
        <time>2019-11-25T06:42:52Z</time>
      </trkpt>
      <trkpt lat="59.313546" lon="18.07363">
        <ele>21</ele>
        <time>2019-11-25T06:42:53Z</time>
      </trkpt>
      <trkpt lat="59.313569" lon="18.07361">
        <ele>21</ele>
        <time>2019-11-25T06:42:54Z</time>
      </trkpt>
      <trkpt lat="59.313595" lon="18.073598">
        <ele>21</ele>
        <time>2019-11-25T06:42:55Z</time>
      </trkpt>
      <trkpt lat="59.313623" lon="18.073576">
        <ele>21</ele>
        <time>2019-11-25T06:42:56Z</time>
      </trkpt>
      <trkpt lat="59.313652" lon="18.073555">
        <ele>20</ele>
        <time>2019-11-25T06:42:57Z</time>
      </trkpt>
      <trkpt lat="59.313679" lon="18.07354">
        <ele>20</ele>
        <time>2019-11-25T06:42:58Z</time>
      </trkpt>
      <trkpt lat="59.313701" lon="18.073525">
        <ele>20</ele>
        <time>2019-11-25T06:42:59Z</time>
      </trkpt>
      <trkpt lat="59.313721" lon="18.073505">
        <ele>20</ele>
        <time>2019-11-25T06:43:00Z</time>
      </trkpt>
      <trkpt lat="59.313746" lon="18.073484">
        <ele>20</ele>
        <time>2019-11-25T06:43:01Z</time>
      </trkpt>
      <trkpt lat="59.313773" lon="18.073465">
        <ele>20</ele>
        <time>2019-11-25T06:43:02Z</time>
      </trkpt>
      <trkpt lat="59.3138" lon="18.073448">
        <ele>20</ele>
        <time>2019-11-25T06:43:03Z</time>
      </trkpt>
      <trkpt lat="59.313825" lon="18.073432">
        <ele>20</ele>
        <time>2019-11-25T06:43:04Z</time>
      </trkpt>
      <trkpt lat="59.313853" lon="18.073416">
        <ele>20</ele>
        <time>2019-11-25T06:43:05Z</time>
      </trkpt>
      <trkpt lat="59.313875" lon="18.073393">
        <ele>20</ele>
        <time>2019-11-25T06:43:06Z</time>
      </trkpt>
      <trkpt lat="59.313899" lon="18.073375">
        <ele>20</ele>
        <time>2019-11-25T06:43:07Z</time>
      </trkpt>
      <trkpt lat="59.31392" lon="18.073354">
        <ele>20</ele>
        <time>2019-11-25T06:43:08Z</time>
      </trkpt>
      <trkpt lat="59.313945" lon="18.073333">
        <ele>20</ele>
        <time>2019-11-25T06:43:09Z</time>
      </trkpt>
      <trkpt lat="59.313963" lon="18.073303">
        <ele>20</ele>
        <time>2019-11-25T06:43:10Z</time>
      </trkpt>
      <trkpt lat="59.313979" lon="18.07327">
        <ele>20</ele>
        <time>2019-11-25T06:43:11Z</time>
      </trkpt>
      <trkpt lat="59.314004" lon="18.073266">
        <ele>20</ele>
        <time>2019-11-25T06:43:12Z</time>
      </trkpt>
      <trkpt lat="59.31404" lon="18.073274">
        <ele>20</ele>
        <time>2019-11-25T06:43:13Z</time>
      </trkpt>
      <trkpt lat="59.314069" lon="18.073281">
        <ele>20</ele>
        <time>2019-11-25T06:43:14Z</time>
      </trkpt>
      <trkpt lat="59.314102" lon="18.07328">
        <ele>21</ele>
        <time>2019-11-25T06:43:15Z</time>
      </trkpt>
      <trkpt lat="59.314139" lon="18.073264">
        <ele>21</ele>
        <time>2019-11-25T06:43:16Z</time>
      </trkpt>
      <trkpt lat="59.314233" lon="18.073227">
        <ele>22</ele>
        <time>2019-11-25T06:43:18Z</time>
      </trkpt>
      <trkpt lat="59.314325" lon="18.073191">
        <ele>23</ele>
        <time>2019-11-25T06:43:20Z</time>
      </trkpt>
      <trkpt lat="59.314373" lon="18.073167">
        <ele>23</ele>
        <time>2019-11-25T06:43:21Z</time>
      </trkpt>
      <trkpt lat="59.314408" lon="18.073145">
        <ele>23</ele>
        <time>2019-11-25T06:43:22Z</time>
      </trkpt>
      <trkpt lat="59.314488" lon="18.073042">
        <ele>23</ele>
        <time>2019-11-25T06:43:26Z</time>
      </trkpt>
      <trkpt lat="59.314533" lon="18.072978">
        <ele>23</ele>
        <time>2019-11-25T06:43:28Z</time>
      </trkpt>
      <trkpt lat="59.314552" lon="18.072953">
        <ele>23</ele>
        <time>2019-11-25T06:43:29Z</time>
      </trkpt>
      <trkpt lat="59.314577" lon="18.072926">
        <ele>23</ele>
        <time>2019-11-25T06:43:30Z</time>
      </trkpt>
      <trkpt lat="59.3146" lon="18.072901">
        <ele>22</ele>
        <time>2019-11-25T06:43:31Z</time>
      </trkpt>
      <trkpt lat="59.314631" lon="18.07289">
        <ele>22</ele>
        <time>2019-11-25T06:43:32Z</time>
      </trkpt>
      <trkpt lat="59.314667" lon="18.072887">
        <ele>22</ele>
        <time>2019-11-25T06:43:33Z</time>
      </trkpt>
      <trkpt lat="59.3147" lon="18.072883">
        <ele>22</ele>
        <time>2019-11-25T06:43:34Z</time>
      </trkpt>
      <trkpt lat="59.314732" lon="18.072878">
        <ele>22</ele>
        <time>2019-11-25T06:43:35Z</time>
      </trkpt>
      <trkpt lat="59.31476" lon="18.072859">
        <ele>22</ele>
        <time>2019-11-25T06:43:36Z</time>
      </trkpt>
      <trkpt lat="59.314789" lon="18.072841">
        <ele>22</ele>
        <time>2019-11-25T06:43:37Z</time>
      </trkpt>
      <trkpt lat="59.314819" lon="18.072838">
        <ele>22</ele>
        <time>2019-11-25T06:43:38Z</time>
      </trkpt>
      <trkpt lat="59.314851" lon="18.072839">
        <ele>22</ele>
        <time>2019-11-25T06:43:39Z</time>
      </trkpt>
      <trkpt lat="59.314883" lon="18.072846">
        <ele>22</ele>
        <time>2019-11-25T06:43:40Z</time>
      </trkpt>
      <trkpt lat="59.314915" lon="18.072847">
        <ele>21</ele>
        <time>2019-11-25T06:43:41Z</time>
      </trkpt>
      <trkpt lat="59.314945" lon="18.072841">
        <ele>21</ele>
        <time>2019-11-25T06:43:42Z</time>
      </trkpt>
      <trkpt lat="59.314976" lon="18.072839">
        <ele>22</ele>
        <time>2019-11-25T06:43:43Z</time>
      </trkpt>
      <trkpt lat="59.31501" lon="18.072841">
        <ele>23</ele>
        <time>2019-11-25T06:43:44Z</time>
      </trkpt>
      <trkpt lat="59.315045" lon="18.072842">
        <ele>23</ele>
        <time>2019-11-25T06:43:45Z</time>
      </trkpt>
      <trkpt lat="59.31508" lon="18.072846">
        <ele>24</ele>
        <time>2019-11-25T06:43:46Z</time>
      </trkpt>
      <trkpt lat="59.315112" lon="18.072848">
        <ele>24</ele>
        <time>2019-11-25T06:43:47Z</time>
      </trkpt>
      <trkpt lat="59.315145" lon="18.072855">
        <ele>24</ele>
        <time>2019-11-25T06:43:48Z</time>
      </trkpt>
      <trkpt lat="59.315177" lon="18.072859">
        <ele>24</ele>
        <time>2019-11-25T06:43:49Z</time>
      </trkpt>
      <trkpt lat="59.315206" lon="18.072863">
        <ele>25</ele>
        <time>2019-11-25T06:43:50Z</time>
      </trkpt>
      <trkpt lat="59.315235" lon="18.072868">
        <ele>25</ele>
        <time>2019-11-25T06:43:51Z</time>
      </trkpt>
      <trkpt lat="59.315267" lon="18.072869">
        <ele>25</ele>
        <time>2019-11-25T06:43:52Z</time>
      </trkpt>
      <trkpt lat="59.315296" lon="18.072869">
        <ele>25</ele>
        <time>2019-11-25T06:43:53Z</time>
      </trkpt>
      <trkpt lat="59.315326" lon="18.072869">
        <ele>26</ele>
        <time>2019-11-25T06:43:54Z</time>
      </trkpt>
      <trkpt lat="59.315354" lon="18.072857">
        <ele>26</ele>
        <time>2019-11-25T06:43:55Z</time>
      </trkpt>
      <trkpt lat="59.315383" lon="18.072842">
        <ele>26</ele>
        <time>2019-11-25T06:43:56Z</time>
      </trkpt>
      <trkpt lat="59.315414" lon="18.072827">
        <ele>26</ele>
        <time>2019-11-25T06:43:57Z</time>
      </trkpt>
      <trkpt lat="59.315441" lon="18.072818">
        <ele>27</ele>
        <time>2019-11-25T06:43:58Z</time>
      </trkpt>
      <trkpt lat="59.315468" lon="18.072809">
        <ele>27</ele>
        <time>2019-11-25T06:43:59Z</time>
      </trkpt>
      <trkpt lat="59.315493" lon="18.072795">
        <ele>27</ele>
        <time>2019-11-25T06:44:00Z</time>
      </trkpt>
      <trkpt lat="59.31552" lon="18.072774">
        <ele>27</ele>
        <time>2019-11-25T06:44:01Z</time>
      </trkpt>
      <trkpt lat="59.315547" lon="18.072756">
        <ele>28</ele>
        <time>2019-11-25T06:44:02Z</time>
      </trkpt>
      <trkpt lat="59.315575" lon="18.072737">
        <ele>28</ele>
        <time>2019-11-25T06:44:03Z</time>
      </trkpt>
      <trkpt lat="59.315603" lon="18.072718">
        <ele>28</ele>
        <time>2019-11-25T06:44:04Z</time>
      </trkpt>
      <trkpt lat="59.315627" lon="18.072691">
        <ele>28</ele>
        <time>2019-11-25T06:44:05Z</time>
      </trkpt>
      <trkpt lat="59.315651" lon="18.072663">
        <ele>28</ele>
        <time>2019-11-25T06:44:06Z</time>
      </trkpt>
      <trkpt lat="59.315675" lon="18.072635">
        <ele>28</ele>
        <time>2019-11-25T06:44:07Z</time>
      </trkpt>
      <trkpt lat="59.315701" lon="18.072604">
        <ele>28</ele>
        <time>2019-11-25T06:44:08Z</time>
      </trkpt>
      <trkpt lat="59.315726" lon="18.07257">
        <ele>28</ele>
        <time>2019-11-25T06:44:09Z</time>
      </trkpt>
      <trkpt lat="59.315751" lon="18.072543">
        <ele>28</ele>
        <time>2019-11-25T06:44:10Z</time>
      </trkpt>
      <trkpt lat="59.315775" lon="18.072522">
        <ele>28</ele>
        <time>2019-11-25T06:44:11Z</time>
      </trkpt>
      <trkpt lat="59.315799" lon="18.072501">
        <ele>29</ele>
        <time>2019-11-25T06:44:12Z</time>
      </trkpt>
      <trkpt lat="59.315824" lon="18.072476">
        <ele>29</ele>
        <time>2019-11-25T06:44:13Z</time>
      </trkpt>
      <trkpt lat="59.315851" lon="18.072453">
        <ele>29</ele>
        <time>2019-11-25T06:44:14Z</time>
      </trkpt>
      <trkpt lat="59.315874" lon="18.072423">
        <ele>29</ele>
        <time>2019-11-25T06:44:15Z</time>
      </trkpt>
      <trkpt lat="59.315895" lon="18.07239">
        <ele>29</ele>
        <time>2019-11-25T06:44:16Z</time>
      </trkpt>
      <trkpt lat="59.315919" lon="18.072359">
        <ele>29</ele>
        <time>2019-11-25T06:44:17Z</time>
      </trkpt>
      <trkpt lat="59.315939" lon="18.072329">
        <ele>29</ele>
        <time>2019-11-25T06:44:18Z</time>
      </trkpt>
      <trkpt lat="59.315963" lon="18.072308">
        <ele>29</ele>
        <time>2019-11-25T06:44:19Z</time>
      </trkpt>
      <trkpt lat="59.31599" lon="18.072296">
        <ele>29</ele>
        <time>2019-11-25T06:44:20Z</time>
      </trkpt>
      <trkpt lat="59.316015" lon="18.072287">
        <ele>29</ele>
        <time>2019-11-25T06:44:21Z</time>
      </trkpt>
      <trkpt lat="59.316043" lon="18.072278">
        <ele>29</ele>
        <time>2019-11-25T06:44:22Z</time>
      </trkpt>
      <trkpt lat="59.31607" lon="18.072262">
        <ele>29</ele>
        <time>2019-11-25T06:44:23Z</time>
      </trkpt>
      <trkpt lat="59.316092" lon="18.072245">
        <ele>30</ele>
        <time>2019-11-25T06:44:24Z</time>
      </trkpt>
      <trkpt lat="59.316112" lon="18.072228">
        <ele>30</ele>
        <time>2019-11-25T06:44:25Z</time>
      </trkpt>
      <trkpt lat="59.316132" lon="18.072207">
        <ele>29</ele>
        <time>2019-11-25T06:44:26Z</time>
      </trkpt>
      <trkpt lat="59.316153" lon="18.072187">
        <ele>29</ele>
        <time>2019-11-25T06:44:27Z</time>
      </trkpt>
      <trkpt lat="59.316178" lon="18.072176">
        <ele>30</ele>
        <time>2019-11-25T06:44:28Z</time>
      </trkpt>
      <trkpt lat="59.316204" lon="18.072174">
        <ele>30</ele>
        <time>2019-11-25T06:44:29Z</time>
      </trkpt>
      <trkpt lat="59.316226" lon="18.072166">
        <ele>30</ele>
        <time>2019-11-25T06:44:30Z</time>
      </trkpt>
      <trkpt lat="59.31625" lon="18.072158">
        <ele>30</ele>
        <time>2019-11-25T06:44:31Z</time>
      </trkpt>
      <trkpt lat="59.316273" lon="18.07215">
        <ele>30</ele>
        <time>2019-11-25T06:44:32Z</time>
      </trkpt>
      <trkpt lat="59.3163" lon="18.072143">
        <ele>30</ele>
        <time>2019-11-25T06:44:33Z</time>
      </trkpt>
      <trkpt lat="59.316319" lon="18.072128">
        <ele>30</ele>
        <time>2019-11-25T06:44:34Z</time>
      </trkpt>
      <trkpt lat="59.316344" lon="18.072114">
        <ele>30</ele>
        <time>2019-11-25T06:44:35Z</time>
      </trkpt>
      <trkpt lat="59.316369" lon="18.072093">
        <ele>30</ele>
        <time>2019-11-25T06:44:36Z</time>
      </trkpt>
      <trkpt lat="59.316399" lon="18.07207">
        <ele>30</ele>
        <time>2019-11-25T06:44:37Z</time>
      </trkpt>
      <trkpt lat="59.316429" lon="18.072051">
        <ele>31</ele>
        <time>2019-11-25T06:44:38Z</time>
      </trkpt>
      <trkpt lat="59.316454" lon="18.072042">
        <ele>31</ele>
        <time>2019-11-25T06:44:39Z</time>
      </trkpt>
      <trkpt lat="59.316478" lon="18.072029">
        <ele>31</ele>
        <time>2019-11-25T06:44:40Z</time>
      </trkpt>
      <trkpt lat="59.3165" lon="18.072027">
        <ele>31</ele>
        <time>2019-11-25T06:44:41Z</time>
      </trkpt>
      <trkpt lat="59.31652" lon="18.072025">
        <ele>32</ele>
        <time>2019-11-25T06:44:42Z</time>
      </trkpt>
      <trkpt lat="59.31654" lon="18.072021">
        <ele>32</ele>
        <time>2019-11-25T06:44:43Z</time>
      </trkpt>
      <trkpt lat="59.31656" lon="18.072011">
        <ele>32</ele>
        <time>2019-11-25T06:44:44Z</time>
      </trkpt>
      <trkpt lat="59.316583" lon="18.071998">
        <ele>32</ele>
        <time>2019-11-25T06:44:45Z</time>
      </trkpt>
      <trkpt lat="59.31661" lon="18.071989">
        <ele>32</ele>
        <time>2019-11-25T06:44:46Z</time>
      </trkpt>
      <trkpt lat="59.316634" lon="18.071978">
        <ele>32</ele>
        <time>2019-11-25T06:44:47Z</time>
      </trkpt>
      <trkpt lat="59.316659" lon="18.071965">
        <ele>32</ele>
        <time>2019-11-25T06:44:48Z</time>
      </trkpt>
      <trkpt lat="59.316686" lon="18.071962">
        <ele>32</ele>
        <time>2019-11-25T06:44:49Z</time>
      </trkpt>
      <trkpt lat="59.316713" lon="18.071956">
        <ele>32</ele>
        <time>2019-11-25T06:44:50Z</time>
      </trkpt>
      <trkpt lat="59.316742" lon="18.071945">
        <ele>32</ele>
        <time>2019-11-25T06:44:51Z</time>
      </trkpt>
      <trkpt lat="59.316771" lon="18.071936">
        <ele>32</ele>
        <time>2019-11-25T06:44:52Z</time>
      </trkpt>
      <trkpt lat="59.316868" lon="18.071878">
        <ele>32</ele>
        <time>2019-11-25T06:44:55Z</time>
      </trkpt>
      <trkpt lat="59.316906" lon="18.071848">
        <ele>32</ele>
        <time>2019-11-25T06:44:56Z</time>
      </trkpt>
      <trkpt lat="59.316934" lon="18.071834">
        <ele>32</ele>
        <time>2019-11-25T06:44:57Z</time>
      </trkpt>
      <trkpt lat="59.31698" lon="18.071806">
        <ele>32</ele>
        <time>2019-11-25T06:44:59Z</time>
      </trkpt>
      <trkpt lat="59.317001" lon="18.071791">
        <ele>32</ele>
        <time>2019-11-25T06:45:01Z</time>
      </trkpt>
      <trkpt lat="59.317026" lon="18.071777">
        <ele>32</ele>
        <time>2019-11-25T06:45:01Z</time>
      </trkpt>
      <trkpt lat="59.317054" lon="18.071761">
        <ele>32</ele>
        <time>2019-11-25T06:45:02Z</time>
      </trkpt>
      <trkpt lat="59.31708" lon="18.071737">
        <ele>33</ele>
        <time>2019-11-25T06:45:03Z</time>
      </trkpt>
      <trkpt lat="59.317106" lon="18.07172">
        <ele>33</ele>
        <time>2019-11-25T06:45:04Z</time>
      </trkpt>
      <trkpt lat="59.31713" lon="18.071698">
        <ele>33</ele>
        <time>2019-11-25T06:45:05Z</time>
      </trkpt>
      <trkpt lat="59.31716" lon="18.071692">
        <ele>34</ele>
        <time>2019-11-25T06:45:06Z</time>
      </trkpt>
      <trkpt lat="59.31718" lon="18.071674">
        <ele>34</ele>
        <time>2019-11-25T06:45:07Z</time>
      </trkpt>
      <trkpt lat="59.3172" lon="18.07165">
        <ele>34</ele>
        <time>2019-11-25T06:45:08Z</time>
      </trkpt>
      <trkpt lat="59.31722" lon="18.071628">
        <ele>34</ele>
        <time>2019-11-25T06:45:09Z</time>
      </trkpt>
      <trkpt lat="59.317242" lon="18.071613">
        <ele>34</ele>
        <time>2019-11-25T06:45:10Z</time>
      </trkpt>
      <trkpt lat="59.317269" lon="18.071607">
        <ele>34</ele>
        <time>2019-11-25T06:45:11Z</time>
      </trkpt>
      <trkpt lat="59.317294" lon="18.071601">
        <ele>34</ele>
        <time>2019-11-25T06:45:12Z</time>
      </trkpt>
      <trkpt lat="59.31732" lon="18.071603">
        <ele>34</ele>
        <time>2019-11-25T06:45:13Z</time>
      </trkpt>
      <trkpt lat="59.317346" lon="18.071602">
        <ele>34</ele>
        <time>2019-11-25T06:45:14Z</time>
      </trkpt>
      <trkpt lat="59.31737" lon="18.0716">
        <ele>34</ele>
        <time>2019-11-25T06:45:15Z</time>
      </trkpt>
      <trkpt lat="59.317396" lon="18.071596">
        <ele>34</ele>
        <time>2019-11-25T06:45:16Z</time>
      </trkpt>
      <trkpt lat="59.31742" lon="18.071593">
        <ele>34</ele>
        <time>2019-11-25T06:45:17Z</time>
      </trkpt>
      <trkpt lat="59.317449" lon="18.071586">
        <ele>34</ele>
        <time>2019-11-25T06:45:18Z</time>
      </trkpt>
      <trkpt lat="59.317471" lon="18.071571">
        <ele>34</ele>
        <time>2019-11-25T06:45:19Z</time>
      </trkpt>
      <trkpt lat="59.317497" lon="18.071561">
        <ele>34</ele>
        <time>2019-11-25T06:45:20Z</time>
      </trkpt>
      <trkpt lat="59.317524" lon="18.071546">
        <ele>34</ele>
        <time>2019-11-25T06:45:21Z</time>
      </trkpt>
      <trkpt lat="59.317554" lon="18.071537">
        <ele>34</ele>
        <time>2019-11-25T06:45:22Z</time>
      </trkpt>
      <trkpt lat="59.317584" lon="18.071528">
        <ele>33</ele>
        <time>2019-11-25T06:45:23Z</time>
      </trkpt>
      <trkpt lat="59.317612" lon="18.071534">
        <ele>33</ele>
        <time>2019-11-25T06:45:24Z</time>
      </trkpt>
      <trkpt lat="59.317643" lon="18.071521">
        <ele>33</ele>
        <time>2019-11-25T06:45:25Z</time>
      </trkpt>
      <trkpt lat="59.31767" lon="18.071502">
        <ele>33</ele>
        <time>2019-11-25T06:45:26Z</time>
      </trkpt>
      <trkpt lat="59.317697" lon="18.07148">
        <ele>33</ele>
        <time>2019-11-25T06:45:27Z</time>
      </trkpt>
      <trkpt lat="59.317719" lon="18.071459">
        <ele>33</ele>
        <time>2019-11-25T06:45:28Z</time>
      </trkpt>
      <trkpt lat="59.317746" lon="18.071451">
        <ele>33</ele>
        <time>2019-11-25T06:45:29Z</time>
      </trkpt>
      <trkpt lat="59.317778" lon="18.071444">
        <ele>33</ele>
        <time>2019-11-25T06:45:30Z</time>
      </trkpt>
      <trkpt lat="59.317804" lon="18.071435">
        <ele>33</ele>
        <time>2019-11-25T06:45:31Z</time>
      </trkpt>
      <trkpt lat="59.317825" lon="18.071419">
        <ele>34</ele>
        <time>2019-11-25T06:45:32Z</time>
      </trkpt>
      <trkpt lat="59.317848" lon="18.071405">
        <ele>34</ele>
        <time>2019-11-25T06:45:33Z</time>
      </trkpt>
      <trkpt lat="59.317876" lon="18.071396">
        <ele>34</ele>
        <time>2019-11-25T06:45:34Z</time>
      </trkpt>
      <trkpt lat="59.317898" lon="18.071376">
        <ele>34</ele>
        <time>2019-11-25T06:45:35Z</time>
      </trkpt>
      <trkpt lat="59.317923" lon="18.071355">
        <ele>34</ele>
        <time>2019-11-25T06:45:36Z</time>
      </trkpt>
      <trkpt lat="59.317947" lon="18.071343">
        <ele>34</ele>
        <time>2019-11-25T06:45:37Z</time>
      </trkpt>
      <trkpt lat="59.317968" lon="18.07133">
        <ele>34</ele>
        <time>2019-11-25T06:45:38Z</time>
      </trkpt>
      <trkpt lat="59.317994" lon="18.07132">
        <ele>34</ele>
        <time>2019-11-25T06:45:39Z</time>
      </trkpt>
      <trkpt lat="59.318014" lon="18.071317">
        <ele>34</ele>
        <time>2019-11-25T06:45:40Z</time>
      </trkpt>
      <trkpt lat="59.318038" lon="18.071312">
        <ele>34</ele>
        <time>2019-11-25T06:45:41Z</time>
      </trkpt>
      <trkpt lat="59.318064" lon="18.071312">
        <ele>34</ele>
        <time>2019-11-25T06:45:42Z</time>
      </trkpt>
      <trkpt lat="59.318092" lon="18.071306">
        <ele>34</ele>
        <time>2019-11-25T06:45:43Z</time>
      </trkpt>
      <trkpt lat="59.318122" lon="18.071297">
        <ele>34</ele>
        <time>2019-11-25T06:45:44Z</time>
      </trkpt>
      <trkpt lat="59.31815" lon="18.071286">
        <ele>34</ele>
        <time>2019-11-25T06:45:45Z</time>
      </trkpt>
      <trkpt lat="59.318178" lon="18.071281">
        <ele>33</ele>
        <time>2019-11-25T06:45:46Z</time>
      </trkpt>
      <trkpt lat="59.318204" lon="18.071274">
        <ele>33</ele>
        <time>2019-11-25T06:45:47Z</time>
      </trkpt>
      <trkpt lat="59.318234" lon="18.071259">
        <ele>33</ele>
        <time>2019-11-25T06:45:48Z</time>
      </trkpt>
      <trkpt lat="59.318327" lon="18.071196">
        <ele>33</ele>
        <time>2019-11-25T06:45:51Z</time>
      </trkpt>
      <trkpt lat="59.318445" lon="18.071095">
        <ele>32</ele>
        <time>2019-11-25T06:45:54Z</time>
      </trkpt>
      <trkpt lat="59.318561" lon="18.071066">
        <ele>33</ele>
        <time>2019-11-25T06:45:57Z</time>
      </trkpt>
      <trkpt lat="59.318594" lon="18.071044">
        <ele>33</ele>
        <time>2019-11-25T06:45:58Z</time>
      </trkpt>
      <trkpt lat="59.318621" lon="18.07102">
        <ele>33</ele>
        <time>2019-11-25T06:45:59Z</time>
      </trkpt>
      <trkpt lat="59.318648" lon="18.070991">
        <ele>33</ele>
        <time>2019-11-25T06:46:00Z</time>
      </trkpt>
      <trkpt lat="59.318702" lon="18.070959">
        <ele>33</ele>
        <time>2019-11-25T06:46:02Z</time>
      </trkpt>
      <trkpt lat="59.318727" lon="18.070956">
        <ele>33</ele>
        <time>2019-11-25T06:46:03Z</time>
      </trkpt>
      <trkpt lat="59.318751" lon="18.070956">
        <ele>33</ele>
        <time>2019-11-25T06:46:04Z</time>
      </trkpt>
      <trkpt lat="59.318775" lon="18.070949">
        <ele>34</ele>
        <time>2019-11-25T06:46:05Z</time>
      </trkpt>
      <trkpt lat="59.318802" lon="18.070948">
        <ele>34</ele>
        <time>2019-11-25T06:46:06Z</time>
      </trkpt>
      <trkpt lat="59.318829" lon="18.070945">
        <ele>34</ele>
        <time>2019-11-25T06:46:07Z</time>
      </trkpt>
      <trkpt lat="59.318855" lon="18.070934">
        <ele>35</ele>
        <time>2019-11-25T06:46:08Z</time>
      </trkpt>
      <trkpt lat="59.318885" lon="18.070925">
        <ele>35</ele>
        <time>2019-11-25T06:46:09Z</time>
      </trkpt>
      <trkpt lat="59.318914" lon="18.070912">
        <ele>35</ele>
        <time>2019-11-25T06:46:10Z</time>
      </trkpt>
      <trkpt lat="59.318942" lon="18.070893">
        <ele>35</ele>
        <time>2019-11-25T06:46:11Z</time>
      </trkpt>
      <trkpt lat="59.318969" lon="18.07088">
        <ele>35</ele>
        <time>2019-11-25T06:46:12Z</time>
      </trkpt>
      <trkpt lat="59.318997" lon="18.070869">
        <ele>34</ele>
        <time>2019-11-25T06:46:13Z</time>
      </trkpt>
      <trkpt lat="59.319026" lon="18.07085">
        <ele>34</ele>
        <time>2019-11-25T06:46:14Z</time>
      </trkpt>
      <trkpt lat="59.319053" lon="18.070827">
        <ele>34</ele>
        <time>2019-11-25T06:46:15Z</time>
      </trkpt>
      <trkpt lat="59.319078" lon="18.070809">
        <ele>34</ele>
        <time>2019-11-25T06:46:16Z</time>
      </trkpt>
      <trkpt lat="59.319107" lon="18.070802">
        <ele>35</ele>
        <time>2019-11-25T06:46:17Z</time>
      </trkpt>
      <trkpt lat="59.319134" lon="18.070794">
        <ele>35</ele>
        <time>2019-11-25T06:46:18Z</time>
      </trkpt>
      <trkpt lat="59.319162" lon="18.070786">
        <ele>35</ele>
        <time>2019-11-25T06:46:19Z</time>
      </trkpt>
      <trkpt lat="59.319188" lon="18.070774">
        <ele>35</ele>
        <time>2019-11-25T06:46:20Z</time>
      </trkpt>
      <trkpt lat="59.319216" lon="18.070763">
        <ele>35</ele>
        <time>2019-11-25T06:46:21Z</time>
      </trkpt>
      <trkpt lat="59.319244" lon="18.070747">
        <ele>35</ele>
        <time>2019-11-25T06:46:22Z</time>
      </trkpt>
      <trkpt lat="59.319272" lon="18.070725">
        <ele>35</ele>
        <time>2019-11-25T06:46:23Z</time>
      </trkpt>
      <trkpt lat="59.319302" lon="18.070701">
        <ele>36</ele>
        <time>2019-11-25T06:46:24Z</time>
      </trkpt>
      <trkpt lat="59.319329" lon="18.0707">
        <ele>36</ele>
        <time>2019-11-25T06:46:25Z</time>
      </trkpt>
      <trkpt lat="59.319352" lon="18.070704">
        <ele>36</ele>
        <time>2019-11-25T06:46:26Z</time>
      </trkpt>
      <trkpt lat="59.319388" lon="18.070698">
        <ele>36</ele>
        <time>2019-11-25T06:46:28Z</time>
      </trkpt>
      <trkpt lat="59.319407" lon="18.070683">
        <ele>36</ele>
        <time>2019-11-25T06:46:29Z</time>
      </trkpt>
      <trkpt lat="59.319425" lon="18.07067">
        <ele>36</ele>
        <time>2019-11-25T06:46:30Z</time>
      </trkpt>
      <trkpt lat="59.319452" lon="18.070659">
        <ele>36</ele>
        <time>2019-11-25T06:46:31Z</time>
      </trkpt>
      <trkpt lat="59.319474" lon="18.070632">
        <ele>36</ele>
        <time>2019-11-25T06:46:32Z</time>
      </trkpt>
      <trkpt lat="59.319508" lon="18.070591">
        <ele>35</ele>
        <time>2019-11-25T06:46:33Z</time>
      </trkpt>
      <trkpt lat="59.319553" lon="18.070536">
        <ele>35</ele>
        <time>2019-11-25T06:46:34Z</time>
      </trkpt>
      <trkpt lat="59.319592" lon="18.070498">
        <ele>35</ele>
        <time>2019-11-25T06:46:35Z</time>
      </trkpt>
      <trkpt lat="59.319624" lon="18.070477">
        <ele>34</ele>
        <time>2019-11-25T06:46:36Z</time>
      </trkpt>
      <trkpt lat="59.319651" lon="18.07045">
        <ele>35</ele>
        <time>2019-11-25T06:46:37Z</time>
      </trkpt>
      <trkpt lat="59.319681" lon="18.070442">
        <ele>35</ele>
        <time>2019-11-25T06:46:38Z</time>
      </trkpt>
      <trkpt lat="59.319708" lon="18.070429">
        <ele>35</ele>
        <time>2019-11-25T06:46:39Z</time>
      </trkpt>
      <trkpt lat="59.319731" lon="18.070411">
        <ele>35</ele>
        <time>2019-11-25T06:46:40Z</time>
      </trkpt>
      <trkpt lat="59.319757" lon="18.070396">
        <ele>36</ele>
        <time>2019-11-25T06:46:41Z</time>
      </trkpt>
      <trkpt lat="59.31978" lon="18.07038">
        <ele>35</ele>
        <time>2019-11-25T06:46:42Z</time>
      </trkpt>
      <trkpt lat="59.319815" lon="18.070431">
        <ele>35</ele>
        <time>2019-11-25T06:46:43Z</time>
      </trkpt>
      <trkpt lat="59.319849" lon="18.070527">
        <ele>34</ele>
        <time>2019-11-25T06:46:44Z</time>
      </trkpt>
      <trkpt lat="59.319885" lon="18.070623">
        <ele>33</ele>
        <time>2019-11-25T06:46:45Z</time>
      </trkpt>
      <trkpt lat="59.319925" lon="18.070727">
        <ele>32</ele>
        <time>2019-11-25T06:46:46Z</time>
      </trkpt>
      <trkpt lat="59.319957" lon="18.070819">
        <ele>31</ele>
        <time>2019-11-25T06:46:47Z</time>
      </trkpt>
      <trkpt lat="59.319985" lon="18.070882">
        <ele>31</ele>
        <time>2019-11-25T06:46:48Z</time>
      </trkpt>
      <trkpt lat="59.320001" lon="18.070931">
        <ele>31</ele>
        <time>2019-11-25T06:46:49Z</time>
      </trkpt>
      <trkpt lat="59.320017" lon="18.07098">
        <ele>31</ele>
        <time>2019-11-25T06:46:50Z</time>
      </trkpt>
      <trkpt lat="59.320023" lon="18.071024">
        <ele>31</ele>
        <time>2019-11-25T06:46:51Z</time>
      </trkpt>
      <trkpt lat="59.320031" lon="18.071065">
        <ele>31</ele>
        <time>2019-11-25T06:46:52Z</time>
      </trkpt>
      <trkpt lat="59.320049" lon="18.07109">
        <ele>31</ele>
        <time>2019-11-25T06:46:54Z</time>
      </trkpt>
      <trkpt lat="59.320071" lon="18.071091">
        <ele>31</ele>
        <time>2019-11-25T06:46:55Z</time>
      </trkpt>
      <trkpt lat="59.320098" lon="18.071097">
        <ele>30</ele>
        <time>2019-11-25T06:46:56Z</time>
      </trkpt>
      <trkpt lat="59.320126" lon="18.0711">
        <ele>30</ele>
        <time>2019-11-25T06:46:57Z</time>
      </trkpt>
      <trkpt lat="59.320151" lon="18.07111">
        <ele>30</ele>
        <time>2019-11-25T06:46:58Z</time>
      </trkpt>
      <trkpt lat="59.320175" lon="18.07112">
        <ele>30</ele>
        <time>2019-11-25T06:46:59Z</time>
      </trkpt>
      <trkpt lat="59.320201" lon="18.071128">
        <ele>30</ele>
        <time>2019-11-25T06:47:00Z</time>
      </trkpt>
      <trkpt lat="59.320228" lon="18.071136">
        <ele>30</ele>
        <time>2019-11-25T06:47:01Z</time>
      </trkpt>
      <trkpt lat="59.320253" lon="18.071168">
        <ele>29</ele>
        <time>2019-11-25T06:47:02Z</time>
      </trkpt>
      <trkpt lat="59.320271" lon="18.071215">
        <ele>29</ele>
        <time>2019-11-25T06:47:03Z</time>
      </trkpt>
      <trkpt lat="59.320291" lon="18.071261">
        <ele>28</ele>
        <time>2019-11-25T06:47:04Z</time>
      </trkpt>
      <trkpt lat="59.320312" lon="18.071298">
        <ele>28</ele>
        <time>2019-11-25T06:47:05Z</time>
      </trkpt>
      <trkpt lat="59.320334" lon="18.071328">
        <ele>28</ele>
        <time>2019-11-25T06:47:06Z</time>
      </trkpt>
      <trkpt lat="59.320358" lon="18.071353">
        <ele>28</ele>
        <time>2019-11-25T06:47:07Z</time>
      </trkpt>
      <trkpt lat="59.320386" lon="18.071372">
        <ele>28</ele>
        <time>2019-11-25T06:47:08Z</time>
      </trkpt>
      <trkpt lat="59.320414" lon="18.07139">
        <ele>27</ele>
        <time>2019-11-25T06:47:09Z</time>
      </trkpt>
      <trkpt lat="59.320442" lon="18.071406">
        <ele>27</ele>
        <time>2019-11-25T06:47:10Z</time>
      </trkpt>
      <trkpt lat="59.32047" lon="18.071424">
        <ele>27</ele>
        <time>2019-11-25T06:47:11Z</time>
      </trkpt>
      <trkpt lat="59.320498" lon="18.071435">
        <ele>27</ele>
        <time>2019-11-25T06:47:12Z</time>
      </trkpt>
      <trkpt lat="59.320526" lon="18.071443">
        <ele>26</ele>
        <time>2019-11-25T06:47:13Z</time>
      </trkpt>
      <trkpt lat="59.320555" lon="18.071445">
        <ele>26</ele>
        <time>2019-11-25T06:47:14Z</time>
      </trkpt>
      <trkpt lat="59.320583" lon="18.071447">
        <ele>26</ele>
        <time>2019-11-25T06:47:15Z</time>
      </trkpt>
      <trkpt lat="59.320611" lon="18.071451">
        <ele>26</ele>
        <time>2019-11-25T06:47:16Z</time>
      </trkpt>
      <trkpt lat="59.320641" lon="18.071459">
        <ele>25</ele>
        <time>2019-11-25T06:47:17Z</time>
      </trkpt>
      <trkpt lat="59.320669" lon="18.071469">
        <ele>25</ele>
        <time>2019-11-25T06:47:18Z</time>
      </trkpt>
      <trkpt lat="59.320698" lon="18.071484">
        <ele>24</ele>
        <time>2019-11-25T06:47:19Z</time>
      </trkpt>
      <trkpt lat="59.320728" lon="18.071504">
        <ele>24</ele>
        <time>2019-11-25T06:47:20Z</time>
      </trkpt>
      <trkpt lat="59.320757" lon="18.071538">
        <ele>24</ele>
        <time>2019-11-25T06:47:21Z</time>
      </trkpt>
      <trkpt lat="59.320781" lon="18.071582">
        <ele>24</ele>
        <time>2019-11-25T06:47:22Z</time>
      </trkpt>
      <trkpt lat="59.320798" lon="18.071634">
        <ele>24</ele>
        <time>2019-11-25T06:47:23Z</time>
      </trkpt>
      <trkpt lat="59.320812" lon="18.071689">
        <ele>24</ele>
        <time>2019-11-25T06:47:24Z</time>
      </trkpt>
      <trkpt lat="59.320826" lon="18.071743">
        <ele>24</ele>
        <time>2019-11-25T06:47:25Z</time>
      </trkpt>
      <trkpt lat="59.320839" lon="18.071799">
        <ele>23</ele>
        <time>2019-11-25T06:47:26Z</time>
      </trkpt>
      <trkpt lat="59.320852" lon="18.071857">
        <ele>23</ele>
        <time>2019-11-25T06:47:27Z</time>
      </trkpt>
      <trkpt lat="59.320865" lon="18.071915">
        <ele>23</ele>
        <time>2019-11-25T06:47:28Z</time>
      </trkpt>
      <trkpt lat="59.320879" lon="18.071972">
        <ele>23</ele>
        <time>2019-11-25T06:47:29Z</time>
      </trkpt>
      <trkpt lat="59.320895" lon="18.072028">
        <ele>23</ele>
        <time>2019-11-25T06:47:30Z</time>
      </trkpt>
      <trkpt lat="59.320912" lon="18.072075">
        <ele>23</ele>
        <time>2019-11-25T06:47:31Z</time>
      </trkpt>
      <trkpt lat="59.320932" lon="18.07212">
        <ele>22</ele>
        <time>2019-11-25T06:47:32Z</time>
      </trkpt>
      <trkpt lat="59.320956" lon="18.072154">
        <ele>22</ele>
        <time>2019-11-25T06:47:33Z</time>
      </trkpt>
      <trkpt lat="59.320981" lon="18.072181">
        <ele>22</ele>
        <time>2019-11-25T06:47:34Z</time>
      </trkpt>
      <trkpt lat="59.321009" lon="18.072203">
        <ele>21</ele>
        <time>2019-11-25T06:47:35Z</time>
      </trkpt>
      <trkpt lat="59.321039" lon="18.072225">
        <ele>21</ele>
        <time>2019-11-25T06:47:36Z</time>
      </trkpt>
      <trkpt lat="59.321068" lon="18.072245">
        <ele>21</ele>
        <time>2019-11-25T06:47:37Z</time>
      </trkpt>
      <trkpt lat="59.321097" lon="18.072264">
        <ele>20</ele>
        <time>2019-11-25T06:47:38Z</time>
      </trkpt>
      <trkpt lat="59.321125" lon="18.072277">
        <ele>20</ele>
        <time>2019-11-25T06:47:39Z</time>
      </trkpt>
      <trkpt lat="59.321154" lon="18.072292">
        <ele>20</ele>
        <time>2019-11-25T06:47:40Z</time>
      </trkpt>
      <trkpt lat="59.321185" lon="18.072307">
        <ele>20</ele>
        <time>2019-11-25T06:47:41Z</time>
      </trkpt>
      <trkpt lat="59.321217" lon="18.07233">
        <ele>19</ele>
        <time>2019-11-25T06:47:42Z</time>
      </trkpt>
      <trkpt lat="59.321248" lon="18.072353">
        <ele>19</ele>
        <time>2019-11-25T06:47:43Z</time>
      </trkpt>
      <trkpt lat="59.321278" lon="18.072377">
        <ele>19</ele>
        <time>2019-11-25T06:47:44Z</time>
      </trkpt>
      <trkpt lat="59.321308" lon="18.072399">
        <ele>19</ele>
        <time>2019-11-25T06:47:45Z</time>
      </trkpt>
      <trkpt lat="59.321338" lon="18.072424">
        <ele>19</ele>
        <time>2019-11-25T06:47:46Z</time>
      </trkpt>
      <trkpt lat="59.321368" lon="18.072448">
        <ele>18</ele>
        <time>2019-11-25T06:47:47Z</time>
      </trkpt>
      <trkpt lat="59.321398" lon="18.072473">
        <ele>18</ele>
        <time>2019-11-25T06:47:48Z</time>
      </trkpt>
      <trkpt lat="59.321426" lon="18.072494">
        <ele>18</ele>
        <time>2019-11-25T06:47:49Z</time>
      </trkpt>
      <trkpt lat="59.321456" lon="18.072517">
        <ele>17</ele>
        <time>2019-11-25T06:47:50Z</time>
      </trkpt>
      <trkpt lat="59.321484" lon="18.072537">
        <ele>17</ele>
        <time>2019-11-25T06:47:51Z</time>
      </trkpt>
      <trkpt lat="59.321515" lon="18.072558">
        <ele>17</ele>
        <time>2019-11-25T06:47:52Z</time>
      </trkpt>
      <trkpt lat="59.321544" lon="18.072575">
        <ele>17</ele>
        <time>2019-11-25T06:47:53Z</time>
      </trkpt>
      <trkpt lat="59.321571" lon="18.072597">
        <ele>17</ele>
        <time>2019-11-25T06:47:54Z</time>
      </trkpt>
      <trkpt lat="59.321598" lon="18.072618">
        <ele>17</ele>
        <time>2019-11-25T06:47:55Z</time>
      </trkpt>
      <trkpt lat="59.321624" lon="18.072642">
        <ele>17</ele>
        <time>2019-11-25T06:47:56Z</time>
      </trkpt>
      <trkpt lat="59.321651" lon="18.072664">
        <ele>17</ele>
        <time>2019-11-25T06:47:57Z</time>
      </trkpt>
      <trkpt lat="59.321678" lon="18.072688">
        <ele>16</ele>
        <time>2019-11-25T06:47:58Z</time>
      </trkpt>
      <trkpt lat="59.321702" lon="18.072703">
        <ele>16</ele>
        <time>2019-11-25T06:47:59Z</time>
      </trkpt>
      <trkpt lat="59.321727" lon="18.072713">
        <ele>16</ele>
        <time>2019-11-25T06:48:00Z</time>
      </trkpt>
      <trkpt lat="59.321756" lon="18.072727">
        <ele>16</ele>
        <time>2019-11-25T06:48:01Z</time>
      </trkpt>
      <trkpt lat="59.321782" lon="18.072741">
        <ele>16</ele>
        <time>2019-11-25T06:48:02Z</time>
      </trkpt>
      <trkpt lat="59.321809" lon="18.072754">
        <ele>16</ele>
        <time>2019-11-25T06:48:03Z</time>
      </trkpt>
      <trkpt lat="59.321838" lon="18.072761">
        <ele>16</ele>
        <time>2019-11-25T06:48:04Z</time>
      </trkpt>
      <trkpt lat="59.321869" lon="18.07277">
        <ele>15</ele>
        <time>2019-11-25T06:48:05Z</time>
      </trkpt>
      <trkpt lat="59.321897" lon="18.072783">
        <ele>15</ele>
        <time>2019-11-25T06:48:06Z</time>
      </trkpt>
      <trkpt lat="59.321924" lon="18.072797">
        <ele>15</ele>
        <time>2019-11-25T06:48:07Z</time>
      </trkpt>
      <trkpt lat="59.321951" lon="18.07282">
        <ele>15</ele>
        <time>2019-11-25T06:48:08Z</time>
      </trkpt>
      <trkpt lat="59.321974" lon="18.072857">
        <ele>15</ele>
        <time>2019-11-25T06:48:09Z</time>
      </trkpt>
      <trkpt lat="59.321993" lon="18.072901">
        <ele>15</ele>
        <time>2019-11-25T06:48:10Z</time>
      </trkpt>
      <trkpt lat="59.322009" lon="18.072951">
        <ele>15</ele>
        <time>2019-11-25T06:48:11Z</time>
      </trkpt>
      <trkpt lat="59.322014" lon="18.073006">
        <ele>15</ele>
        <time>2019-11-25T06:48:12Z</time>
      </trkpt>
      <trkpt lat="59.322017" lon="18.073057">
        <ele>16</ele>
        <time>2019-11-25T06:48:13Z</time>
      </trkpt>
      <trkpt lat="59.322007" lon="18.073105">
        <ele>16</ele>
        <time>2019-11-25T06:48:14Z</time>
      </trkpt>
      <trkpt lat="59.321993" lon="18.073155">
        <ele>16</ele>
        <time>2019-11-25T06:48:15Z</time>
      </trkpt>
      <trkpt lat="59.321974" lon="18.073204">
        <ele>16</ele>
        <time>2019-11-25T06:48:16Z</time>
      </trkpt>
      <trkpt lat="59.321957" lon="18.073252">
        <ele>16</ele>
        <time>2019-11-25T06:48:17Z</time>
      </trkpt>
      <trkpt lat="59.321946" lon="18.073302">
        <ele>16</ele>
        <time>2019-11-25T06:48:18Z</time>
      </trkpt>
      <trkpt lat="59.321937" lon="18.073351">
        <ele>16</ele>
        <time>2019-11-25T06:48:19Z</time>
      </trkpt>
      <trkpt lat="59.321928" lon="18.073404">
        <ele>16</ele>
        <time>2019-11-25T06:48:20Z</time>
      </trkpt>
      <trkpt lat="59.321916" lon="18.073454">
        <ele>16</ele>
        <time>2019-11-25T06:48:21Z</time>
      </trkpt>
      <trkpt lat="59.321905" lon="18.073501">
        <ele>16</ele>
        <time>2019-11-25T06:48:22Z</time>
      </trkpt>
      <trkpt lat="59.321896" lon="18.073551">
        <ele>16</ele>
        <time>2019-11-25T06:48:23Z</time>
      </trkpt>
      <trkpt lat="59.321887" lon="18.073603">
        <ele>15</ele>
        <time>2019-11-25T06:48:24Z</time>
      </trkpt>
      <trkpt lat="59.32189" lon="18.073666">
        <ele>15</ele>
        <time>2019-11-25T06:48:25Z</time>
      </trkpt>
      <trkpt lat="59.321904" lon="18.073727">
        <ele>15</ele>
        <time>2019-11-25T06:48:26Z</time>
      </trkpt>
      <trkpt lat="59.321928" lon="18.07378">
        <ele>14</ele>
        <time>2019-11-25T06:48:27Z</time>
      </trkpt>
      <trkpt lat="59.321959" lon="18.073822">
        <ele>14</ele>
        <time>2019-11-25T06:48:28Z</time>
      </trkpt>
      <trkpt lat="59.321987" lon="18.073865">
        <ele>13</ele>
        <time>2019-11-25T06:48:30Z</time>
      </trkpt>
      <trkpt lat="59.322017" lon="18.073906">
        <ele>13</ele>
        <time>2019-11-25T06:48:30Z</time>
      </trkpt>
      <trkpt lat="59.322048" lon="18.073934">
        <ele>13</ele>
        <time>2019-11-25T06:48:31Z</time>
      </trkpt>
      <trkpt lat="59.322083" lon="18.073947">
        <ele>13</ele>
        <time>2019-11-25T06:48:32Z</time>
      </trkpt>
      <trkpt lat="59.322113" lon="18.073969">
        <ele>12</ele>
        <time>2019-11-25T06:48:33Z</time>
      </trkpt>
      <trkpt lat="59.322142" lon="18.073997">
        <ele>12</ele>
        <time>2019-11-25T06:48:34Z</time>
      </trkpt>
      <trkpt lat="59.322169" lon="18.074017">
        <ele>12</ele>
        <time>2019-11-25T06:48:35Z</time>
      </trkpt>
      <trkpt lat="59.322195" lon="18.07404">
        <ele>11</ele>
        <time>2019-11-25T06:48:36Z</time>
      </trkpt>
      <trkpt lat="59.322223" lon="18.074067">
        <ele>11</ele>
        <time>2019-11-25T06:48:37Z</time>
      </trkpt>
      <trkpt lat="59.322251" lon="18.074091">
        <ele>11</ele>
        <time>2019-11-25T06:48:38Z</time>
      </trkpt>
      <trkpt lat="59.322279" lon="18.074121">
        <ele>11</ele>
        <time>2019-11-25T06:48:39Z</time>
      </trkpt>
      <trkpt lat="59.32231" lon="18.074147">
        <ele>10</ele>
        <time>2019-11-25T06:48:40Z</time>
      </trkpt>
      <trkpt lat="59.32234" lon="18.074167">
        <ele>10</ele>
        <time>2019-11-25T06:48:41Z</time>
      </trkpt>
      <trkpt lat="59.322368" lon="18.074188">
        <ele>10</ele>
        <time>2019-11-25T06:48:42Z</time>
      </trkpt>
      <trkpt lat="59.322392" lon="18.074216">
        <ele>10</ele>
        <time>2019-11-25T06:48:43Z</time>
      </trkpt>
      <trkpt lat="59.322421" lon="18.074229">
        <ele>10</ele>
        <time>2019-11-25T06:48:44Z</time>
      </trkpt>
      <trkpt lat="59.322446" lon="18.074256">
        <ele>9</ele>
        <time>2019-11-25T06:48:45Z</time>
      </trkpt>
      <trkpt lat="59.322475" lon="18.074278">
        <ele>9</ele>
        <time>2019-11-25T06:48:46Z</time>
      </trkpt>
      <trkpt lat="59.322503" lon="18.074304">
        <ele>9</ele>
        <time>2019-11-25T06:48:47Z</time>
      </trkpt>
      <trkpt lat="59.322532" lon="18.074325">
        <ele>9</ele>
        <time>2019-11-25T06:48:48Z</time>
      </trkpt>
      <trkpt lat="59.322561" lon="18.074346">
        <ele>9</ele>
        <time>2019-11-25T06:48:49Z</time>
      </trkpt>
      <trkpt lat="59.322591" lon="18.074367">
        <ele>9</ele>
        <time>2019-11-25T06:48:50Z</time>
      </trkpt>
      <trkpt lat="59.322622" lon="18.074388">
        <ele>9</ele>
        <time>2019-11-25T06:48:51Z</time>
      </trkpt>
      <trkpt lat="59.322649" lon="18.074425">
        <ele>9</ele>
        <time>2019-11-25T06:48:52Z</time>
      </trkpt>
      <trkpt lat="59.322678" lon="18.074457">
        <ele>9</ele>
        <time>2019-11-25T06:48:53Z</time>
      </trkpt>
      <trkpt lat="59.322704" lon="18.074494">
        <ele>9</ele>
        <time>2019-11-25T06:48:54Z</time>
      </trkpt>
      <trkpt lat="59.322726" lon="18.074537">
        <ele>9</ele>
        <time>2019-11-25T06:48:55Z</time>
      </trkpt>
      <trkpt lat="59.32275" lon="18.074567">
        <ele>8</ele>
        <time>2019-11-25T06:48:56Z</time>
      </trkpt>
      <trkpt lat="59.322776" lon="18.074598">
        <ele>8</ele>
        <time>2019-11-25T06:48:57Z</time>
      </trkpt>
      <trkpt lat="59.322802" lon="18.074634">
        <ele>8</ele>
        <time>2019-11-25T06:48:58Z</time>
      </trkpt>
      <trkpt lat="59.322827" lon="18.074675">
        <ele>8</ele>
        <time>2019-11-25T06:48:59Z</time>
      </trkpt>
      <trkpt lat="59.32285" lon="18.074712">
        <ele>8</ele>
        <time>2019-11-25T06:49:00Z</time>
      </trkpt>
      <trkpt lat="59.322874" lon="18.074748">
        <ele>8</ele>
        <time>2019-11-25T06:49:01Z</time>
      </trkpt>
      <trkpt lat="59.322897" lon="18.074779">
        <ele>8</ele>
        <time>2019-11-25T06:49:02Z</time>
      </trkpt>
      <trkpt lat="59.322925" lon="18.074802">
        <ele>8</ele>
        <time>2019-11-25T06:49:03Z</time>
      </trkpt>
      <trkpt lat="59.322954" lon="18.074825">
        <ele>8</ele>
        <time>2019-11-25T06:49:04Z</time>
      </trkpt>
      <trkpt lat="59.322984" lon="18.074844">
        <ele>8</ele>
        <time>2019-11-25T06:49:05Z</time>
      </trkpt>
      <trkpt lat="59.323016" lon="18.074853">
        <ele>8</ele>
        <time>2019-11-25T06:49:06Z</time>
      </trkpt>
      <trkpt lat="59.323046" lon="18.074859">
        <ele>8</ele>
        <time>2019-11-25T06:49:07Z</time>
      </trkpt>
      <trkpt lat="59.323078" lon="18.074871">
        <ele>8</ele>
        <time>2019-11-25T06:49:08Z</time>
      </trkpt>
      <trkpt lat="59.323107" lon="18.074888">
        <ele>8</ele>
        <time>2019-11-25T06:49:09Z</time>
      </trkpt>
      <trkpt lat="59.323136" lon="18.074893">
        <ele>8</ele>
        <time>2019-11-25T06:49:10Z</time>
      </trkpt>
      <trkpt lat="59.323156" lon="18.074902">
        <ele>8</ele>
        <time>2019-11-25T06:49:11Z</time>
      </trkpt>
      <trkpt lat="59.323179" lon="18.074907">
        <ele>8</ele>
        <time>2019-11-25T06:49:12Z</time>
      </trkpt>
      <trkpt lat="59.323277" lon="18.074862">
        <ele>7</ele>
        <time>2019-11-25T06:49:15Z</time>
      </trkpt>
      <trkpt lat="59.323362" lon="18.074944">
        <ele>7</ele>
        <time>2019-11-25T06:49:18Z</time>
      </trkpt>
      <trkpt lat="59.323423" lon="18.07498">
        <ele>7</ele>
        <time>2019-11-25T06:49:20Z</time>
      </trkpt>
      <trkpt lat="59.323452" lon="18.074999">
        <ele>7</ele>
        <time>2019-11-25T06:49:21Z</time>
      </trkpt>
      <trkpt lat="59.32348" lon="18.075016">
        <ele>7</ele>
        <time>2019-11-25T06:49:22Z</time>
      </trkpt>
      <trkpt lat="59.323513" lon="18.075034">
        <ele>7</ele>
        <time>2019-11-25T06:49:23Z</time>
      </trkpt>
      <trkpt lat="59.323548" lon="18.075041">
        <ele>6</ele>
        <time>2019-11-25T06:49:24Z</time>
      </trkpt>
      <trkpt lat="59.323639" lon="18.07513">
        <ele>6</ele>
        <time>2019-11-25T06:49:27Z</time>
      </trkpt>
      <trkpt lat="59.323701" lon="18.075154">
        <ele>6</ele>
        <time>2019-11-25T06:49:29Z</time>
      </trkpt>
      <trkpt lat="59.323727" lon="18.075171">
        <ele>6</ele>
        <time>2019-11-25T06:49:30Z</time>
      </trkpt>
      <trkpt lat="59.323756" lon="18.075183">
        <ele>5</ele>
        <time>2019-11-25T06:49:31Z</time>
      </trkpt>
      <trkpt lat="59.323785" lon="18.075192">
        <ele>5</ele>
        <time>2019-11-25T06:49:32Z</time>
      </trkpt>
      <trkpt lat="59.323814" lon="18.075204">
        <ele>5</ele>
        <time>2019-11-25T06:49:33Z</time>
      </trkpt>
      <trkpt lat="59.32384" lon="18.075215">
        <ele>5</ele>
        <time>2019-11-25T06:49:34Z</time>
      </trkpt>
      <trkpt lat="59.323867" lon="18.075228">
        <ele>5</ele>
        <time>2019-11-25T06:49:35Z</time>
      </trkpt>
      <trkpt lat="59.323893" lon="18.075263">
        <ele>5</ele>
        <time>2019-11-25T06:49:36Z</time>
      </trkpt>
      <trkpt lat="59.323928" lon="18.075265">
        <ele>5</ele>
        <time>2019-11-25T06:49:37Z</time>
      </trkpt>
      <trkpt lat="59.323958" lon="18.075283">
        <ele>5</ele>
        <time>2019-11-25T06:49:38Z</time>
      </trkpt>
      <trkpt lat="59.323984" lon="18.075296">
        <ele>5</ele>
        <time>2019-11-25T06:49:39Z</time>
      </trkpt>
      <trkpt lat="59.324012" lon="18.075315">
        <ele>5</ele>
        <time>2019-11-25T06:49:40Z</time>
      </trkpt>
      <trkpt lat="59.324038" lon="18.075337">
        <ele>5</ele>
        <time>2019-11-25T06:49:41Z</time>
      </trkpt>
      <trkpt lat="59.324063" lon="18.075355">
        <ele>5</ele>
        <time>2019-11-25T06:49:42Z</time>
      </trkpt>
      <trkpt lat="59.324093" lon="18.075356">
        <ele>4</ele>
        <time>2019-11-25T06:49:43Z</time>
      </trkpt>
      <trkpt lat="59.324119" lon="18.075375">
        <ele>4</ele>
        <time>2019-11-25T06:49:44Z</time>
      </trkpt>
      <trkpt lat="59.32415" lon="18.075369">
        <ele>4</ele>
        <time>2019-11-25T06:49:45Z</time>
      </trkpt>
      <trkpt lat="59.324175" lon="18.075387">
        <ele>4</ele>
        <time>2019-11-25T06:49:46Z</time>
      </trkpt>
      <trkpt lat="59.3242" lon="18.075408">
        <ele>4</ele>
        <time>2019-11-25T06:49:47Z</time>
      </trkpt>
      <trkpt lat="59.324227" lon="18.075432">
        <ele>4</ele>
        <time>2019-11-25T06:49:48Z</time>
      </trkpt>
      <trkpt lat="59.324251" lon="18.075465">
        <ele>4</ele>
        <time>2019-11-25T06:49:49Z</time>
      </trkpt>
      <trkpt lat="59.324281" lon="18.075483">
        <ele>4</ele>
        <time>2019-11-25T06:49:50Z</time>
      </trkpt>
      <trkpt lat="59.324319" lon="18.075454">
        <ele>4</ele>
        <time>2019-11-25T06:49:51Z</time>
      </trkpt>
      <trkpt lat="59.324355" lon="18.075431">
        <ele>4</ele>
        <time>2019-11-25T06:49:52Z</time>
      </trkpt>
      <trkpt lat="59.324385" lon="18.075438">
        <ele>4</ele>
        <time>2019-11-25T06:49:53Z</time>
      </trkpt>
      <trkpt lat="59.324415" lon="18.07545">
        <ele>4</ele>
        <time>2019-11-25T06:49:54Z</time>
      </trkpt>
      <trkpt lat="59.324446" lon="18.075456">
        <ele>4</ele>
        <time>2019-11-25T06:49:55Z</time>
      </trkpt>
      <trkpt lat="59.324479" lon="18.075457">
        <ele>4</ele>
        <time>2019-11-25T06:49:56Z</time>
      </trkpt>
      <trkpt lat="59.324512" lon="18.07544">
        <ele>4</ele>
        <time>2019-11-25T06:49:57Z</time>
      </trkpt>
      <trkpt lat="59.324541" lon="18.07546">
        <ele>4</ele>
        <time>2019-11-25T06:49:58Z</time>
      </trkpt>
      <trkpt lat="59.324572" lon="18.075478">
        <ele>4</ele>
        <time>2019-11-25T06:49:59Z</time>
      </trkpt>
      <trkpt lat="59.324599" lon="18.075505">
        <ele>4</ele>
        <time>2019-11-25T06:50:00Z</time>
      </trkpt>
      <trkpt lat="59.324625" lon="18.075524">
        <ele>4</ele>
        <time>2019-11-25T06:50:01Z</time>
      </trkpt>
      <trkpt lat="59.324652" lon="18.075532">
        <ele>4</ele>
        <time>2019-11-25T06:50:02Z</time>
      </trkpt>
      <trkpt lat="59.324682" lon="18.075529">
        <ele>4</ele>
        <time>2019-11-25T06:50:03Z</time>
      </trkpt>
      <trkpt lat="59.32472" lon="18.075506">
        <ele>4</ele>
        <time>2019-11-25T06:50:04Z</time>
      </trkpt>
      <trkpt lat="59.32475" lon="18.075508">
        <ele>4</ele>
        <time>2019-11-25T06:50:05Z</time>
      </trkpt>
      <trkpt lat="59.324779" lon="18.075517">
        <ele>4</ele>
        <time>2019-11-25T06:50:06Z</time>
      </trkpt>
      <trkpt lat="59.324808" lon="18.075524">
        <ele>4</ele>
        <time>2019-11-25T06:50:07Z</time>
      </trkpt>
      <trkpt lat="59.324837" lon="18.075532">
        <ele>4</ele>
        <time>2019-11-25T06:50:08Z</time>
      </trkpt>
      <trkpt lat="59.324871" lon="18.075522">
        <ele>4</ele>
        <time>2019-11-25T06:50:09Z</time>
      </trkpt>
      <trkpt lat="59.3249" lon="18.075525">
        <ele>4</ele>
        <time>2019-11-25T06:50:10Z</time>
      </trkpt>
      <trkpt lat="59.324959" lon="18.075496">
        <ele>4</ele>
        <time>2019-11-25T06:50:12Z</time>
      </trkpt>
      <trkpt lat="59.324989" lon="18.075492">
        <ele>4</ele>
        <time>2019-11-25T06:50:13Z</time>
      </trkpt>
      <trkpt lat="59.325016" lon="18.075496">
        <ele>4</ele>
        <time>2019-11-25T06:50:14Z</time>
      </trkpt>
      <trkpt lat="59.325041" lon="18.0755">
        <ele>4</ele>
        <time>2019-11-25T06:50:15Z</time>
      </trkpt>
      <trkpt lat="59.325068" lon="18.0755">
        <ele>3</ele>
        <time>2019-11-25T06:50:16Z</time>
      </trkpt>
      <trkpt lat="59.325095" lon="18.075497">
        <ele>3</ele>
        <time>2019-11-25T06:50:17Z</time>
      </trkpt>
      <trkpt lat="59.325123" lon="18.075501">
        <ele>3</ele>
        <time>2019-11-25T06:50:18Z</time>
      </trkpt>
      <trkpt lat="59.325153" lon="18.075504">
        <ele>3</ele>
        <time>2019-11-25T06:50:19Z</time>
      </trkpt>
      <trkpt lat="59.32518" lon="18.075511">
        <ele>3</ele>
        <time>2019-11-25T06:50:20Z</time>
      </trkpt>
      <trkpt lat="59.325207" lon="18.075522">
        <ele>3</ele>
        <time>2019-11-25T06:50:21Z</time>
      </trkpt>
      <trkpt lat="59.325234" lon="18.075499">
        <ele>3</ele>
        <time>2019-11-25T06:50:22Z</time>
      </trkpt>
      <trkpt lat="59.32526" lon="18.075499">
        <ele>3</ele>
        <time>2019-11-25T06:50:23Z</time>
      </trkpt>
      <trkpt lat="59.32529" lon="18.075497">
        <ele>3</ele>
        <time>2019-11-25T06:50:24Z</time>
      </trkpt>
      <trkpt lat="59.325322" lon="18.075491">
        <ele>3</ele>
        <time>2019-11-25T06:50:25Z</time>
      </trkpt>
      <trkpt lat="59.325354" lon="18.075486">
        <ele>3</ele>
        <time>2019-11-25T06:50:26Z</time>
      </trkpt>
      <trkpt lat="59.325383" lon="18.07549">
        <ele>3</ele>
        <time>2019-11-25T06:50:27Z</time>
      </trkpt>
      <trkpt lat="59.325415" lon="18.075481">
        <ele>3</ele>
        <time>2019-11-25T06:50:28Z</time>
      </trkpt>
      <trkpt lat="59.325442" lon="18.075475">
        <ele>3</ele>
        <time>2019-11-25T06:50:29Z</time>
      </trkpt>
      <trkpt lat="59.325471" lon="18.075466">
        <ele>2</ele>
        <time>2019-11-25T06:50:30Z</time>
      </trkpt>
      <trkpt lat="59.325502" lon="18.075422">
        <ele>2</ele>
        <time>2019-11-25T06:50:31Z</time>
      </trkpt>
      <trkpt lat="59.325529" lon="18.075412">
        <ele>2</ele>
        <time>2019-11-25T06:50:32Z</time>
      </trkpt>
      <trkpt lat="59.325554" lon="18.075426">
        <ele>3</ele>
        <time>2019-11-25T06:50:33Z</time>
      </trkpt>
      <trkpt lat="59.325582" lon="18.075445">
        <ele>3</ele>
        <time>2019-11-25T06:50:34Z</time>
      </trkpt>
      <trkpt lat="59.325611" lon="18.075456">
        <ele>3</ele>
        <time>2019-11-25T06:50:35Z</time>
      </trkpt>
      <trkpt lat="59.325643" lon="18.075456">
        <ele>3</ele>
        <time>2019-11-25T06:50:36Z</time>
      </trkpt>
      <trkpt lat="59.325682" lon="18.075457">
        <ele>2</ele>
        <time>2019-11-25T06:50:37Z</time>
      </trkpt>
      <trkpt lat="59.325714" lon="18.075448">
        <ele>2</ele>
        <time>2019-11-25T06:50:38Z</time>
      </trkpt>
      <trkpt lat="59.325743" lon="18.075435">
        <ele>2</ele>
        <time>2019-11-25T06:50:39Z</time>
      </trkpt>
      <trkpt lat="59.32578" lon="18.075407">
        <ele>2</ele>
        <time>2019-11-25T06:50:40Z</time>
      </trkpt>
      <trkpt lat="59.325812" lon="18.075392">
        <ele>2</ele>
        <time>2019-11-25T06:50:41Z</time>
      </trkpt>
      <trkpt lat="59.325838" lon="18.075366">
        <ele>2</ele>
        <time>2019-11-25T06:50:42Z</time>
      </trkpt>
      <trkpt lat="59.325866" lon="18.075338">
        <ele>2</ele>
        <time>2019-11-25T06:50:43Z</time>
      </trkpt>
      <trkpt lat="59.325892" lon="18.075309">
        <ele>2</ele>
        <time>2019-11-25T06:50:44Z</time>
      </trkpt>
      <trkpt lat="59.325917" lon="18.075265">
        <ele>2</ele>
        <time>2019-11-25T06:50:45Z</time>
      </trkpt>
      <trkpt lat="59.325938" lon="18.075228">
        <ele>2</ele>
        <time>2019-11-25T06:50:46Z</time>
      </trkpt>
      <trkpt lat="59.325961" lon="18.075196">
        <ele>2</ele>
        <time>2019-11-25T06:50:47Z</time>
      </trkpt>
      <trkpt lat="59.325984" lon="18.075167">
        <ele>2</ele>
        <time>2019-11-25T06:50:48Z</time>
      </trkpt>
      <trkpt lat="59.326007" lon="18.075143">
        <ele>2</ele>
        <time>2019-11-25T06:50:49Z</time>
      </trkpt>
      <trkpt lat="59.326031" lon="18.075122">
        <ele>2</ele>
        <time>2019-11-25T06:50:50Z</time>
      </trkpt>
      <trkpt lat="59.326052" lon="18.075114">
        <ele>3</ele>
        <time>2019-11-25T06:50:51Z</time>
      </trkpt>
      <trkpt lat="59.326078" lon="18.075124">
        <ele>2</ele>
        <time>2019-11-25T06:50:52Z</time>
      </trkpt>
      <trkpt lat="59.326105" lon="18.075137">
        <ele>3</ele>
        <time>2019-11-25T06:50:53Z</time>
      </trkpt>
      <trkpt lat="59.326135" lon="18.075145">
        <ele>3</ele>
        <time>2019-11-25T06:50:54Z</time>
      </trkpt>
      <trkpt lat="59.326163" lon="18.075129">
        <ele>3</ele>
        <time>2019-11-25T06:50:55Z</time>
      </trkpt>
      <trkpt lat="59.326187" lon="18.075098">
        <ele>3</ele>
        <time>2019-11-25T06:50:56Z</time>
      </trkpt>
      <trkpt lat="59.326211" lon="18.075073">
        <ele>3</ele>
        <time>2019-11-25T06:50:57Z</time>
      </trkpt>
      <trkpt lat="59.326236" lon="18.075047">
        <ele>4</ele>
        <time>2019-11-25T06:50:58Z</time>
      </trkpt>
      <trkpt lat="59.326257" lon="18.075017">
        <ele>4</ele>
        <time>2019-11-25T06:50:59Z</time>
      </trkpt>
      <trkpt lat="59.32628" lon="18.074988">
        <ele>4</ele>
        <time>2019-11-25T06:51:00Z</time>
      </trkpt>
      <trkpt lat="59.326302" lon="18.074956">
        <ele>4</ele>
        <time>2019-11-25T06:51:01Z</time>
      </trkpt>
      <trkpt lat="59.326322" lon="18.07492">
        <ele>4</ele>
        <time>2019-11-25T06:51:02Z</time>
      </trkpt>
      <trkpt lat="59.326342" lon="18.074884">
        <ele>4</ele>
        <time>2019-11-25T06:51:03Z</time>
      </trkpt>
      <trkpt lat="59.326365" lon="18.074853">
        <ele>4</ele>
        <time>2019-11-25T06:51:04Z</time>
      </trkpt>
      <trkpt lat="59.32639" lon="18.074823">
        <ele>4</ele>
        <time>2019-11-25T06:51:05Z</time>
      </trkpt>
      <trkpt lat="59.326412" lon="18.074793">
        <ele>4</ele>
        <time>2019-11-25T06:51:06Z</time>
      </trkpt>
      <trkpt lat="59.326436" lon="18.074763">
        <ele>4</ele>
        <time>2019-11-25T06:51:07Z</time>
      </trkpt>
      <trkpt lat="59.32646" lon="18.074735">
        <ele>4</ele>
        <time>2019-11-25T06:51:08Z</time>
      </trkpt>
      <trkpt lat="59.326486" lon="18.074716">
        <ele>5</ele>
        <time>2019-11-25T06:51:09Z</time>
      </trkpt>
      <trkpt lat="59.326512" lon="18.074702">
        <ele>5</ele>
        <time>2019-11-25T06:51:10Z</time>
      </trkpt>
      <trkpt lat="59.326538" lon="18.074688">
        <ele>5</ele>
        <time>2019-11-25T06:51:11Z</time>
      </trkpt>
      <trkpt lat="59.326565" lon="18.074674">
        <ele>5</ele>
        <time>2019-11-25T06:51:12Z</time>
      </trkpt>
      <trkpt lat="59.326593" lon="18.074663">
        <ele>5</ele>
        <time>2019-11-25T06:51:13Z</time>
      </trkpt>
      <trkpt lat="59.326616" lon="18.074646">
        <ele>6</ele>
        <time>2019-11-25T06:51:14Z</time>
      </trkpt>
      <trkpt lat="59.326642" lon="18.07463">
        <ele>6</ele>
        <time>2019-11-25T06:51:15Z</time>
      </trkpt>
      <trkpt lat="59.326668" lon="18.074612">
        <ele>6</ele>
        <time>2019-11-25T06:51:16Z</time>
      </trkpt>
      <trkpt lat="59.326691" lon="18.074593">
        <ele>6</ele>
        <time>2019-11-25T06:51:17Z</time>
      </trkpt>
      <trkpt lat="59.326718" lon="18.074574">
        <ele>6</ele>
        <time>2019-11-25T06:51:18Z</time>
      </trkpt>
      <trkpt lat="59.326743" lon="18.074556">
        <ele>6</ele>
        <time>2019-11-25T06:51:19Z</time>
      </trkpt>
      <trkpt lat="59.32677" lon="18.074536">
        <ele>6</ele>
        <time>2019-11-25T06:51:20Z</time>
      </trkpt>
      <trkpt lat="59.326794" lon="18.074517">
        <ele>7</ele>
        <time>2019-11-25T06:51:21Z</time>
      </trkpt>
      <trkpt lat="59.32682" lon="18.0745">
        <ele>7</ele>
        <time>2019-11-25T06:51:22Z</time>
      </trkpt>
      <trkpt lat="59.326845" lon="18.074481">
        <ele>7</ele>
        <time>2019-11-25T06:51:23Z</time>
      </trkpt>
      <trkpt lat="59.326868" lon="18.074455">
        <ele>7</ele>
        <time>2019-11-25T06:51:24Z</time>
      </trkpt>
      <trkpt lat="59.32689" lon="18.074425">
        <ele>7</ele>
        <time>2019-11-25T06:51:25Z</time>
      </trkpt>
      <trkpt lat="59.326913" lon="18.074395">
        <ele>8</ele>
        <time>2019-11-25T06:51:26Z</time>
      </trkpt>
      <trkpt lat="59.326938" lon="18.074368">
        <ele>8</ele>
        <time>2019-11-25T06:51:27Z</time>
      </trkpt>
      <trkpt lat="59.326961" lon="18.074341">
        <ele>8</ele>
        <time>2019-11-25T06:51:28Z</time>
      </trkpt>
      <trkpt lat="59.326983" lon="18.074313">
        <ele>8</ele>
        <time>2019-11-25T06:51:29Z</time>
      </trkpt>
      <trkpt lat="59.327006" lon="18.074288">
        <ele>8</ele>
        <time>2019-11-25T06:51:30Z</time>
      </trkpt>
      <trkpt lat="59.32703" lon="18.074262">
        <ele>8</ele>
        <time>2019-11-25T06:51:31Z</time>
      </trkpt>
      <trkpt lat="59.327056" lon="18.074234">
        <ele>8</ele>
        <time>2019-11-25T06:51:32Z</time>
      </trkpt>
      <trkpt lat="59.327078" lon="18.074206">
        <ele>8</ele>
        <time>2019-11-25T06:51:33Z</time>
      </trkpt>
      <trkpt lat="59.327102" lon="18.07418">
        <ele>8</ele>
        <time>2019-11-25T06:51:34Z</time>
      </trkpt>
      <trkpt lat="59.327126" lon="18.074153">
        <ele>8</ele>
        <time>2019-11-25T06:51:35Z</time>
      </trkpt>
      <trkpt lat="59.327149" lon="18.074124">
        <ele>8</ele>
        <time>2019-11-25T06:51:36Z</time>
      </trkpt>
      <trkpt lat="59.327172" lon="18.074094">
        <ele>8</ele>
        <time>2019-11-25T06:51:37Z</time>
      </trkpt>
      <trkpt lat="59.327194" lon="18.074061">
        <ele>9</ele>
        <time>2019-11-25T06:51:38Z</time>
      </trkpt>
      <trkpt lat="59.327214" lon="18.074027">
        <ele>9</ele>
        <time>2019-11-25T06:51:39Z</time>
      </trkpt>
      <trkpt lat="59.327236" lon="18.073998">
        <ele>9</ele>
        <time>2019-11-25T06:51:40Z</time>
      </trkpt>
      <trkpt lat="59.327257" lon="18.073965">
        <ele>9</ele>
        <time>2019-11-25T06:51:41Z</time>
      </trkpt>
      <trkpt lat="59.327279" lon="18.073932">
        <ele>9</ele>
        <time>2019-11-25T06:51:42Z</time>
      </trkpt>
      <trkpt lat="59.327302" lon="18.073904">
        <ele>9</ele>
        <time>2019-11-25T06:51:43Z</time>
      </trkpt>
      <trkpt lat="59.327324" lon="18.073877">
        <ele>9</ele>
        <time>2019-11-25T06:51:44Z</time>
      </trkpt>
      <trkpt lat="59.327349" lon="18.073851">
        <ele>8</ele>
        <time>2019-11-25T06:51:45Z</time>
      </trkpt>
      <trkpt lat="59.327376" lon="18.073835">
        <ele>8</ele>
        <time>2019-11-25T06:51:46Z</time>
      </trkpt>
      <trkpt lat="59.3274" lon="18.073806">
        <ele>8</ele>
        <time>2019-11-25T06:51:47Z</time>
      </trkpt>
      <trkpt lat="59.327423" lon="18.073775">
        <ele>8</ele>
        <time>2019-11-25T06:51:48Z</time>
      </trkpt>
      <trkpt lat="59.327448" lon="18.073745">
        <ele>8</ele>
        <time>2019-11-25T06:51:49Z</time>
      </trkpt>
      <trkpt lat="59.327468" lon="18.073714">
        <ele>8</ele>
        <time>2019-11-25T06:51:50Z</time>
      </trkpt>
      <trkpt lat="59.32749" lon="18.07368">
        <ele>8</ele>
        <time>2019-11-25T06:51:51Z</time>
      </trkpt>
      <trkpt lat="59.327513" lon="18.073653">
        <ele>8</ele>
        <time>2019-11-25T06:51:52Z</time>
      </trkpt>
      <trkpt lat="59.327535" lon="18.073622">
        <ele>7</ele>
        <time>2019-11-25T06:51:53Z</time>
      </trkpt>
      <trkpt lat="59.327558" lon="18.073591">
        <ele>7</ele>
        <time>2019-11-25T06:51:54Z</time>
      </trkpt>
      <trkpt lat="59.327582" lon="18.073566">
        <ele>7</ele>
        <time>2019-11-25T06:51:55Z</time>
      </trkpt>
      <trkpt lat="59.327608" lon="18.073542">
        <ele>7</ele>
        <time>2019-11-25T06:51:56Z</time>
      </trkpt>
      <trkpt lat="59.327631" lon="18.07352">
        <ele>7</ele>
        <time>2019-11-25T06:51:57Z</time>
      </trkpt>
      <trkpt lat="59.327655" lon="18.073498">
        <ele>7</ele>
        <time>2019-11-25T06:51:59Z</time>
      </trkpt>
      <trkpt lat="59.327678" lon="18.073472">
        <ele>7</ele>
        <time>2019-11-25T06:51:59Z</time>
      </trkpt>
      <trkpt lat="59.327703" lon="18.073446">
        <ele>7</ele>
        <time>2019-11-25T06:52:00Z</time>
      </trkpt>
      <trkpt lat="59.327725" lon="18.073416">
        <ele>7</ele>
        <time>2019-11-25T06:52:01Z</time>
      </trkpt>
      <trkpt lat="59.32775" lon="18.073388">
        <ele>7</ele>
        <time>2019-11-25T06:52:02Z</time>
      </trkpt>
      <trkpt lat="59.327774" lon="18.073359">
        <ele>7</ele>
        <time>2019-11-25T06:52:03Z</time>
      </trkpt>
      <trkpt lat="59.327798" lon="18.073332">
        <ele>6</ele>
        <time>2019-11-25T06:52:04Z</time>
      </trkpt>
      <trkpt lat="59.327822" lon="18.073305">
        <ele>6</ele>
        <time>2019-11-25T06:52:05Z</time>
      </trkpt>
      <trkpt lat="59.327847" lon="18.073282">
        <ele>6</ele>
        <time>2019-11-25T06:52:06Z</time>
      </trkpt>
      <trkpt lat="59.327872" lon="18.07326">
        <ele>6</ele>
        <time>2019-11-25T06:52:07Z</time>
      </trkpt>
      <trkpt lat="59.327897" lon="18.073238">
        <ele>6</ele>
        <time>2019-11-25T06:52:08Z</time>
      </trkpt>
      <trkpt lat="59.327923" lon="18.073216">
        <ele>6</ele>
        <time>2019-11-25T06:52:09Z</time>
      </trkpt>
      <trkpt lat="59.327948" lon="18.073194">
        <ele>6</ele>
        <time>2019-11-25T06:52:10Z</time>
      </trkpt>
      <trkpt lat="59.327974" lon="18.073173">
        <ele>6</ele>
        <time>2019-11-25T06:52:11Z</time>
      </trkpt>
      <trkpt lat="59.328001" lon="18.073151">
        <ele>6</ele>
        <time>2019-11-25T06:52:12Z</time>
      </trkpt>
      <trkpt lat="59.328027" lon="18.073128">
        <ele>6</ele>
        <time>2019-11-25T06:52:13Z</time>
      </trkpt>
      <trkpt lat="59.328053" lon="18.073112">
        <ele>6</ele>
        <time>2019-11-25T06:52:14Z</time>
      </trkpt>
      <trkpt lat="59.328079" lon="18.073102">
        <ele>6</ele>
        <time>2019-11-25T06:52:15Z</time>
      </trkpt>
      <trkpt lat="59.328105" lon="18.073091">
        <ele>6</ele>
        <time>2019-11-25T06:52:16Z</time>
      </trkpt>
      <trkpt lat="59.328132" lon="18.073082">
        <ele>6</ele>
        <time>2019-11-25T06:52:17Z</time>
      </trkpt>
      <trkpt lat="59.328159" lon="18.073079">
        <ele>6</ele>
        <time>2019-11-25T06:52:18Z</time>
      </trkpt>
      <trkpt lat="59.328188" lon="18.073077">
        <ele>6</ele>
        <time>2019-11-25T06:52:19Z</time>
      </trkpt>
      <trkpt lat="59.328216" lon="18.073075">
        <ele>6</ele>
        <time>2019-11-25T06:52:20Z</time>
      </trkpt>
      <trkpt lat="59.328243" lon="18.073075">
        <ele>6</ele>
        <time>2019-11-25T06:52:21Z</time>
      </trkpt>
      <trkpt lat="59.328272" lon="18.073082">
        <ele>6</ele>
        <time>2019-11-25T06:52:22Z</time>
      </trkpt>
      <trkpt lat="59.3283" lon="18.073087">
        <ele>7</ele>
        <time>2019-11-25T06:52:23Z</time>
      </trkpt>
      <trkpt lat="59.328329" lon="18.073096">
        <ele>6</ele>
        <time>2019-11-25T06:52:24Z</time>
      </trkpt>
      <trkpt lat="59.328356" lon="18.073104">
        <ele>6</ele>
        <time>2019-11-25T06:52:25Z</time>
      </trkpt>
      <trkpt lat="59.328383" lon="18.073108">
        <ele>6</ele>
        <time>2019-11-25T06:52:26Z</time>
      </trkpt>
      <trkpt lat="59.32841" lon="18.07312">
        <ele>6</ele>
        <time>2019-11-25T06:52:27Z</time>
      </trkpt>
      <trkpt lat="59.328436" lon="18.073128">
        <ele>6</ele>
        <time>2019-11-25T06:52:28Z</time>
      </trkpt>
      <trkpt lat="59.328464" lon="18.073138">
        <ele>6</ele>
        <time>2019-11-25T06:52:29Z</time>
      </trkpt>
      <trkpt lat="59.328491" lon="18.073148">
        <ele>6</ele>
        <time>2019-11-25T06:52:30Z</time>
      </trkpt>
      <trkpt lat="59.328519" lon="18.07316">
        <ele>6</ele>
        <time>2019-11-25T06:52:31Z</time>
      </trkpt>
      <trkpt lat="59.328546" lon="18.073173">
        <ele>7</ele>
        <time>2019-11-25T06:52:32Z</time>
      </trkpt>
      <trkpt lat="59.328572" lon="18.073186">
        <ele>7</ele>
        <time>2019-11-25T06:52:33Z</time>
      </trkpt>
      <trkpt lat="59.328599" lon="18.073194">
        <ele>7</ele>
        <time>2019-11-25T06:52:34Z</time>
      </trkpt>
      <trkpt lat="59.328626" lon="18.073201">
        <ele>7</ele>
        <time>2019-11-25T06:52:35Z</time>
      </trkpt>
      <trkpt lat="59.328653" lon="18.073211">
        <ele>7</ele>
        <time>2019-11-25T06:52:36Z</time>
      </trkpt>
      <trkpt lat="59.328681" lon="18.073218">
        <ele>7</ele>
        <time>2019-11-25T06:52:37Z</time>
      </trkpt>
      <trkpt lat="59.32871" lon="18.073228">
        <ele>7</ele>
        <time>2019-11-25T06:52:38Z</time>
      </trkpt>
      <trkpt lat="59.328737" lon="18.073234">
        <ele>7</ele>
        <time>2019-11-25T06:52:39Z</time>
      </trkpt>
      <trkpt lat="59.328765" lon="18.07324">
        <ele>7</ele>
        <time>2019-11-25T06:52:40Z</time>
      </trkpt>
      <trkpt lat="59.328792" lon="18.073245">
        <ele>7</ele>
        <time>2019-11-25T06:52:41Z</time>
      </trkpt>
      <trkpt lat="59.328821" lon="18.073254">
        <ele>7</ele>
        <time>2019-11-25T06:52:42Z</time>
      </trkpt>
      <trkpt lat="59.328848" lon="18.073262">
        <ele>7</ele>
        <time>2019-11-25T06:52:43Z</time>
      </trkpt>
      <trkpt lat="59.328878" lon="18.073269">
        <ele>7</ele>
        <time>2019-11-25T06:52:44Z</time>
      </trkpt>
      <trkpt lat="59.328907" lon="18.073275">
        <ele>7</ele>
        <time>2019-11-25T06:52:45Z</time>
      </trkpt>
      <trkpt lat="59.328936" lon="18.07328">
        <ele>7</ele>
        <time>2019-11-25T06:52:46Z</time>
      </trkpt>
      <trkpt lat="59.328964" lon="18.073286">
        <ele>7</ele>
        <time>2019-11-25T06:52:47Z</time>
      </trkpt>
      <trkpt lat="59.328993" lon="18.073291">
        <ele>7</ele>
        <time>2019-11-25T06:52:48Z</time>
      </trkpt>
      <trkpt lat="59.32902" lon="18.073298">
        <ele>7</ele>
        <time>2019-11-25T06:52:49Z</time>
      </trkpt>
      <trkpt lat="59.329047" lon="18.073303">
        <ele>7</ele>
        <time>2019-11-25T06:52:50Z</time>
      </trkpt>
      <trkpt lat="59.329075" lon="18.073312">
        <ele>7</ele>
        <time>2019-11-25T06:52:51Z</time>
      </trkpt>
      <trkpt lat="59.329102" lon="18.073319">
        <ele>7</ele>
        <time>2019-11-25T06:52:52Z</time>
      </trkpt>
      <trkpt lat="59.329129" lon="18.073326">
        <ele>7</ele>
        <time>2019-11-25T06:52:53Z</time>
      </trkpt>
      <trkpt lat="59.329157" lon="18.073333">
        <ele>7</ele>
        <time>2019-11-25T06:52:54Z</time>
      </trkpt>
      <trkpt lat="59.329185" lon="18.07334">
        <ele>7</ele>
        <time>2019-11-25T06:52:55Z</time>
      </trkpt>
      <trkpt lat="59.329212" lon="18.073346">
        <ele>7</ele>
        <time>2019-11-25T06:52:56Z</time>
      </trkpt>
      <trkpt lat="59.329239" lon="18.073351">
        <ele>7</ele>
        <time>2019-11-25T06:52:57Z</time>
      </trkpt>
      <trkpt lat="59.329265" lon="18.073356">
        <ele>7</ele>
        <time>2019-11-25T06:52:58Z</time>
      </trkpt>
      <trkpt lat="59.329291" lon="18.07336">
        <ele>7</ele>
        <time>2019-11-25T06:52:59Z</time>
      </trkpt>
      <trkpt lat="59.329318" lon="18.073368">
        <ele>7</ele>
        <time>2019-11-25T06:53:00Z</time>
      </trkpt>
      <trkpt lat="59.329344" lon="18.073375">
        <ele>6</ele>
        <time>2019-11-25T06:53:01Z</time>
      </trkpt>
      <trkpt lat="59.329369" lon="18.073379">
        <ele>7</ele>
        <time>2019-11-25T06:53:02Z</time>
      </trkpt>
      <trkpt lat="59.329395" lon="18.073386">
        <ele>6</ele>
        <time>2019-11-25T06:53:03Z</time>
      </trkpt>
      <trkpt lat="59.32942" lon="18.073392">
        <ele>6</ele>
        <time>2019-11-25T06:53:04Z</time>
      </trkpt>
      <trkpt lat="59.329446" lon="18.073398">
        <ele>6</ele>
        <time>2019-11-25T06:53:05Z</time>
      </trkpt>
      <trkpt lat="59.329471" lon="18.073412">
        <ele>6</ele>
        <time>2019-11-25T06:53:06Z</time>
      </trkpt>
      <trkpt lat="59.329495" lon="18.073438">
        <ele>6</ele>
        <time>2019-11-25T06:53:07Z</time>
      </trkpt>
      <trkpt lat="59.329513" lon="18.073472">
        <ele>6</ele>
        <time>2019-11-25T06:53:08Z</time>
      </trkpt>
      <trkpt lat="59.329528" lon="18.073502">
        <ele>6</ele>
        <time>2019-11-25T06:53:09Z</time>
      </trkpt>
      <trkpt lat="59.329548" lon="18.073534">
        <ele>6</ele>
        <time>2019-11-25T06:53:10Z</time>
      </trkpt>
      <trkpt lat="59.329564" lon="18.07356">
        <ele>6</ele>
        <time>2019-11-25T06:53:11Z</time>
      </trkpt>
      <trkpt lat="59.329588" lon="18.073585">
        <ele>6</ele>
        <time>2019-11-25T06:53:13Z</time>
      </trkpt>
      <trkpt lat="59.329613" lon="18.073596">
        <ele>6</ele>
        <time>2019-11-25T06:53:15Z</time>
      </trkpt>
      <trkpt lat="59.329631" lon="18.07361">
        <ele>6</ele>
        <time>2019-11-25T06:53:17Z</time>
      </trkpt>
      <trkpt lat="59.329661" lon="18.073596">
        <ele>6</ele>
        <time>2019-11-25T06:53:36Z</time>
      </trkpt>
      <trkpt lat="59.329685" lon="18.073581">
        <ele>6</ele>
        <time>2019-11-25T06:53:37Z</time>
      </trkpt>
      <trkpt lat="59.329712" lon="18.073564">
        <ele>6</ele>
        <time>2019-11-25T06:53:38Z</time>
      </trkpt>
      <trkpt lat="59.329743" lon="18.073546">
        <ele>6</ele>
        <time>2019-11-25T06:53:39Z</time>
      </trkpt>
      <trkpt lat="59.329774" lon="18.073533">
        <ele>6</ele>
        <time>2019-11-25T06:53:40Z</time>
      </trkpt>
      <trkpt lat="59.329804" lon="18.07352">
        <ele>6</ele>
        <time>2019-11-25T06:53:41Z</time>
      </trkpt>
      <trkpt lat="59.329833" lon="18.073505">
        <ele>6</ele>
        <time>2019-11-25T06:53:42Z</time>
      </trkpt>
      <trkpt lat="59.329865" lon="18.073498">
        <ele>6</ele>
        <time>2019-11-25T06:53:43Z</time>
      </trkpt>
      <trkpt lat="59.329895" lon="18.073488">
        <ele>6</ele>
        <time>2019-11-25T06:53:44Z</time>
      </trkpt>
      <trkpt lat="59.329926" lon="18.073477">
        <ele>6</ele>
        <time>2019-11-25T06:53:45Z</time>
      </trkpt>
      <trkpt lat="59.329955" lon="18.073464">
        <ele>6</ele>
        <time>2019-11-25T06:53:46Z</time>
      </trkpt>
      <trkpt lat="59.329984" lon="18.073448">
        <ele>6</ele>
        <time>2019-11-25T06:53:47Z</time>
      </trkpt>
      <trkpt lat="59.330011" lon="18.07342">
        <ele>6</ele>
        <time>2019-11-25T06:53:48Z</time>
      </trkpt>
      <trkpt lat="59.330038" lon="18.073392">
        <ele>6</ele>
        <time>2019-11-25T06:53:49Z</time>
      </trkpt>
      <trkpt lat="59.330064" lon="18.073356">
        <ele>6</ele>
        <time>2019-11-25T06:53:50Z</time>
      </trkpt>
      <trkpt lat="59.33009" lon="18.073325">
        <ele>5</ele>
        <time>2019-11-25T06:53:51Z</time>
      </trkpt>
      <trkpt lat="59.330116" lon="18.073293">
        <ele>5</ele>
        <time>2019-11-25T06:53:52Z</time>
      </trkpt>
      <trkpt lat="59.330144" lon="18.073272">
        <ele>5</ele>
        <time>2019-11-25T06:53:53Z</time>
      </trkpt>
      <trkpt lat="59.330171" lon="18.073259">
        <ele>5</ele>
        <time>2019-11-25T06:53:54Z</time>
      </trkpt>
      <trkpt lat="59.330199" lon="18.073251">
        <ele>5</ele>
        <time>2019-11-25T06:53:55Z</time>
      </trkpt>
      <trkpt lat="59.330228" lon="18.07324">
        <ele>5</ele>
        <time>2019-11-25T06:53:56Z</time>
      </trkpt>
      <trkpt lat="59.330256" lon="18.073232">
        <ele>5</ele>
        <time>2019-11-25T06:53:57Z</time>
      </trkpt>
      <trkpt lat="59.330285" lon="18.073227">
        <ele>5</ele>
        <time>2019-11-25T06:53:58Z</time>
      </trkpt>
      <trkpt lat="59.330314" lon="18.073215">
        <ele>5</ele>
        <time>2019-11-25T06:53:59Z</time>
      </trkpt>
      <trkpt lat="59.33034" lon="18.073193">
        <ele>5</ele>
        <time>2019-11-25T06:54:00Z</time>
      </trkpt>
      <trkpt lat="59.330367" lon="18.073181">
        <ele>5</ele>
        <time>2019-11-25T06:54:01Z</time>
      </trkpt>
      <trkpt lat="59.330395" lon="18.073159">
        <ele>5</ele>
        <time>2019-11-25T06:54:02Z</time>
      </trkpt>
      <trkpt lat="59.330421" lon="18.073133">
        <ele>5</ele>
        <time>2019-11-25T06:54:03Z</time>
      </trkpt>
      <trkpt lat="59.330448" lon="18.073108">
        <ele>5</ele>
        <time>2019-11-25T06:54:04Z</time>
      </trkpt>
      <trkpt lat="59.330474" lon="18.073084">
        <ele>5</ele>
        <time>2019-11-25T06:54:05Z</time>
      </trkpt>
      <trkpt lat="59.330501" lon="18.073065">
        <ele>5</ele>
        <time>2019-11-25T06:54:06Z</time>
      </trkpt>
      <trkpt lat="59.330527" lon="18.07305">
        <ele>5</ele>
        <time>2019-11-25T06:54:07Z</time>
      </trkpt>
      <trkpt lat="59.330552" lon="18.073048">
        <ele>5</ele>
        <time>2019-11-25T06:54:08Z</time>
      </trkpt>
      <trkpt lat="59.330572" lon="18.073069">
        <ele>5</ele>
        <time>2019-11-25T06:54:09Z</time>
      </trkpt>
      <trkpt lat="59.330589" lon="18.073123">
        <ele>4</ele>
        <time>2019-11-25T06:54:10Z</time>
      </trkpt>
      <trkpt lat="59.330601" lon="18.073172">
        <ele>5</ele>
        <time>2019-11-25T06:54:11Z</time>
      </trkpt>
      <trkpt lat="59.330613" lon="18.07322">
        <ele>5</ele>
        <time>2019-11-25T06:54:12Z</time>
      </trkpt>
      <trkpt lat="59.330621" lon="18.073273">
        <ele>5</ele>
        <time>2019-11-25T06:54:13Z</time>
      </trkpt>
      <trkpt lat="59.330627" lon="18.073322">
        <ele>5</ele>
        <time>2019-11-25T06:54:14Z</time>
      </trkpt>
      <trkpt lat="59.33063" lon="18.073366">
        <ele>5</ele>
        <time>2019-11-25T06:54:15Z</time>
      </trkpt>
      <trkpt lat="59.330636" lon="18.073408">
        <ele>5</ele>
        <time>2019-11-25T06:54:16Z</time>
      </trkpt>
      <trkpt lat="59.33064" lon="18.073449">
        <ele>5</ele>
        <time>2019-11-25T06:54:17Z</time>
      </trkpt>
      <trkpt lat="59.330648" lon="18.073492">
        <ele>5</ele>
        <time>2019-11-25T06:54:18Z</time>
      </trkpt>
      <trkpt lat="59.33067" lon="18.073526">
        <ele>5</ele>
        <time>2019-11-25T06:54:19Z</time>
      </trkpt>
      <trkpt lat="59.330693" lon="18.073559">
        <ele>5</ele>
        <time>2019-11-25T06:54:20Z</time>
      </trkpt>
      <trkpt lat="59.330771" lon="18.073727">
        <ele>6</ele>
        <time>2019-11-25T06:54:24Z</time>
      </trkpt>
      <trkpt lat="59.330789" lon="18.073785">
        <ele>7</ele>
        <time>2019-11-25T06:54:25Z</time>
      </trkpt>
      <trkpt lat="59.330811" lon="18.073843">
        <ele>7</ele>
        <time>2019-11-25T06:54:26Z</time>
      </trkpt>
      <trkpt lat="59.330867" lon="18.074003">
        <ele>7</ele>
        <time>2019-11-25T06:54:29Z</time>
      </trkpt>
      <trkpt lat="59.330929" lon="18.074171">
        <ele>7</ele>
        <time>2019-11-25T06:54:32Z</time>
      </trkpt>
      <trkpt lat="59.330943" lon="18.07422">
        <ele>7</ele>
        <time>2019-11-25T06:54:33Z</time>
      </trkpt>
      <trkpt lat="59.330965" lon="18.074273">
        <ele>7</ele>
        <time>2019-11-25T06:54:34Z</time>
      </trkpt>
      <trkpt lat="59.331019" lon="18.074393">
        <ele>8</ele>
        <time>2019-11-25T06:54:37Z</time>
      </trkpt>
      <trkpt lat="59.331031" lon="18.074421">
        <ele>8</ele>
        <time>2019-11-25T06:54:39Z</time>
      </trkpt>
      <trkpt lat="59.331042" lon="18.074459">
        <ele>8</ele>
        <time>2019-11-25T06:54:41Z</time>
      </trkpt>
      <trkpt lat="59.331055" lon="18.074485">
        <ele>8</ele>
        <time>2019-11-25T06:54:42Z</time>
      </trkpt>
      <trkpt lat="59.331082" lon="18.074514">
        <ele>8</ele>
        <time>2019-11-25T06:54:43Z</time>
      </trkpt>
      <trkpt lat="59.33111" lon="18.074542">
        <ele>8</ele>
        <time>2019-11-25T06:54:44Z</time>
      </trkpt>
      <trkpt lat="59.331159" lon="18.074615">
        <ele>8</ele>
        <time>2019-11-25T06:54:46Z</time>
      </trkpt>
      <trkpt lat="59.331248" lon="18.074753">
        <ele>9</ele>
        <time>2019-11-25T06:54:50Z</time>
      </trkpt>
      <trkpt lat="59.331321" lon="18.07486">
        <ele>8</ele>
        <time>2019-11-25T06:54:54Z</time>
      </trkpt>
      <trkpt lat="59.331411" lon="18.074853">
        <ele>8</ele>
        <time>2019-11-25T06:54:57Z</time>
      </trkpt>
      <trkpt lat="59.331521" lon="18.074868">
        <ele>7</ele>
        <time>2019-11-25T06:55:00Z</time>
      </trkpt>
      <trkpt lat="59.331646" lon="18.074941">
        <ele>6</ele>
        <time>2019-11-25T06:55:03Z</time>
      </trkpt>
      <trkpt lat="59.331738" lon="18.075048">
        <ele>6</ele>
        <time>2019-11-25T06:55:06Z</time>
      </trkpt>
      <trkpt lat="59.331854" lon="18.07511">
        <ele>6</ele>
        <time>2019-11-25T06:55:10Z</time>
      </trkpt>
      <trkpt lat="59.33191" lon="18.07516">
        <ele>6</ele>
        <time>2019-11-25T06:55:12Z</time>
      </trkpt>
      <trkpt lat="59.331926" lon="18.075214">
        <ele>5</ele>
        <time>2019-11-25T06:55:13Z</time>
      </trkpt>
      <trkpt lat="59.331951" lon="18.075318">
        <ele>5</ele>
        <time>2019-11-25T06:55:15Z</time>
      </trkpt>
      <trkpt lat="59.33196" lon="18.075362">
        <ele>5</ele>
        <time>2019-11-25T06:55:16Z</time>
      </trkpt>
      <trkpt lat="59.33197" lon="18.075412">
        <ele>5</ele>
        <time>2019-11-25T06:55:17Z</time>
      </trkpt>
      <trkpt lat="59.331981" lon="18.075462">
        <ele>5</ele>
        <time>2019-11-25T06:55:18Z</time>
      </trkpt>
      <trkpt lat="59.331993" lon="18.075507">
        <ele>6</ele>
        <time>2019-11-25T06:55:19Z</time>
      </trkpt>
      <trkpt lat="59.332004" lon="18.075548">
        <ele>6</ele>
        <time>2019-11-25T06:55:20Z</time>
      </trkpt>
      <trkpt lat="59.332019" lon="18.075594">
        <ele>6</ele>
        <time>2019-11-25T06:55:21Z</time>
      </trkpt>
      <trkpt lat="59.33204" lon="18.075644">
        <ele>7</ele>
        <time>2019-11-25T06:55:22Z</time>
      </trkpt>
      <trkpt lat="59.332062" lon="18.075691">
        <ele>6</ele>
        <time>2019-11-25T06:55:23Z</time>
      </trkpt>
      <trkpt lat="59.33208" lon="18.075736">
        <ele>6</ele>
        <time>2019-11-25T06:55:24Z</time>
      </trkpt>
      <trkpt lat="59.3321" lon="18.075772">
        <ele>7</ele>
        <time>2019-11-25T06:55:25Z</time>
      </trkpt>
      <trkpt lat="59.332121" lon="18.075805">
        <ele>7</ele>
        <time>2019-11-25T06:55:26Z</time>
      </trkpt>
      <trkpt lat="59.332141" lon="18.07584">
        <ele>7</ele>
        <time>2019-11-25T06:55:27Z</time>
      </trkpt>
      <trkpt lat="59.332161" lon="18.075872">
        <ele>7</ele>
        <time>2019-11-25T06:55:28Z</time>
      </trkpt>
      <trkpt lat="59.33218" lon="18.075902">
        <ele>7</ele>
        <time>2019-11-25T06:55:29Z</time>
      </trkpt>
      <trkpt lat="59.332198" lon="18.07594">
        <ele>7</ele>
        <time>2019-11-25T06:55:30Z</time>
      </trkpt>
      <trkpt lat="59.332217" lon="18.075976">
        <ele>8</ele>
        <time>2019-11-25T06:55:31Z</time>
      </trkpt>
      <trkpt lat="59.332233" lon="18.076014">
        <ele>8</ele>
        <time>2019-11-25T06:55:32Z</time>
      </trkpt>
      <trkpt lat="59.332252" lon="18.076054">
        <ele>8</ele>
        <time>2019-11-25T06:55:33Z</time>
      </trkpt>
      <trkpt lat="59.332269" lon="18.076092">
        <ele>9</ele>
        <time>2019-11-25T06:55:34Z</time>
      </trkpt>
      <trkpt lat="59.332289" lon="18.076133">
        <ele>9</ele>
        <time>2019-11-25T06:55:35Z</time>
      </trkpt>
      <trkpt lat="59.332309" lon="18.07617">
        <ele>10</ele>
        <time>2019-11-25T06:55:36Z</time>
      </trkpt>
      <trkpt lat="59.332329" lon="18.076212">
        <ele>10</ele>
        <time>2019-11-25T06:55:37Z</time>
      </trkpt>
      <trkpt lat="59.332349" lon="18.076252">
        <ele>11</ele>
        <time>2019-11-25T06:55:38Z</time>
      </trkpt>
      <trkpt lat="59.332369" lon="18.076298">
        <ele>11</ele>
        <time>2019-11-25T06:55:39Z</time>
      </trkpt>
      <trkpt lat="59.332389" lon="18.076348">
        <ele>11</ele>
        <time>2019-11-25T06:55:40Z</time>
      </trkpt>
      <trkpt lat="59.332407" lon="18.076402">
        <ele>11</ele>
        <time>2019-11-25T06:55:41Z</time>
      </trkpt>
      <trkpt lat="59.332424" lon="18.076455">
        <ele>11</ele>
        <time>2019-11-25T06:55:42Z</time>
      </trkpt>
      <trkpt lat="59.33244" lon="18.07651">
        <ele>10</ele>
        <time>2019-11-25T06:55:43Z</time>
      </trkpt>
      <trkpt lat="59.332455" lon="18.076562">
        <ele>10</ele>
        <time>2019-11-25T06:55:44Z</time>
      </trkpt>
      <trkpt lat="59.332468" lon="18.076607">
        <ele>10</ele>
        <time>2019-11-25T06:55:45Z</time>
      </trkpt>
      <trkpt lat="59.332485" lon="18.07665">
        <ele>10</ele>
        <time>2019-11-25T06:55:46Z</time>
      </trkpt>
      <trkpt lat="59.332499" lon="18.076686">
        <ele>10</ele>
        <time>2019-11-25T06:55:47Z</time>
      </trkpt>
      <trkpt lat="59.332515" lon="18.076734">
        <ele>10</ele>
        <time>2019-11-25T06:55:49Z</time>
      </trkpt>
      <trkpt lat="59.332522" lon="18.076786">
        <ele>10</ele>
        <time>2019-11-25T06:55:51Z</time>
      </trkpt>
      <trkpt lat="59.332516" lon="18.076828">
        <ele>9</ele>
        <time>2019-11-25T06:55:58Z</time>
      </trkpt>
      <trkpt lat="59.332529" lon="18.07687">
        <ele>9</ele>
        <time>2019-11-25T06:55:59Z</time>
      </trkpt>
      <trkpt lat="59.332537" lon="18.076917">
        <ele>9</ele>
        <time>2019-11-25T06:56:00Z</time>
      </trkpt>
      <trkpt lat="59.332543" lon="18.076964">
        <ele>9</ele>
        <time>2019-11-25T06:56:01Z</time>
      </trkpt>
      <trkpt lat="59.332558" lon="18.077004">
        <ele>9</ele>
        <time>2019-11-25T06:56:02Z</time>
      </trkpt>
      <trkpt lat="59.332581" lon="18.077039">
        <ele>9</ele>
        <time>2019-11-25T06:56:03Z</time>
      </trkpt>
      <trkpt lat="59.332608" lon="18.077073">
        <ele>9</ele>
        <time>2019-11-25T06:56:04Z</time>
      </trkpt>
      <trkpt lat="59.332637" lon="18.077101">
        <ele>9</ele>
        <time>2019-11-25T06:56:05Z</time>
      </trkpt>
      <trkpt lat="59.332668" lon="18.077118">
        <ele>9</ele>
        <time>2019-11-25T06:56:06Z</time>
      </trkpt>
      <trkpt lat="59.332702" lon="18.077131">
        <ele>8</ele>
        <time>2019-11-25T06:56:07Z</time>
      </trkpt>
      <trkpt lat="59.332736" lon="18.077145">
        <ele>8</ele>
        <time>2019-11-25T06:56:08Z</time>
      </trkpt>
      <trkpt lat="59.332768" lon="18.077151">
        <ele>8</ele>
        <time>2019-11-25T06:56:09Z</time>
      </trkpt>
      <trkpt lat="59.332799" lon="18.077155">
        <ele>8</ele>
        <time>2019-11-25T06:56:10Z</time>
      </trkpt>
      <trkpt lat="59.33283" lon="18.077157">
        <ele>8</ele>
        <time>2019-11-25T06:56:11Z</time>
      </trkpt>
      <trkpt lat="59.332861" lon="18.077166">
        <ele>8</ele>
        <time>2019-11-25T06:56:12Z</time>
      </trkpt>
      <trkpt lat="59.332891" lon="18.077168">
        <ele>8</ele>
        <time>2019-11-25T06:56:13Z</time>
      </trkpt>
      <trkpt lat="59.332922" lon="18.077175">
        <ele>8</ele>
        <time>2019-11-25T06:56:14Z</time>
      </trkpt>
      <trkpt lat="59.332946" lon="18.077194">
        <ele>8</ele>
        <time>2019-11-25T06:56:15Z</time>
      </trkpt>
      <trkpt lat="59.332968" lon="18.077221">
        <ele>8</ele>
        <time>2019-11-25T06:56:16Z</time>
      </trkpt>
      <trkpt lat="59.332991" lon="18.077251">
        <ele>8</ele>
        <time>2019-11-25T06:56:17Z</time>
      </trkpt>
      <trkpt lat="59.333015" lon="18.077282">
        <ele>8</ele>
        <time>2019-11-25T06:56:18Z</time>
      </trkpt>
      <trkpt lat="59.333037" lon="18.077313">
        <ele>8</ele>
        <time>2019-11-25T06:56:19Z</time>
      </trkpt>
      <trkpt lat="59.333063" lon="18.077342">
        <ele>7</ele>
        <time>2019-11-25T06:56:20Z</time>
      </trkpt>
      <trkpt lat="59.333087" lon="18.077371">
        <ele>7</ele>
        <time>2019-11-25T06:56:21Z</time>
      </trkpt>
      <trkpt lat="59.333106" lon="18.077408">
        <ele>7</ele>
        <time>2019-11-25T06:56:22Z</time>
      </trkpt>
      <trkpt lat="59.333124" lon="18.077454">
        <ele>7</ele>
        <time>2019-11-25T06:56:23Z</time>
      </trkpt>
      <trkpt lat="59.333146" lon="18.077496">
        <ele>7</ele>
        <time>2019-11-25T06:56:24Z</time>
      </trkpt>
      <trkpt lat="59.333224" lon="18.07767">
        <ele>6</ele>
        <time>2019-11-25T06:56:28Z</time>
      </trkpt>
      <trkpt lat="59.333311" lon="18.077784">
        <ele>5</ele>
        <time>2019-11-25T06:56:32Z</time>
      </trkpt>
      <trkpt lat="59.333412" lon="18.077775">
        <ele>5</ele>
        <time>2019-11-25T06:56:35Z</time>
      </trkpt>
      <trkpt lat="59.333509" lon="18.077751">
        <ele>6</ele>
        <time>2019-11-25T06:56:38Z</time>
      </trkpt>
      <trkpt lat="59.333532" lon="18.077759">
        <ele>6</ele>
        <time>2019-11-25T06:56:39Z</time>
      </trkpt>
      <trkpt lat="59.333554" lon="18.077775">
        <ele>6</ele>
        <time>2019-11-25T06:56:40Z</time>
      </trkpt>
      <trkpt lat="59.333579" lon="18.077796">
        <ele>6</ele>
        <time>2019-11-25T06:56:41Z</time>
      </trkpt>
      <trkpt lat="59.333601" lon="18.077827">
        <ele>6</ele>
        <time>2019-11-25T06:56:42Z</time>
      </trkpt>
      <trkpt lat="59.333625" lon="18.077847">
        <ele>6</ele>
        <time>2019-11-25T06:56:43Z</time>
      </trkpt>
      <trkpt lat="59.333645" lon="18.07787">
        <ele>6</ele>
        <time>2019-11-25T06:56:44Z</time>
      </trkpt>
      <trkpt lat="59.333664" lon="18.077894">
        <ele>6</ele>
        <time>2019-11-25T06:56:45Z</time>
      </trkpt>
      <trkpt lat="59.333685" lon="18.077915">
        <ele>6</ele>
        <time>2019-11-25T06:56:46Z</time>
      </trkpt>
      <trkpt lat="59.333707" lon="18.077938">
        <ele>7</ele>
        <time>2019-11-25T06:56:47Z</time>
      </trkpt>
      <trkpt lat="59.333729" lon="18.07796">
        <ele>7</ele>
        <time>2019-11-25T06:56:48Z</time>
      </trkpt>
      <trkpt lat="59.333752" lon="18.07798">
        <ele>7</ele>
        <time>2019-11-25T06:56:49Z</time>
      </trkpt>
      <trkpt lat="59.333775" lon="18.078005">
        <ele>7</ele>
        <time>2019-11-25T06:56:50Z</time>
      </trkpt>
      <trkpt lat="59.333795" lon="18.078027">
        <ele>7</ele>
        <time>2019-11-25T06:56:51Z</time>
      </trkpt>
      <trkpt lat="59.333818" lon="18.07804">
        <ele>7</ele>
        <time>2019-11-25T06:56:52Z</time>
      </trkpt>
      <trkpt lat="59.333842" lon="18.078068">
        <ele>7</ele>
        <time>2019-11-25T06:56:53Z</time>
      </trkpt>
      <trkpt lat="59.333907" lon="18.078145">
        <ele>7</ele>
        <time>2019-11-25T06:56:55Z</time>
      </trkpt>
      <trkpt lat="59.333936" lon="18.078159">
        <ele>7</ele>
        <time>2019-11-25T06:56:56Z</time>
      </trkpt>
      <trkpt lat="59.33396" lon="18.078173">
        <ele>7</ele>
        <time>2019-11-25T06:56:57Z</time>
      </trkpt>
      <trkpt lat="59.334062" lon="18.078241">
        <ele>7</ele>
        <time>2019-11-25T06:57:01Z</time>
      </trkpt>
      <trkpt lat="59.334088" lon="18.078265">
        <ele>7</ele>
        <time>2019-11-25T06:57:02Z</time>
      </trkpt>
      <trkpt lat="59.334148" lon="18.0783">
        <ele>7</ele>
        <time>2019-11-25T06:57:04Z</time>
      </trkpt>
      <trkpt lat="59.334173" lon="18.078325">
        <ele>7</ele>
        <time>2019-11-25T06:57:05Z</time>
      </trkpt>
      <trkpt lat="59.334196" lon="18.078347">
        <ele>7</ele>
        <time>2019-11-25T06:57:06Z</time>
      </trkpt>
      <trkpt lat="59.334223" lon="18.078375">
        <ele>7</ele>
        <time>2019-11-25T06:57:07Z</time>
      </trkpt>
      <trkpt lat="59.334244" lon="18.078399">
        <ele>7</ele>
        <time>2019-11-25T06:57:08Z</time>
      </trkpt>
      <trkpt lat="59.334263" lon="18.078413">
        <ele>7</ele>
        <time>2019-11-25T06:57:09Z</time>
      </trkpt>
      <trkpt lat="59.33428" lon="18.078432">
        <ele>7</ele>
        <time>2019-11-25T06:57:10Z</time>
      </trkpt>
      <trkpt lat="59.334303" lon="18.078449">
        <ele>7</ele>
        <time>2019-11-25T06:57:11Z</time>
      </trkpt>
      <trkpt lat="59.334322" lon="18.078471">
        <ele>7</ele>
        <time>2019-11-25T06:57:12Z</time>
      </trkpt>
      <trkpt lat="59.334344" lon="18.078486">
        <ele>7</ele>
        <time>2019-11-25T06:57:13Z</time>
      </trkpt>
      <trkpt lat="59.334366" lon="18.078498">
        <ele>8</ele>
        <time>2019-11-25T06:57:14Z</time>
      </trkpt>
      <trkpt lat="59.334391" lon="18.078506">
        <ele>8</ele>
        <time>2019-11-25T06:57:15Z</time>
      </trkpt>
      <trkpt lat="59.334416" lon="18.078525">
        <ele>8</ele>
        <time>2019-11-25T06:57:16Z</time>
      </trkpt>
      <trkpt lat="59.334502" lon="18.07859">
        <ele>8</ele>
        <time>2019-11-25T06:57:19Z</time>
      </trkpt>
      <trkpt lat="59.334528" lon="18.078607">
        <ele>8</ele>
        <time>2019-11-25T06:57:20Z</time>
      </trkpt>
      <trkpt lat="59.334633" lon="18.078687">
        <ele>8</ele>
        <time>2019-11-25T06:57:24Z</time>
      </trkpt>
      <trkpt lat="59.334725" lon="18.078718">
        <ele>8</ele>
        <time>2019-11-25T06:57:27Z</time>
      </trkpt>
      <trkpt lat="59.334815" lon="18.078778">
        <ele>7</ele>
        <time>2019-11-25T06:57:30Z</time>
      </trkpt>
      <trkpt lat="59.334911" lon="18.078859">
        <ele>7</ele>
        <time>2019-11-25T06:57:34Z</time>
      </trkpt>
      <trkpt lat="59.334977" lon="18.078895">
        <ele>7</ele>
        <time>2019-11-25T06:57:36Z</time>
      </trkpt>
      <trkpt lat="59.335" lon="18.078919">
        <ele>7</ele>
        <time>2019-11-25T06:57:37Z</time>
      </trkpt>
      <trkpt lat="59.335023" lon="18.078944">
        <ele>7</ele>
        <time>2019-11-25T06:57:38Z</time>
      </trkpt>
      <trkpt lat="59.335045" lon="18.078962">
        <ele>7</ele>
        <time>2019-11-25T06:57:39Z</time>
      </trkpt>
      <trkpt lat="59.335069" lon="18.078979">
        <ele>7</ele>
        <time>2019-11-25T06:57:40Z</time>
      </trkpt>
      <trkpt lat="59.335088" lon="18.079">
        <ele>7</ele>
        <time>2019-11-25T06:57:41Z</time>
      </trkpt>
      <trkpt lat="59.335107" lon="18.079019">
        <ele>7</ele>
        <time>2019-11-25T06:57:42Z</time>
      </trkpt>
      <trkpt lat="59.335125" lon="18.079038">
        <ele>7</ele>
        <time>2019-11-25T06:57:43Z</time>
      </trkpt>
      <trkpt lat="59.335143" lon="18.079056">
        <ele>8</ele>
        <time>2019-11-25T06:57:44Z</time>
      </trkpt>
      <trkpt lat="59.335226" lon="18.079164">
        <ele>9</ele>
        <time>2019-11-25T06:57:48Z</time>
      </trkpt>
      <trkpt lat="59.335302" lon="18.079278">
        <ele>11</ele>
        <time>2019-11-25T06:57:52Z</time>
      </trkpt>
      <trkpt lat="59.335371" lon="18.0794">
        <ele>11</ele>
        <time>2019-11-25T06:57:56Z</time>
      </trkpt>
      <trkpt lat="59.335461" lon="18.07943">
        <ele>11</ele>
        <time>2019-11-25T06:58:00Z</time>
      </trkpt>
      <trkpt lat="59.335557" lon="18.079486">
        <ele>11</ele>
        <time>2019-11-25T06:58:03Z</time>
      </trkpt>
      <trkpt lat="59.335608" lon="18.079546">
        <ele>12</ele>
        <time>2019-11-25T06:58:05Z</time>
      </trkpt>
      <trkpt lat="59.335647" lon="18.079581">
        <ele>12</ele>
        <time>2019-11-25T06:58:06Z</time>
      </trkpt>
      <trkpt lat="59.335672" lon="18.079606">
        <ele>12</ele>
        <time>2019-11-25T06:58:07Z</time>
      </trkpt>
      <trkpt lat="59.335693" lon="18.079622">
        <ele>12</ele>
        <time>2019-11-25T06:58:08Z</time>
      </trkpt>
      <trkpt lat="59.335713" lon="18.079641">
        <ele>12</ele>
        <time>2019-11-25T06:58:09Z</time>
      </trkpt>
      <trkpt lat="59.335737" lon="18.079648">
        <ele>13</ele>
        <time>2019-11-25T06:58:10Z</time>
      </trkpt>
      <trkpt lat="59.335765" lon="18.079658">
        <ele>13</ele>
        <time>2019-11-25T06:58:11Z</time>
      </trkpt>
      <trkpt lat="59.335789" lon="18.079668">
        <ele>13</ele>
        <time>2019-11-25T06:58:12Z</time>
      </trkpt>
      <trkpt lat="59.335816" lon="18.079674">
        <ele>13</ele>
        <time>2019-11-25T06:58:13Z</time>
      </trkpt>
      <trkpt lat="59.335842" lon="18.079687">
        <ele>13</ele>
        <time>2019-11-25T06:58:14Z</time>
      </trkpt>
      <trkpt lat="59.335865" lon="18.079709">
        <ele>13</ele>
        <time>2019-11-25T06:58:15Z</time>
      </trkpt>
      <trkpt lat="59.33589" lon="18.07973">
        <ele>13</ele>
        <time>2019-11-25T06:58:16Z</time>
      </trkpt>
      <trkpt lat="59.335917" lon="18.079751">
        <ele>13</ele>
        <time>2019-11-25T06:58:17Z</time>
      </trkpt>
      <trkpt lat="59.335944" lon="18.079768">
        <ele>13</ele>
        <time>2019-11-25T06:58:19Z</time>
      </trkpt>
      <trkpt lat="59.335969" lon="18.079787">
        <ele>13</ele>
        <time>2019-11-25T06:58:19Z</time>
      </trkpt>
      <trkpt lat="59.335997" lon="18.079809">
        <ele>13</ele>
        <time>2019-11-25T06:58:20Z</time>
      </trkpt>
      <trkpt lat="59.336024" lon="18.079828">
        <ele>13</ele>
        <time>2019-11-25T06:58:21Z</time>
      </trkpt>
      <trkpt lat="59.336053" lon="18.079845">
        <ele>13</ele>
        <time>2019-11-25T06:58:22Z</time>
      </trkpt>
      <trkpt lat="59.336081" lon="18.079855">
        <ele>13</ele>
        <time>2019-11-25T06:58:23Z</time>
      </trkpt>
      <trkpt lat="59.336111" lon="18.079868">
        <ele>13</ele>
        <time>2019-11-25T06:58:24Z</time>
      </trkpt>
      <trkpt lat="59.336138" lon="18.079887">
        <ele>13</ele>
        <time>2019-11-25T06:58:25Z</time>
      </trkpt>
      <trkpt lat="59.336165" lon="18.079902">
        <ele>13</ele>
        <time>2019-11-25T06:58:26Z</time>
      </trkpt>
      <trkpt lat="59.336192" lon="18.079921">
        <ele>13</ele>
        <time>2019-11-25T06:58:27Z</time>
      </trkpt>
      <trkpt lat="59.336218" lon="18.079938">
        <ele>13</ele>
        <time>2019-11-25T06:58:28Z</time>
      </trkpt>
      <trkpt lat="59.336244" lon="18.079959">
        <ele>13</ele>
        <time>2019-11-25T06:58:29Z</time>
      </trkpt>
      <trkpt lat="59.336272" lon="18.079979">
        <ele>13</ele>
        <time>2019-11-25T06:58:30Z</time>
      </trkpt>
      <trkpt lat="59.336301" lon="18.079998">
        <ele>13</ele>
        <time>2019-11-25T06:58:31Z</time>
      </trkpt>
      <trkpt lat="59.33633" lon="18.08001">
        <ele>13</ele>
        <time>2019-11-25T06:58:32Z</time>
      </trkpt>
      <trkpt lat="59.336358" lon="18.08003">
        <ele>13</ele>
        <time>2019-11-25T06:58:33Z</time>
      </trkpt>
      <trkpt lat="59.336445" lon="18.080082">
        <ele>13</ele>
        <time>2019-11-25T06:58:36Z</time>
      </trkpt>
      <trkpt lat="59.33647" lon="18.080101">
        <ele>13</ele>
        <time>2019-11-25T06:58:37Z</time>
      </trkpt>
      <trkpt lat="59.336492" lon="18.080117">
        <ele>13</ele>
        <time>2019-11-25T06:58:38Z</time>
      </trkpt>
      <trkpt lat="59.336515" lon="18.080139">
        <ele>13</ele>
        <time>2019-11-25T06:58:39Z</time>
      </trkpt>
      <trkpt lat="59.336534" lon="18.08016">
        <ele>13</ele>
        <time>2019-11-25T06:58:40Z</time>
      </trkpt>
      <trkpt lat="59.33656" lon="18.080177">
        <ele>13</ele>
        <time>2019-11-25T06:58:41Z</time>
      </trkpt>
      <trkpt lat="59.336605" lon="18.080231">
        <ele>14</ele>
        <time>2019-11-25T06:58:43Z</time>
      </trkpt>
      <trkpt lat="59.33663" lon="18.080249">
        <ele>14</ele>
        <time>2019-11-25T06:58:44Z</time>
      </trkpt>
      <trkpt lat="59.336658" lon="18.080275">
        <ele>14</ele>
        <time>2019-11-25T06:58:45Z</time>
      </trkpt>
      <trkpt lat="59.336687" lon="18.080292">
        <ele>14</ele>
        <time>2019-11-25T06:58:46Z</time>
      </trkpt>
      <trkpt lat="59.336709" lon="18.080312">
        <ele>14</ele>
        <time>2019-11-25T06:58:47Z</time>
      </trkpt>
      <trkpt lat="59.336737" lon="18.080327">
        <ele>14</ele>
        <time>2019-11-25T06:58:48Z</time>
      </trkpt>
      <trkpt lat="59.336838" lon="18.080393">
        <ele>15</ele>
        <time>2019-11-25T06:58:52Z</time>
      </trkpt>
      <trkpt lat="59.336875" lon="18.080438">
        <ele>15</ele>
        <time>2019-11-25T06:58:53Z</time>
      </trkpt>
      <trkpt lat="59.336984" lon="18.080486">
        <ele>15</ele>
        <time>2019-11-25T06:58:57Z</time>
      </trkpt>
      <trkpt lat="59.337024" lon="18.080497">
        <ele>16</ele>
        <time>2019-11-25T06:58:59Z</time>
      </trkpt>
      <trkpt lat="59.337056" lon="18.08054">
        <ele>16</ele>
        <time>2019-11-25T06:59:00Z</time>
      </trkpt>
      <trkpt lat="59.337115" lon="18.080628">
        <ele>17</ele>
        <time>2019-11-25T06:59:02Z</time>
      </trkpt>
      <trkpt lat="59.337152" lon="18.080696">
        <ele>18</ele>
        <time>2019-11-25T06:59:04Z</time>
      </trkpt>
      <trkpt lat="59.337172" lon="18.080748">
        <ele>19</ele>
        <time>2019-11-25T06:59:06Z</time>
      </trkpt>
      <trkpt lat="59.337194" lon="18.080765">
        <ele>19</ele>
        <time>2019-11-25T06:59:07Z</time>
      </trkpt>
      <trkpt lat="59.337216" lon="18.080786">
        <ele>20</ele>
        <time>2019-11-25T06:59:08Z</time>
      </trkpt>
      <trkpt lat="59.337237" lon="18.08081">
        <ele>20</ele>
        <time>2019-11-25T06:59:09Z</time>
      </trkpt>
      <trkpt lat="59.337261" lon="18.080828">
        <ele>20</ele>
        <time>2019-11-25T06:59:10Z</time>
      </trkpt>
      <trkpt lat="59.337279" lon="18.080847">
        <ele>21</ele>
        <time>2019-11-25T06:59:11Z</time>
      </trkpt>
      <trkpt lat="59.337299" lon="18.08087">
        <ele>21</ele>
        <time>2019-11-25T06:59:12Z</time>
      </trkpt>
      <trkpt lat="59.337322" lon="18.080894">
        <ele>21</ele>
        <time>2019-11-25T06:59:13Z</time>
      </trkpt>
      <trkpt lat="59.337348" lon="18.080915">
        <ele>21</ele>
        <time>2019-11-25T06:59:14Z</time>
      </trkpt>
      <trkpt lat="59.337374" lon="18.080932">
        <ele>22</ele>
        <time>2019-11-25T06:59:15Z</time>
      </trkpt>
      <trkpt lat="59.337398" lon="18.080942">
        <ele>22</ele>
        <time>2019-11-25T06:59:16Z</time>
      </trkpt>
      <trkpt lat="59.337422" lon="18.080956">
        <ele>22</ele>
        <time>2019-11-25T06:59:17Z</time>
      </trkpt>
      <trkpt lat="59.337443" lon="18.08097">
        <ele>22</ele>
        <time>2019-11-25T06:59:18Z</time>
      </trkpt>
      <trkpt lat="59.337461" lon="18.080984">
        <ele>22</ele>
        <time>2019-11-25T06:59:19Z</time>
      </trkpt>
      <trkpt lat="59.337486" lon="18.080998">
        <ele>22</ele>
        <time>2019-11-25T06:59:20Z</time>
      </trkpt>
      <trkpt lat="59.33751" lon="18.08101">
        <ele>22</ele>
        <time>2019-11-25T06:59:21Z</time>
      </trkpt>
      <trkpt lat="59.337535" lon="18.081024">
        <ele>22</ele>
        <time>2019-11-25T06:59:22Z</time>
      </trkpt>
      <trkpt lat="59.33756" lon="18.081041">
        <ele>22</ele>
        <time>2019-11-25T06:59:23Z</time>
      </trkpt>
      <trkpt lat="59.337585" lon="18.081055">
        <ele>22</ele>
        <time>2019-11-25T06:59:24Z</time>
      </trkpt>
      <trkpt lat="59.337606" lon="18.081064">
        <ele>23</ele>
        <time>2019-11-25T06:59:25Z</time>
      </trkpt>
      <trkpt lat="59.33763" lon="18.081086">
        <ele>23</ele>
        <time>2019-11-25T06:59:26Z</time>
      </trkpt>
      <trkpt lat="59.337653" lon="18.08111">
        <ele>23</ele>
        <time>2019-11-25T06:59:27Z</time>
      </trkpt>
      <trkpt lat="59.337678" lon="18.08113">
        <ele>23</ele>
        <time>2019-11-25T06:59:28Z</time>
      </trkpt>
      <trkpt lat="59.337706" lon="18.081155">
        <ele>23</ele>
        <time>2019-11-25T06:59:29Z</time>
      </trkpt>
      <trkpt lat="59.337736" lon="18.081178">
        <ele>22</ele>
        <time>2019-11-25T06:59:30Z</time>
      </trkpt>
      <trkpt lat="59.337756" lon="18.081206">
        <ele>23</ele>
        <time>2019-11-25T06:59:31Z</time>
      </trkpt>
      <trkpt lat="59.337784" lon="18.081234">
        <ele>22</ele>
        <time>2019-11-25T06:59:32Z</time>
      </trkpt>
      <trkpt lat="59.337812" lon="18.081266">
        <ele>22</ele>
        <time>2019-11-25T06:59:33Z</time>
      </trkpt>
      <trkpt lat="59.33784" lon="18.081292">
        <ele>22</ele>
        <time>2019-11-25T06:59:34Z</time>
      </trkpt>
      <trkpt lat="59.337874" lon="18.08132">
        <ele>21</ele>
        <time>2019-11-25T06:59:35Z</time>
      </trkpt>
      <trkpt lat="59.337908" lon="18.081352">
        <ele>21</ele>
        <time>2019-11-25T06:59:36Z</time>
      </trkpt>
      <trkpt lat="59.338044" lon="18.081454">
        <ele>23</ele>
        <time>2019-11-25T06:59:39Z</time>
      </trkpt>
      <trkpt lat="59.338156" lon="18.081494">
        <ele>23</ele>
        <time>2019-11-25T06:59:42Z</time>
      </trkpt>
      <trkpt lat="59.338191" lon="18.08153">
        <ele>23</ele>
        <time>2019-11-25T06:59:43Z</time>
      </trkpt>
      <trkpt lat="59.338228" lon="18.081568">
        <ele>23</ele>
        <time>2019-11-25T06:59:44Z</time>
      </trkpt>
      <trkpt lat="59.338258" lon="18.081601">
        <ele>23</ele>
        <time>2019-11-25T06:59:45Z</time>
      </trkpt>
      <trkpt lat="59.33828" lon="18.081626">
        <ele>23</ele>
        <time>2019-11-25T06:59:46Z</time>
      </trkpt>
      <trkpt lat="59.338326" lon="18.081672">
        <ele>24</ele>
        <time>2019-11-25T06:59:48Z</time>
      </trkpt>
      <trkpt lat="59.33834" lon="18.081691">
        <ele>24</ele>
        <time>2019-11-25T06:59:49Z</time>
      </trkpt>
      <trkpt lat="59.338374" lon="18.081729">
        <ele>24</ele>
        <time>2019-11-25T06:59:51Z</time>
      </trkpt>
      <trkpt lat="59.338393" lon="18.08175">
        <ele>24</ele>
        <time>2019-11-25T06:59:52Z</time>
      </trkpt>
      <trkpt lat="59.338415" lon="18.08177">
        <ele>24</ele>
        <time>2019-11-25T06:59:53Z</time>
      </trkpt>
      <trkpt lat="59.338438" lon="18.081796">
        <ele>24</ele>
        <time>2019-11-25T06:59:54Z</time>
      </trkpt>
      <trkpt lat="59.338456" lon="18.081826">
        <ele>24</ele>
        <time>2019-11-25T06:59:55Z</time>
      </trkpt>
      <trkpt lat="59.338477" lon="18.081846">
        <ele>24</ele>
        <time>2019-11-25T06:59:56Z</time>
      </trkpt>
      <trkpt lat="59.338498" lon="18.08187">
        <ele>24</ele>
        <time>2019-11-25T06:59:57Z</time>
      </trkpt>
      <trkpt lat="59.33852" lon="18.081886">
        <ele>25</ele>
        <time>2019-11-25T06:59:58Z</time>
      </trkpt>
      <trkpt lat="59.33856" lon="18.081914">
        <ele>25</ele>
        <time>2019-11-25T07:00:00Z</time>
      </trkpt>
      <trkpt lat="59.33858" lon="18.081937">
        <ele>26</ele>
        <time>2019-11-25T07:00:01Z</time>
      </trkpt>
      <trkpt lat="59.338601" lon="18.081955">
        <ele>26</ele>
        <time>2019-11-25T07:00:02Z</time>
      </trkpt>
      <trkpt lat="59.338622" lon="18.081971">
        <ele>26</ele>
        <time>2019-11-25T07:00:03Z</time>
      </trkpt>
      <trkpt lat="59.338646" lon="18.081992">
        <ele>26</ele>
        <time>2019-11-25T07:00:04Z</time>
      </trkpt>
      <trkpt lat="59.338667" lon="18.082009">
        <ele>26</ele>
        <time>2019-11-25T07:00:05Z</time>
      </trkpt>
      <trkpt lat="59.338685" lon="18.082018">
        <ele>26</ele>
        <time>2019-11-25T07:00:06Z</time>
      </trkpt>
      <trkpt lat="59.338706" lon="18.082029">
        <ele>26</ele>
        <time>2019-11-25T07:00:07Z</time>
      </trkpt>
      <trkpt lat="59.338727" lon="18.082041">
        <ele>26</ele>
        <time>2019-11-25T07:00:08Z</time>
      </trkpt>
      <trkpt lat="59.338746" lon="18.082052">
        <ele>27</ele>
        <time>2019-11-25T07:00:09Z</time>
      </trkpt>
      <trkpt lat="59.338774" lon="18.082061">
        <ele>27</ele>
        <time>2019-11-25T07:00:10Z</time>
      </trkpt>
      <trkpt lat="59.338801" lon="18.08208">
        <ele>27</ele>
        <time>2019-11-25T07:00:11Z</time>
      </trkpt>
      <trkpt lat="59.338828" lon="18.082095">
        <ele>27</ele>
        <time>2019-11-25T07:00:12Z</time>
      </trkpt>
      <trkpt lat="59.338858" lon="18.082117">
        <ele>27</ele>
        <time>2019-11-25T07:00:13Z</time>
      </trkpt>
      <trkpt lat="59.338892" lon="18.082136">
        <ele>26</ele>
        <time>2019-11-25T07:00:14Z</time>
      </trkpt>
      <trkpt lat="59.338926" lon="18.082149">
        <ele>26</ele>
        <time>2019-11-25T07:00:15Z</time>
      </trkpt>
      <trkpt lat="59.33897" lon="18.082177">
        <ele>25</ele>
        <time>2019-11-25T07:00:16Z</time>
      </trkpt>
      <trkpt lat="59.339066" lon="18.082281">
        <ele>26</ele>
        <time>2019-11-25T07:00:18Z</time>
      </trkpt>
      <trkpt lat="59.339149" lon="18.082377">
        <ele>27</ele>
        <time>2019-11-25T07:00:20Z</time>
      </trkpt>
      <trkpt lat="59.33925" lon="18.082471">
        <ele>28</ele>
        <time>2019-11-25T07:00:23Z</time>
      </trkpt>
      <trkpt lat="59.339285" lon="18.082503">
        <ele>28</ele>
        <time>2019-11-25T07:00:24Z</time>
      </trkpt>
      <trkpt lat="59.339308" lon="18.082526">
        <ele>28</ele>
        <time>2019-11-25T07:00:25Z</time>
      </trkpt>
      <trkpt lat="59.339333" lon="18.082541">
        <ele>28</ele>
        <time>2019-11-25T07:00:26Z</time>
      </trkpt>
      <trkpt lat="59.339354" lon="18.082558">
        <ele>29</ele>
        <time>2019-11-25T07:00:27Z</time>
      </trkpt>
      <trkpt lat="59.339364" lon="18.082624">
        <ele>29</ele>
        <time>2019-11-25T07:00:29Z</time>
      </trkpt>
      <trkpt lat="59.339357" lon="18.082668">
        <ele>29</ele>
        <time>2019-11-25T07:00:30Z</time>
      </trkpt>
      <trkpt lat="59.339306" lon="18.082852">
        <ele>29</ele>
        <time>2019-11-25T07:00:33Z</time>
      </trkpt>
      <trkpt lat="59.339256" lon="18.08306">
        <ele>29</ele>
        <time>2019-11-25T07:00:36Z</time>
      </trkpt>
      <trkpt lat="59.339201" lon="18.083209">
        <ele>29</ele>
        <time>2019-11-25T07:00:39Z</time>
      </trkpt>
      <trkpt lat="59.339188" lon="18.083263">
        <ele>29</ele>
        <time>2019-11-25T07:00:40Z</time>
      </trkpt>
      <trkpt lat="59.339178" lon="18.083318">
        <ele>29</ele>
        <time>2019-11-25T07:00:41Z</time>
      </trkpt>
      <trkpt lat="59.339168" lon="18.083366">
        <ele>30</ele>
        <time>2019-11-25T07:00:42Z</time>
      </trkpt>
      <trkpt lat="59.339159" lon="18.08341">
        <ele>30</ele>
        <time>2019-11-25T07:00:43Z</time>
      </trkpt>
      <trkpt lat="59.339148" lon="18.083458">
        <ele>30</ele>
        <time>2019-11-25T07:00:44Z</time>
      </trkpt>
      <trkpt lat="59.339131" lon="18.083499">
        <ele>30</ele>
        <time>2019-11-25T07:00:45Z</time>
      </trkpt>
      <trkpt lat="59.339122" lon="18.083538">
        <ele>30</ele>
        <time>2019-11-25T07:00:46Z</time>
      </trkpt>
      <trkpt lat="59.339195" lon="18.083728">
        <ele>29</ele>
        <time>2019-11-25T07:00:50Z</time>
      </trkpt>
      <trkpt lat="59.339247" lon="18.083779">
        <ele>29</ele>
        <time>2019-11-25T07:00:52Z</time>
      </trkpt>
      <trkpt lat="59.339351" lon="18.083845">
        <ele>29</ele>
        <time>2019-11-25T07:00:56Z</time>
      </trkpt>
      <trkpt lat="59.339452" lon="18.083879">
        <ele>28</ele>
        <time>2019-11-25T07:00:59Z</time>
      </trkpt>
      <trkpt lat="59.339562" lon="18.083958">
        <ele>27</ele>
        <time>2019-11-25T07:01:02Z</time>
      </trkpt>
      <trkpt lat="59.339653" lon="18.08403">
        <ele>26</ele>
        <time>2019-11-25T07:01:05Z</time>
      </trkpt>
      <trkpt lat="59.339742" lon="18.084168">
        <ele>25</ele>
        <time>2019-11-25T07:01:08Z</time>
      </trkpt>
      <trkpt lat="59.339773" lon="18.084202">
        <ele>25</ele>
        <time>2019-11-25T07:01:09Z</time>
      </trkpt>
      <trkpt lat="59.339863" lon="18.084292">
        <ele>26</ele>
        <time>2019-11-25T07:01:12Z</time>
      </trkpt>
      <trkpt lat="59.339952" lon="18.084365">
        <ele>26</ele>
        <time>2019-11-25T07:01:15Z</time>
      </trkpt>
      <trkpt lat="59.340042" lon="18.084442">
        <ele>25</ele>
        <time>2019-11-25T07:01:19Z</time>
      </trkpt>
      <trkpt lat="59.340064" lon="18.084456">
        <ele>25</ele>
        <time>2019-11-25T07:01:20Z</time>
      </trkpt>
      <trkpt lat="59.340081" lon="18.08447">
        <ele>25</ele>
        <time>2019-11-25T07:01:21Z</time>
      </trkpt>
      <trkpt lat="59.340097" lon="18.084492">
        <ele>25</ele>
        <time>2019-11-25T07:01:22Z</time>
      </trkpt>
      <trkpt lat="59.340122" lon="18.084512">
        <ele>25</ele>
        <time>2019-11-25T07:01:23Z</time>
      </trkpt>
      <trkpt lat="59.340146" lon="18.084536">
        <ele>25</ele>
        <time>2019-11-25T07:01:24Z</time>
      </trkpt>
      <trkpt lat="59.340169" lon="18.084559">
        <ele>26</ele>
        <time>2019-11-25T07:01:25Z</time>
      </trkpt>
      <trkpt lat="59.340197" lon="18.084586">
        <ele>26</ele>
        <time>2019-11-25T07:01:26Z</time>
      </trkpt>
      <trkpt lat="59.340239" lon="18.084625">
        <ele>26</ele>
        <time>2019-11-25T07:01:27Z</time>
      </trkpt>
      <trkpt lat="59.340267" lon="18.08464">
        <ele>26</ele>
        <time>2019-11-25T07:01:28Z</time>
      </trkpt>
      <trkpt lat="59.340297" lon="18.084652">
        <ele>26</ele>
        <time>2019-11-25T07:01:29Z</time>
      </trkpt>
      <trkpt lat="59.340329" lon="18.08466">
        <ele>26</ele>
        <time>2019-11-25T07:01:30Z</time>
      </trkpt>
      <trkpt lat="59.340359" lon="18.084674">
        <ele>26</ele>
        <time>2019-11-25T07:01:31Z</time>
      </trkpt>
      <trkpt lat="59.340384" lon="18.084708">
        <ele>27</ele>
        <time>2019-11-25T07:01:32Z</time>
      </trkpt>
      <trkpt lat="59.340399" lon="18.084755">
        <ele>27</ele>
        <time>2019-11-25T07:01:33Z</time>
      </trkpt>
      <trkpt lat="59.340411" lon="18.084806">
        <ele>28</ele>
        <time>2019-11-25T07:01:34Z</time>
      </trkpt>
      <trkpt lat="59.340422" lon="18.08486">
        <ele>29</ele>
        <time>2019-11-25T07:01:35Z</time>
      </trkpt>
      <trkpt lat="59.340432" lon="18.084912">
        <ele>29</ele>
        <time>2019-11-25T07:01:36Z</time>
      </trkpt>
      <trkpt lat="59.340431" lon="18.084964">
        <ele>29</ele>
        <time>2019-11-25T07:01:37Z</time>
      </trkpt>
      <trkpt lat="59.340425" lon="18.085008">
        <ele>29</ele>
        <time>2019-11-25T07:01:38Z</time>
      </trkpt>
      <trkpt lat="59.340417" lon="18.085046">
        <ele>0</ele>
        <time>2019-11-25T07:01:39Z</time>
      </trkpt>
    </trkseg>
  </trk>
</gpx>